ftp/pub/palmer/observations_modified/2019/December/AR191204_BASE.txt

Download

Sample DateTime	Unit Id	WS Avg 2min	WD Avg 2min	WGS 10min	WGD 10min	Air Temp	Rel Humidity	Dew Point	Pyranometer	Quantum	Air Pressure	Snow Level	Rainfall	PW Current	Visibility	CBase 1	CBase 2	CBase 3	Vert Vis
2019/12/04 00:00:01	BASE	0.09	337	1.18	343	0.3	100	0.3	59	0	988.7	NA	0.0000		9999	520	0	0	0
2019/12/04 00:01:01	BASE	0.04	335	1.18	343	0.3	100	0.3	59	0	988.7	NA	0.0000		9999	490	0	0	0
2019/12/04 00:02:01	BASE	0.23	328	1.18	321	0.3	100	0.3	58	0	988.7	NA	0.0000		9999	560	0	0	0
2019/12/04 00:03:01	BASE	0.19	319	1.18	321	0.2	100	0.2	56	0	988.7	NA	0.0000		9999	590	0	0	0
2019/12/04 00:04:01	BASE	0.00	326	1.18	321	0.2	100	0.2	52	0	988.7	NA	0.0000		9999	620	0	0	0
2019/12/04 00:05:01	BASE	0.00	345	1.18	321	0.2	100	0.2	50	0	988.7	NA	0.0000		9999	560	0	0	0
2019/12/04 00:06:01	BASE	0.00	334	1.18	321	0.2	100	0.2	48	0	988.7	NA	0.0000		9999	560	0	0	0
2019/12/04 00:07:01	BASE	0.38	299	1.18	287	0.2	100	0.2	46	0	988.7	NA	0.0000		9999	560	0	0	0
2019/12/04 00:08:01	BASE	0.38	284	1.18	287	0.2	100	0.2	45	0	988.7	NA	0.0000		9999	590	0	0	0
2019/12/04 00:09:01	BASE	0.00	286	1.18	287	0.2	100	0.2	45	0	988.7	NA	0.0000		9999	620	0	0	0
2019/12/04 00:10:01	BASE	0.00	300	1.18	287	0.3	100	0.3	44	0	988.8	NA	0.0000		9999	560	0	0	0
2019/12/04 00:11:01	BASE	0.00	315	1.18	287	0.3	100	0.3	43	0	988.8	NA	0.0000		9999	590	0	0	0
2019/12/04 00:12:01	BASE	0.25	314	1.39	301	0.3	100	0.3	41	0	988.9	NA	0.0000		9999	590	0	0	0
2019/12/04 00:13:01	BASE	0.93	302	1.54	299	0.3	100	0.3	39	0	988.9	NA	0.0000		9999	590	0	0	0
2019/12/04 00:14:01	BASE	1.30	299	1.54	299	0.3	100	0.3	37	0	988.9	NA	0.0000		9999	620	0	0	0
2019/12/04 00:15:01	BASE	1.39	298	1.70	293	0.3	100	0.3	35	0	988.9	NA	0.0000		9999	620	0	0	0
2019/12/04 00:16:01	BASE	1.54	294	1.70	291	0.3	100	0.3	33	0	988.9	NA	0.0000		9999	590	0	0	0
2019/12/04 00:17:01	BASE	1.39	294	1.70	291	0.2	100	0.2	31	0	988.9	NA	0.0000		9999	590	0	0	0
2019/12/04 00:18:01	BASE	0.79	297	1.70	291	0.2	100	0.2	30	0	988.9	NA	0.0000		9999	560	0	0	0
2019/12/04 00:19:01	BASE	0.67	300	1.70	291	0.2	100	0.2	28	0	988.9	NA	0.0000		9999	690	0	0	0
2019/12/04 00:20:01	BASE	1.10	302	1.70	291	0.2	100	0.2	28	0	988.9	NA	0.0000		9999	720	0	0	0
2019/12/04 00:21:01	BASE	1.09	305	1.70	291	0.2	100	0.2	27	0	989.0	NA	0.0000		9999	720	0	0	0
2019/12/04 00:22:01	BASE	0.91	307	1.70	291	0.2	100	0.2	27	0	989.0	NA	0.0000		9999	720	0	0	0
2019/12/04 00:23:01	BASE	1.00	306	1.70	291	0.2	100	0.2	28	0	989.0	NA	0.0000		9999	620	0	0	0
2019/12/04 00:24:01	BASE	0.58	309	1.70	291	0.2	100	0.2	27	0	989.0	NA	0.0000		9999	750	0	0	0
2019/12/04 00:25:01	BASE	0.05	315	1.70	291	0.2	100	0.2	27	0	989.0	NA	0.0000		9999	820	0	0	0
2019/12/04 00:26:01	BASE	0.18	324	1.44	294	0.1	100	0.1	26	0	989.0	NA	0.0000		9999	790	0	0	0
2019/12/04 00:27:01	BASE	0.13	330	1.34	299	0.1	100	0.1	26	0	989.0	NA	0.0000		9999	790	0	0	0
2019/12/04 00:28:01	BASE	0.09	325	1.34	299	0.1	100	0.1	25	0	989.0	NA	0.0000		9999	720	0	0	0
2019/12/04 00:29:01	BASE	0.09	323	1.29	304	0.1	100	0.1	25	0	989.0	NA	0.0000		9999	750	0	0	0
2019/12/04 00:30:01	BASE	0.00	324	1.29	304	0.1	100	0.1	26	0	989.0	NA	0.0000		9999	720	0	0	0
2019/12/04 00:31:01	BASE	0.00	314	1.23	304	0.1	100	0.1	27	0	989.1	NA	0.0000		9999	720	0	0	0
2019/12/04 00:32:01	BASE	0.00	303	1.23	304	0.1	100	0.1	28	0	989.1	NA	0.0000		9999	720	0	0	0
2019/12/04 00:33:01	BASE	0.00	304	1.18	318	0.1	100	0.1	28	0	989.1	NA	0.0000		9999	720	0	0	0
2019/12/04 00:34:01	BASE	0.00	307	1.18	318	0.1	100	0.1	27	0	989.1	NA	0.0000		9999	750	0	0	0
2019/12/04 00:35:01	BASE	0.00	305	1.18	318	0.1	100	0.1	25	0	989.1	NA	0.0000		9999	750	0	0	0
2019/12/04 00:36:01	BASE	0.00	296	1.18	318	0.1	100	0.1	23	0	989.1	NA	0.0000		9999	690	0	0	0
2019/12/04 00:37:01	BASE	0.00	285	1.18	318	0.1	100	0.1	21	0	989.1	NA	0.0000		9999	790	0	0	0
2019/12/04 00:38:01	BASE	0.14	281	1.13	280	0.1	100	0.1	20	0	989.1	NA	0.0000		9999	690	0	0	0
2019/12/04 00:39:01	BASE	0.47	279	1.23	279	0.1	100	0.1	19	0	989.1	NA	0.0000		9999	660	0	0	0
2019/12/04 00:40:01	BASE	0.33	286	1.23	279	0.1	100	0.1	19	0	989.1	NA	0.0000		9999	820	0	0	0
2019/12/04 00:41:01	BASE	0.00	298	1.23	279	0.2	100	0.2	18	0	989.1	NA	0.0000		9999	920	0	0	0
2019/12/04 00:42:01	BASE	0.17	309	1.23	279	0.2	100	0.2	18	0	989.1	NA	0.0000		9999	920	0	0	0
2019/12/04 00:43:01	BASE	0.31	313	1.23	279	0.2	100	0.2	17	0	989.1	NA	0.0000		9999	920	0	0	0
2019/12/04 00:44:01	BASE	0.13	309	1.23	279	0.2	100	0.2	17	0	989.1	NA	0.0000		9999	850	0	0	0
2019/12/04 00:45:01	BASE	0.00	309	1.23	279	0.2	100	0.2	16	0	989.1	NA	0.0000		9999	820	0	0	0
2019/12/04 00:46:01	BASE	0.00	308	1.23	279	0.2	100	0.2	15	0	989.1	NA	0.0000		9999	790	0	0	0
2019/12/04 00:47:01	BASE	0.00	307	1.23	279	0.2	100	0.2	15	0	989.1	NA	0.0000		9999	790	0	0	0
2019/12/04 00:48:01	BASE	0.00	309	1.23	279	0.2	100	0.2	15	0	989.1	NA	0.0000		9999	790	0	0	0
2019/12/04 00:49:01	BASE	0.00	322	1.08	307	0.2	100	0.2	15	0	989.1	NA	0.0000		9999	1080	0	0	0
2019/12/04 00:50:01	BASE	0.00	321	1.08	307	0.2	100	0.2	14	0	989.1	NA	0.0000		9999	1080	0	0	0
2019/12/04 00:51:01	BASE	0.00	311	1.08	307	0.3	100	0.3	15	0	989.1	NA	0.0000		9999	1080	0	0	0
2019/12/04 00:52:01	BASE	0.00	325	1.08	307	0.3	100	0.3	15	0	989.1	NA	0.0000		9999	890	0	0	0
2019/12/04 00:53:01	BASE	0.00	352	M	M	0.3	100	0.3	15	0	989.1	NA	0.0000		9999	1150	0	0	0
2019/12/04 00:54:01	BASE	0.00	11	M	M	0.3	100	0.3	15	0	989.2	NA	0.0000		9999	980	0	0	0
2019/12/04 00:55:01	BASE	0.00	12	M	M	0.3	100	0.3	14	0	989.2	NA	0.0000		9999	950	0	0	0
2019/12/04 00:56:01	BASE	0.27	11	1.18	9	0.2	100	0.2	14	0	989.2	NA	0.0000		9999	980	0	0	0
2019/12/04 00:57:01	BASE	0.48	13	1.18	9	0.2	100	0.2	13	0	989.2	NA	0.0000		9999	1050	0	0	0
2019/12/04 00:58:01	BASE	0.69	23	1.18	9	0.2	100	0.2	12	0	989.2	NA	0.0000		9999	1050	0	0	0
2019/12/04 00:59:01	BASE	0.94	24	1.18	19	0.3	100	0.3	12	0	989.2	NA	0.0000		9999	950	0	0	0
2019/12/04 01:00:01	BASE	0.86	21	1.18	19	0.3	100	0.3	11	0	989.2	NA	0.0000		9999	980	0	0	0
2019/12/04 01:01:01	BASE	0.58	23	1.18	19	0.3	100	0.3	10	0	989.2	NA	0.0000		9999	1050	0	0	0
2019/12/04 01:02:01	BASE	0.18	28	1.18	19	0.3	100	0.3	10	0	989.2	NA	0.0000		9999	1020	0	0	0
2019/12/04 01:03:00	BASE	0.00	33	1.18	19	0.3	100	0.3	10	0	989.3	NA	0.0000		9999	950	0	0	0
2019/12/04 01:04:01	BASE	0.00	33	1.18	19	0.3	100	0.3	9	0	989.3	NA	0.0000		9999	950	0	0	0
2019/12/04 01:05:00	BASE	0.00	35	1.18	19	0.4	100	0.4	9	0	989.3	NA	0.0000		9999	920	0	0	0
2019/12/04 01:06:01	BASE	0.00	33	1.18	19	0.4	100	0.4	8	0	989.4	NA	0.0000		9999	890	0	0	0
2019/12/04 01:07:00	BASE	0.00	14	1.18	19	0.4	100	0.4	8	0	989.4	NA	0.0000		9999	890	0	0	0
2019/12/04 01:08:01	BASE	0.00	343	1.18	19	0.4	100	0.4	8	0	989.4	NA	0.0000		9999	920	0	0	0
2019/12/04 01:09:00	BASE	0.00	315	1.08	26	0.3	100	0.3	8	0	989.4	NA	0.0000		9999	1020	0	0	0
2019/12/04 01:10:00	BASE	0.00	291	1.08	26	0.3	100	0.3	8	0	989.4	NA	0.0000		9999	980	0	0	0
2019/12/04 01:11:00	BASE	0.00	282	M	M	0.3	100	0.3	8	0	989.4	NA	0.0000		9999	950	0	0	0
2019/12/04 01:12:01	BASE	0.00	287	M	M	0.3	100	0.3	8	0	989.4	NA	0.0000		9999	1020	0	0	0
2019/12/04 01:13:01	BASE	0.00	295	M	M	0.3	100	0.3	8	0	989.4	NA	0.0000		9999	1020	0	0	0
2019/12/04 01:14:01	BASE	0.00	299	M	M	0.3	100	0.3	8	0	989.4	NA	0.0000		9999	1020	0	0	0
2019/12/04 01:15:00	BASE	0.00	295	M	M	0.2	100	0.2	8	0	989.4	NA	0.0000		9999	980	0	0	0
2019/12/04 01:16:01	BASE	0.00	287	M	M	0.2	100	0.2	8	0	989.4	NA	0.0000		9999	1020	0	0	0
2019/12/04 01:17:00	BASE	0.00	279	M	M	0.2	100	0.2	8	0	989.4	NA	0.0000		9999	950	0	0	0
2019/12/04 01:18:01	BASE	0.09	264	1.08	261	0.2	100	0.2	8	0	989.4	NA	0.0000		9999	260	980	0	0
2019/12/04 01:19:01	BASE	0.17	249	1.08	248	0.2	100	0.2	8	0	989.4	NA	0.0000		9999	300	950	0	0
2019/12/04 01:20:00	BASE	0.09	238	1.08	248	0.1	100	0.1	8	0	989.4	NA	0.0000		9999	950	0	0	0
2019/12/04 01:21:00	BASE	0.00	226	1.08	248	0.1	100	0.1	8	0	989.4	NA	0.0000		9000	980	0	0	0
2019/12/04 01:22:00	BASE	0.39	217	1.29	212	-0.0	100	-0.0	8	0	989.3	NA	0.0000		9000	920	0	0	0
2019/12/04 01:23:00	BASE	1.14	208	1.65	200	-0.1	100	-0.1	8	0	989.2	NA	0.0000		9999	890	0	0	0
2019/12/04 01:24:01	BASE	1.54	201	1.75	191	-0.2	100	-0.2	7	0	989.2	NA	0.0000		9999	980	0	0	0
2019/12/04 01:25:00	BASE	1.48	193	1.75	191	-0.3	100	-0.3	7	0	989.2	NA	0.0000		9999	980	0	0	0
2019/12/04 01:26:01	BASE	1.01	180	1.75	191	-0.4	100	-0.4	7	0	989.2	NA	0.0000		9999	950	0	0	0
2019/12/04 01:27:01	BASE	0.74	163	1.75	191	-0.4	100	-0.4	7	0	989.2	NA	0.0000		9000	950	0	0	0
2019/12/04 01:28:01	BASE	1.00	145	1.75	191	-0.4	100	-0.4	7	0	989.2	NA	0.0000	BR	7000	1020	0	0	0
2019/12/04 01:29:00	BASE	0.63	143	1.75	191	-0.4	100	-0.4	7	0	989.2	NA	0.0000	BR	7000	1080	0	0	0
2019/12/04 01:30:00	BASE	0.09	152	1.75	191	-0.3	100	-0.3	7	0	989.2	NA	0.0000	BR	8000	1050	0	0	0
2019/12/04 01:31:00	BASE	0.69	163	1.75	191	-0.3	100	-0.3	7	0	989.2	NA	0.0000	BR	9999	1050	0	0	0
2019/12/04 01:32:00	BASE	1.48	172	2.26	175	-0.3	100	-0.3	6	0	989.2	NA	0.0000	BR	9999	1020	0	0	0
2019/12/04 01:33:00	BASE	2.24	179	3.19	182	-0.3	100	-0.3	6	0	989.2	NA	0.0000	BR	9999	200	1020	0	0
2019/12/04 01:34:00	BASE	2.76	180	3.19	182	-0.4	100	-0.4	5	0	989.2	NA	0.0000	BR	8000	0	0	0	460
2019/12/04 01:35:00	BASE	2.71	176	3.19	182	-0.4	100	-0.4	5	0	989.2	NA	0.0000	BR	7000	160	0	0	0
2019/12/04 01:36:00	BASE	2.63	179	3.24	185	-0.5	100	-0.5	5	0	989.2	NA	0.0000	BR	7000	0	0	0	790
2019/12/04 01:37:00	BASE	2.26	179	3.24	185	-0.5	100	-0.5	5	0	989.2	NA	0.0000	BR	8000	300	890	0	0
2019/12/04 01:38:00	BASE	1.93	170	3.24	185	-0.6	100	-0.6	5	0	989.2	NA	0.0000	BR	7000	950	0	0	0
2019/12/04 01:39:00	BASE	1.98	166	3.24	185	-0.6	100	-0.6	5	0	989.2	NA	0.0000	BR	7000	980	0	0	0
2019/12/04 01:40:00	BASE	2.12	163	3.24	185	-0.6	100	-0.6	5	0	989.2	NA	0.0000	BR	6000	300	980	0	0
2019/12/04 01:41:01	BASE	2.25	162	3.24	185	-0.6	100	-0.6	5	0	989.2	NA	0.0000	BR	6000	300	980	0	0
2019/12/04 01:42:00	BASE	2.38	165	3.24	185	-0.5	100	-0.5	4	0	989.2	NA	0.0000	BR	7000	300	0	0	0
2019/12/04 01:43:00	BASE	2.32	169	3.24	185	-0.5	100	-0.5	4	0	989.2	NA	0.0000	BR	7000	360	850	0	0
2019/12/04 01:44:00	BASE	2.23	168	3.24	185	-0.6	100	-0.6	4	0	989.2	NA	0.0000	BR	6000	920	0	0	0
2019/12/04 01:45:00	BASE	2.21	168	3.24	185	-0.6	100	-0.6	4	0	989.2	NA	0.0000	BR	6000	260	920	0	0
2019/12/04 01:46:01	BASE	2.17	171	2.62	180	-0.6	100	-0.6	3	0	989.2	NA	0.0000	BR	6000	260	950	0	0
2019/12/04 01:47:01	BASE	2.20	170	2.62	180	-0.6	100	-0.6	3	0	989.2	NA	0.0000	BR	6000	260	980	0	0
2019/12/04 01:48:01	BASE	2.22	169	2.62	180	-0.6	100	-0.6	3	0	989.2	NA	0.0000	BR	7000	300	950	0	0
2019/12/04 01:49:01	BASE	2.11	169	2.62	180	-0.6	100	-0.6	3	0	989.1	NA	0.0000	BR	7000	300	950	0	0
2019/12/04 01:50:01	BASE	2.10	173	2.62	180	-0.6	100	-0.6	3	0	989.2	NA	0.0000	BR	7000	330	920	0	0
2019/12/04 01:51:01	BASE	2.02	171	2.62	180	-0.6	100	-0.6	3	0	989.1	NA	0.0000	BR	7000	360	920	0	0
2019/12/04 01:52:01	BASE	1.88	170	2.62	180	-0.6	100	-0.6	3	0	989.1	NA	0.0000	BR	8000	950	0	0	0
2019/12/04 01:53:01	BASE	1.88	171	2.62	180	-0.6	100	-0.6	2	0	989.2	NA	0.0000	BR	8000	920	0	0	0
2019/12/04 01:54:01	BASE	1.89	175	2.62	180	-0.6	100	-0.6	2	0	989.2	NA	0.0000	BR	8000	920	0	0	0
2019/12/04 01:55:01	BASE	1.83	180	2.62	180	-0.6	100	-0.6	2	0	989.2	NA	0.0000	BR	8000	390	890	0	0
2019/12/04 01:56:01	BASE	1.85	177	2.52	173	-0.6	100	-0.6	2	0	989.2	NA	0.0000	BR	7000	390	0	0	0
2019/12/04 01:57:01	BASE	1.86	173	2.52	173	-0.6	100	-0.6	2	0	989.2	NA	0.0000	BR	7000	390	920	0	0
2019/12/04 01:58:01	BASE	1.74	175	2.42	173	-0.6	100	-0.6	2	0	989.2	NA	0.0000	BR	7000	390	0	0	0
2019/12/04 01:59:01	BASE	1.80	170	2.42	173	-0.6	100	-0.6	2	0	989.2	NA	0.0000	BR	7000	390	920	0	0
2019/12/04 02:00:01	BASE	1.98	169	2.42	176	-0.6	100	-0.6	2	0	989.2	NA	0.0000	BR	8000	430	950	0	0
2019/12/04 02:01:01	BASE	1.90	177	2.42	176	-0.6	100	-0.6	2	0	989.2	NA	0.0000	BR	7000	950	0	0	0
2019/12/04 02:02:01	BASE	1.62	177	2.42	176	-0.6	100	-0.6	2	0	989.2	NA	0.0000	BR	7000	430	920	0	0
2019/12/04 02:03:01	BASE	1.48	168	2.42	176	-0.6	100	-0.6	2	0	989.2	NA	0.0000	BR	7000	430	950	0	0
2019/12/04 02:04:01	BASE	1.44	160	2.42	176	-0.6	100	-0.6	2	0	989.2	NA	0.0000	BR	7000	430	0	0	0
2019/12/04 02:05:01	BASE	1.37	154	2.42	176	-0.5	100	-0.5	2	0	989.3	NA	0.0000	BR	7000	460	0	0	0
2019/12/04 02:06:01	BASE	1.10	155	2.42	176	-0.5	100	-0.5	2	0	989.4	NA	0.0000	BR	7000	460	0	0	0
2019/12/04 02:07:01	BASE	0.65	159	2.42	176	-0.5	100	-0.5	2	0	989.4	NA	0.0000	BR	8000	490	1080	0	0
2019/12/04 02:08:01	BASE	0.91	161	2.42	176	-0.5	100	-0.5	1	0	989.4	NA	0.0000	BR	7000	460	0	0	0
2019/12/04 02:09:01	BASE	1.36	166	2.42	176	-0.5	100	-0.5	1	0	989.4	NA	0.0000	BR	7000	430	0	0	0
2019/12/04 02:10:01	BASE	1.28	182	1.95	196	-0.5	100	-0.5	1	0	989.4	NA	0.0000	BR	7000	430	0	0	0
2019/12/04 02:11:01	BASE	0.61	185	1.95	196	-0.5	100	-0.5	1	0	989.4	NA	0.0000	BR	7000	520	0	0	0
2019/12/04 02:12:01	BASE	0.23	190	1.95	196	-0.5	100	-0.5	1	0	989.4	NA	0.0000	BR	6000	560	0	0	0
2019/12/04 02:13:01	BASE	0.45	195	1.95	196	-0.5	100	-0.5	1	0	989.4	NA	0.0000	BR	8000	590	0	0	0
2019/12/04 02:14:01	BASE	0.22	164	1.95	196	-0.5	100	-0.5	1	0	989.4	NA	0.0000	BR	8000	620	0	0	0
2019/12/04 02:15:01	BASE	0.00	157	1.95	196	-0.5	100	-0.5	1	0	989.5	NA	0.0000	BR	7000	660	0	0	0
2019/12/04 02:16:01	BASE	0.00	199	1.95	196	-0.5	100	-0.5	1	0	989.5	NA	0.0000	BR	8000	790	0	0	0
2019/12/04 02:17:01	BASE	0.00	169	1.95	196	-0.5	100	-0.5	1	0	989.5	NA	0.0000	BR	9999	790	0	0	0
2019/12/04 02:18:01	BASE	0.00	113	1.95	196	-0.5	100	-0.5	1	0	989.5	NA	0.0000	BR	8000	820	0	0	0
2019/12/04 02:19:01	BASE	0.00	83	1.95	196	-0.5	100	-0.5	1	0	989.5	NA	0.0000	BR	8000	820	0	0	0
2019/12/04 02:20:01	BASE	0.00	48	1.49	210	-0.5	100	-0.5	1	0	989.5	NA	0.0000	BR	8000	820	0	0	0
2019/12/04 02:21:01	BASE	0.00	2	1.49	210	-0.5	100	-0.5	1	0	989.5	NA	0.0000	BR	9000	720	0	0	0
2019/12/04 02:22:01	BASE	0.00	280	1.44	219	-0.5	100	-0.5	1	0	989.5	NA	0.0000	BR	9999	750	0	0	0
2019/12/04 02:23:01	BASE	0.00	307	M	M	-0.5	100	-0.5	1	0	989.5	NA	0.0000	BR	9000	890	0	0	0
2019/12/04 02:24:01	BASE	0.00	27	M	M	-0.4	100	-0.4	1	0	989.5	NA	0.0000	BR	9999	850	0	0	0
2019/12/04 02:25:01	BASE	0.18	48	1.13	44	-0.4	100	-0.4	1	0	989.5	NA	0.0000	BR	9999	750	0	0	0
2019/12/04 02:26:01	BASE	0.40	45	1.13	48	-0.3	100	-0.3	1	0	989.5	NA	0.0000	BR	9999	750	0	0	0
2019/12/04 02:27:01	BASE	0.22	45	1.13	48	-0.3	100	-0.3	1	0	989.5	NA	0.0000	BR	9999	790	0	0	0
2019/12/04 02:28:01	BASE	0.05	33	1.13	48	-0.3	100	-0.3	1	0	989.5	NA	0.0000	BR	9999	490	0	0	0
2019/12/04 02:29:01	BASE	0.05	8	1.13	48	-0.3	100	-0.3	1	0	989.4	NA	0.0000	BR	9999	490	0	0	0
2019/12/04 02:30:01	BASE	0.16	3	1.39	347	-0.3	100	-0.3	1	0	989.4	NA	0.0000		9999	690	0	0	0
2019/12/04 02:31:01	BASE	0.36	34	1.39	347	-0.3	100	-0.3	1	0	989.4	NA	0.0000		9999	460	0	0	0
2019/12/04 02:32:01	BASE	0.29	58	1.39	347	-0.3	100	-0.3	1	0	989.4	NA	0.0000		9999	460	0	0	0
2019/12/04 02:33:01	BASE	0.31	63	1.39	347	-0.3	100	-0.3	1	0	989.4	NA	0.0000		9000	460	0	0	0
2019/12/04 02:34:01	BASE	0.76	55	1.49	44	-0.3	100	-0.3	1	0	989.4	NA	0.0000		9999	460	0	0	0
2019/12/04 02:35:01	BASE	1.24	45	1.54	43	-0.3	100	-0.3	1	0	989.4	NA	0.0000		8000	490	0	0	0
2019/12/04 02:36:01	BASE	1.36	44	1.54	43	-0.2	100	-0.2	1	0	989.4	NA	0.0000	BR	9000	490	920	0	0
2019/12/04 02:37:01	BASE	1.16	46	1.54	43	-0.2	100	-0.2	1	0	989.4	NA	0.0000	BR	9999	520	0	0	0
2019/12/04 02:38:01	BASE	1.18	32	1.59	44	-0.2	100	-0.2	1	0	989.4	NA	0.0000	BR	9999	490	0	0	0
2019/12/04 02:39:01	BASE	1.03	359	1.59	44	-0.2	100	-0.2	1	0	989.4	NA	0.0000	BR	9999	790	0	0	0
2019/12/04 02:40:01	BASE	0.58	1	1.59	44	-0.3	100	-0.3	1	0	989.4	NA	0.0000	BR	9999	820	0	0	0
2019/12/04 02:41:01	BASE	0.90	2	2.01	348	-0.3	100	-0.3	1	0	989.4	NA	0.0000	BR	9999	850	0	0	0
2019/12/04 02:42:01	BASE	1.13	350	2.01	348	-0.3	100	-0.3	1	0	989.4	NA	0.0000	BR	9999	520	0	0	0
2019/12/04 02:43:01	BASE	0.77	339	2.01	348	-0.3	100	-0.3	1	0	989.4	NA	0.0000		9999	560	0	0	0
2019/12/04 02:44:01	BASE	1.06	274	2.01	348	-0.3	100	-0.3	1	0	989.4	NA	0.0000		9999	890	0	0	0
2019/12/04 02:45:00	BASE	1.18	245	2.01	348	-0.3	100	-0.3	1	0	989.4	NA	0.0000		9999	890	0	0	0
2019/12/04 02:46:01	BASE	1.31	272	2.68	286	-0.2	100	-0.2	1	0	989.4	NA	0.0000		9999	890	0	0	0
2019/12/04 02:47:01	BASE	2.19	293	3.29	295	-0.2	100	-0.2	1	0	989.4	NA	0.0000		9999	890	0	0	0
2019/12/04 02:48:01	BASE	2.27	294	3.29	295	-0.2	100	-0.2	1	0	989.4	NA	0.0000		9999	850	0	0	0
2019/12/04 02:49:01	BASE	2.08	279	3.29	295	-0.3	100	-0.3	1	0	989.4	NA	0.0000		9999	850	0	0	0
2019/12/04 02:50:00	BASE	1.94	284	3.29	295	-0.3	100	-0.3	1	0	989.4	NA	0.0000		9999	850	0	0	0
2019/12/04 02:51:00	BASE	1.70	294	3.29	295	-0.3	100	-0.3	1	0	989.4	NA	0.0000		9999	820	0	0	0
2019/12/04 02:52:00	BASE	2.39	289	3.29	291	-0.3	100	-0.3	1	0	989.4	NA	0.0000		9999	850	0	0	0
2019/12/04 02:53:00	BASE	2.56	292	3.29	291	-0.3	100	-0.3	1	0	989.4	NA	0.0000		9999	890	0	0	0
2019/12/04 02:54:01	BASE	2.01	289	3.29	291	-0.3	100	-0.3	1	0	989.4	NA	0.0000		9999	820	0	0	0
2019/12/04 02:55:00	BASE	1.68	299	3.29	291	-0.3	100	-0.3	1	0	989.4	NA	0.0000		9999	850	0	0	0
2019/12/04 02:56:01	BASE	1.72	322	3.29	291	-0.2	100	-0.2	1	0	989.4	NA	0.0000		9999	890	0	0	0
2019/12/04 02:57:00	BASE	1.64	312	3.29	291	-0.2	100	-0.2	1	0	989.4	NA	0.0000		9999	890	0	0	0
2019/12/04 02:58:01	BASE	1.32	302	3.29	291	-0.2	100	-0.2	1	0	989.4	NA	0.0000		9999	890	0	0	0
2019/12/04 02:59:00	BASE	1.40	312	3.29	291	-0.2	100	-0.2	1	0	989.4	NA	0.0000		9999	890	0	0	0
2019/12/04 03:00:00	BASE	0.93	315	3.29	291	-0.2	100	-0.2	1	0	989.4	NA	0.0000		9999	890	0	0	0
2019/12/04 03:01:00	BASE	0.39	319	3.29	291	-0.2	100	-0.2	1	0	989.4	NA	0.0000		9999	850	0	0	0
2019/12/04 03:02:00	BASE	0.87	336	3.09	256	-0.2	100	-0.2	1	0	989.4	NA	0.0000		9999	850	0	0	0
2019/12/04 03:03:00	BASE	1.04	338	3.09	256	-0.2	100	-0.2	1	0	989.4	NA	0.0000		9999	890	0	0	0
2019/12/04 03:04:00	BASE	0.36	325	2.26	329	-0.2	100	-0.2	1	0	989.4	NA	0.0000		9999	890	0	0	0
2019/12/04 03:05:00	BASE	0.41	328	2.26	329	-0.2	100	-0.2	1	0	989.4	NA	0.0000		9999	850	0	0	0
2019/12/04 03:06:00	BASE	0.91	339	2.21	281	-0.2	100	-0.2	1	0	989.4	NA	0.0000		9999	790	0	0	0
2019/12/04 03:07:00	BASE	0.95	354	1.95	308	-0.2	100	-0.2	1	0	989.4	NA	0.0000		9999	820	0	0	0
2019/12/04 03:08:00	BASE	1.11	10	1.80	330	-0.2	100	-0.2	1	0	989.4	NA	0.0000		9999	820	0	0	0
2019/12/04 03:09:00	BASE	1.28	359	1.65	354	-0.2	100	-0.2	1	0	989.5	NA	0.0000		9999	560	0	0	0
2019/12/04 03:10:00	BASE	1.22	342	1.65	333	-0.2	100	-0.2	1	0	989.5	NA	0.0000		9999	520	980	0	0
2019/12/04 03:11:00	BASE	1.38	332	2.11	324	-0.1	100	-0.1	1	0	989.5	NA	0.0000		9999	520	1180	0	0
2019/12/04 03:12:00	BASE	1.61	330	2.11	324	-0.1	100	-0.1	1	0	989.5	NA	0.0000		9999	890	0	0	0
2019/12/04 03:13:00	BASE	1.66	329	2.31	328	-0.1	100	-0.1	1	0	989.6	NA	0.0000		9999	490	950	0	0
2019/12/04 03:14:01	BASE	1.70	326	2.31	328	-0.2	100	-0.2	1	0	989.6	NA	0.0000		9999	490	850	0	0
2019/12/04 03:15:00	BASE	1.51	335	2.31	328	-0.2	100	-0.2	1	0	989.6	NA	0.0000		9999	490	0	0	0
2019/12/04 03:16:01	BASE	1.15	347	2.31	328	-0.2	100	-0.2	1	0	989.6	NA	0.0000		9999	490	950	0	0
2019/12/04 03:17:00	BASE	1.27	337	2.31	328	-0.2	100	-0.2	1	0	989.6	NA	0.0000		9999	490	0	0	0
2019/12/04 03:18:01	BASE	1.62	307	2.31	328	-0.2	100	-0.2	1	0	989.6	NA	0.0000		9999	520	0	0	0
2019/12/04 03:19:00	BASE	1.82	299	2.31	328	-0.2	100	-0.2	1	0	989.6	NA	0.0000		9999	790	0	0	0
2019/12/04 03:20:00	BASE	1.74	319	2.31	328	-0.2	100	-0.2	1	0	989.6	NA	0.0000		9999	1020	0	0	0
2019/12/04 03:21:00	BASE	1.85	335	2.37	338	-0.2	100	-0.2	1	0	989.6	NA	0.0000		9999	980	0	0	0
2019/12/04 03:22:00	BASE	1.94	334	2.37	338	-0.2	100	-0.2	1	0	989.6	NA	0.0000		9999	1020	0	0	0
2019/12/04 03:23:00	BASE	1.74	335	2.37	338	-0.2	100	-0.2	1	0	989.6	NA	0.0000		9999	980	0	0	0
2019/12/04 03:24:00	BASE	1.62	347	2.37	338	-0.2	100	-0.2	1	0	989.6	NA	0.0000		9999	1050	0	0	0
2019/12/04 03:25:00	BASE	1.42	358	2.37	338	-0.2	100	-0.2	1	0	989.6	NA	0.0000		9999	980	0	0	0
2019/12/04 03:26:00	BASE	1.31	347	2.37	338	-0.1	100	-0.1	1	0	989.6	NA	0.0000		9999	1120	0	0	0
2019/12/04 03:27:00	BASE	0.93	347	2.37	338	-0.1	100	-0.1	1	0	989.6	NA	0.0000		9999	1120	0	0	0
2019/12/04 03:28:00	BASE	0.48	7	2.37	338	-0.1	100	-0.1	1	0	989.7	NA	0.0000		9999	1120	0	0	0
2019/12/04 03:29:00	BASE	0.18	14	2.37	338	-0.1	100	-0.1	1	0	989.7	NA	0.0000		9999	1120	0	0	0
2019/12/04 03:30:00	BASE	0.00	18	2.37	338	-0.1	100	-0.1	1	0	989.7	NA	0.0000		9999	1120	0	0	0
2019/12/04 03:31:00	BASE	0.00	9	2.06	335	-0.1	100	-0.1	1	0	989.7	NA	0.0000		9999	1050	0	0	0
2019/12/04 03:32:01	BASE	0.00	356	1.95	335	-0.1	100	-0.1	1	0	989.7	NA	0.0000		9999	1050	0	0	0
2019/12/04 03:33:00	BASE	0.05	359	1.85	341	-0.1	100	-0.1	1	0	989.7	NA	0.0000		9999	1050	0	0	0
2019/12/04 03:34:00	BASE	0.05	13	1.85	341	-0.1	100	-0.1	1	0	989.7	NA	0.0000		9999	1080	0	0	0
2019/12/04 03:35:00	BASE	0.00	334	1.65	318	-0.0	100	-0.0	1	0	989.7	NA	0.0000		9999	1250	0	0	0
2019/12/04 03:36:00	BASE	0.28	347	1.34	2	-0.0	100	-0.0	1	0	989.7	NA	0.0000		9999	1310	0	0	0
2019/12/04 03:37:00	BASE	0.65	15	1.34	2	-0.0	100	-0.0	1	0	989.7	NA	0.0000		9999	1410	0	0	0
2019/12/04 03:38:00	BASE	0.59	31	1.34	2	-0.0	100	-0.0	1	0	989.7	NA	0.0000		9999	1210	0	0	0
2019/12/04 03:39:00	BASE	0.52	38	1.34	2	-0.0	100	-0.0	1	0	989.7	NA	0.0000		9999	1280	0	0	0
2019/12/04 03:40:00	BASE	0.30	49	1.34	2	-0.1	100	-0.1	1	0	989.7	NA	0.0000		9999	1250	0	0	0
2019/12/04 03:41:00	BASE	0.44	52	1.49	32	-0.1	100	-0.1	1	0	989.7	NA	0.0000		9999	1120	0	0	0
2019/12/04 03:42:00	BASE	1.19	35	1.65	17	-0.1	100	-0.1	1	0	989.8	NA	0.0000		9999	1640	0	0	0
2019/12/04 03:43:00	BASE	1.46	29	1.65	17	-0.1	100	-0.1	1	0	989.8	NA	0.0000		9999	1670	0	0	0
2019/12/04 03:44:00	BASE	1.42	30	1.65	17	-0.1	100	-0.1	1	0	989.8	NA	0.0000		9999	1710	0	0	0
2019/12/04 03:45:00	BASE	1.39	27	1.65	17	-0.1	100	-0.1	1	0	989.8	NA	0.0000		9999	1570	0	0	0
2019/12/04 03:46:00	BASE	1.18	28	1.65	17	-0.0	100	-0.0	1	0	989.8	NA	0.0000		9999	1440	0	0	0
2019/12/04 03:47:00	BASE	1.22	36	1.65	17	-0.0	100	-0.0	1	0	989.8	NA	0.0000		9999	1210	0	0	0
2019/12/04 03:48:00	BASE	1.46	46	1.70	49	-0.0	100	-0.0	1	0	989.8	NA	0.0000		9999	1510	0	0	0
2019/12/04 03:49:00	BASE	1.03	50	1.70	49	-0.0	100	-0.0	1	0	989.8	NA	0.0000		9999	1180	0	0	0
2019/12/04 03:50:00	BASE	0.77	50	1.70	49	0.0	100	0.0	1	0	989.8	NA	0.0000		9999	1180	0	0	0
2019/12/04 03:51:00	BASE	0.57	55	1.70	49	0.0	100	0.0	1	0	989.8	NA	0.0000		9999	1150	0	0	0
2019/12/04 03:52:00	BASE	0.34	66	1.70	49	0.0	100	-0.0	1	0	989.8	NA	0.0000		9999	1120	0	0	0
2019/12/04 03:53:00	BASE	0.49	69	1.70	49	-0.0	100	-0.0	1	0	989.8	NA	0.0000		9999	1080	0	0	0
2019/12/04 03:54:00	BASE	0.42	77	1.70	49	0.0	100	0.0	0	0	989.8	NA	0.0000		9999	1080	0	0	0
2019/12/04 03:55:00	BASE	0.18	75	1.70	49	0.0	100	0.0	0	0	989.9	NA	0.0000		9999	1020	0	0	0
2019/12/04 03:56:00	BASE	0.13	66	1.70	49	-0.0	100	-0.0	0	0	989.9	NA	0.0000		9999	1050	0	0	0
2019/12/04 03:57:00	BASE	0.51	64	1.70	49	-0.0	100	-0.0	0	0	989.9	NA	0.0000		9999	1050	0	0	0
2019/12/04 03:58:00	BASE	0.61	57	1.54	48	0.0	100	0.0	0	0	989.9	NA	0.0000		9999	1020	0	0	0
2019/12/04 03:59:00	BASE	0.24	55	1.54	48	0.0	100	0.0	0	0	990.0	NA	0.0000		9999	1050	0	0	0
2019/12/04 04:00:00	BASE	0.00	58	1.39	84	0.1	100	0.1	0	0	990.1	NA	0.0000		9999	1080	0	0	0
2019/12/04 04:01:00	BASE	0.00	62	1.39	84	0.1	100	0.1	0	0	990.1	NA	0.0000		9999	1120	0	0	0
2019/12/04 04:02:00	BASE	0.00	62	1.39	84	0.1	100	0.1	0	0	M	NA	0.0000		M	1080	0	0	0
2019/12/04 04:03:00	BASE	0.00	63	1.39	84	0.2	100	0.2	0	0	990.1	NA	0.0000		9999	1080	0	0	0
2019/12/04 04:04:00	BASE	0.00	76	1.23	73	0.2	100	0.2	0	0	990.1	NA	0.0000		9999	1080	0	0	0
2019/12/04 04:05:00	BASE	0.00	86	1.23	73	0.2	100	0.2	0	0	990.1	NA	0.0000		9999	1020	0	0	0
2019/12/04 04:06:00	BASE	0.00	85	1.23	73	0.1	100	0.1	0	0	990.2	NA	0.0000		9999	950	0	0	0
2019/12/04 04:07:00	BASE	0.00	81	1.18	56	0.1	100	0.1	0	0	990.2	NA	0.0000		9999	790	0	0	0
2019/12/04 04:08:00	BASE	0.00	77	1.18	56	0.1	100	0.1	0	0	990.2	NA	0.0000		9999	750	0	0	0
2019/12/04 04:09:00	BASE	0.00	87	M	M	0.1	100	0.1	0	0	990.2	NA	0.0000		9999	750	0	0	0
2019/12/04 04:10:00	BASE	0.00	146	M	M	0.1	100	0.1	0	0	990.2	NA	0.0000		9999	720	0	0	0
2019/12/04 04:11:00	BASE	0.27	179	1.44	166	0.1	100	0.1	0	0	990.2	NA	0.0000		9999	720	0	0	0
2019/12/04 04:12:00	BASE	1.11	169	1.85	157	0.1	100	0.1	0	0	990.1	NA	0.0000		9999	720	0	0	0
2019/12/04 04:13:00	BASE	1.77	159	2.01	159	0.0	100	0.0	0	0	990.1	NA	0.0000		9999	720	0	0	0
2019/12/04 04:14:00	BASE	1.91	158	2.11	158	-0.0	100	-0.0	0	0	990.1	NA	0.0000		9999	720	0	0	0
2019/12/04 04:15:00	BASE	1.95	158	2.11	158	-0.1	100	-0.1	0	0	990.1	NA	0.0000		9999	720	0	0	0
2019/12/04 04:16:00	BASE	1.80	159	2.11	158	-0.1	100	-0.1	0	0	990.1	NA	0.0000		9999	720	0	0	0
2019/12/04 04:17:00	BASE	1.70	159	2.11	158	-0.2	100	-0.2	0	0	990.1	NA	0.0000		9999	720	0	0	0
2019/12/04 04:18:00	BASE	1.60	159	2.11	158	-0.2	100	-0.2	0	0	990.1	NA	0.0000		9999	720	0	0	0
2019/12/04 04:19:00	BASE	1.43	161	2.11	158	-0.2	100	-0.2	0	0	990.1	NA	0.0000		9999	720	0	0	0
2019/12/04 04:20:00	BASE	1.36	162	2.11	158	-0.2	100	-0.2	0	0	990.1	NA	0.0000		9999	720	0	0	0
2019/12/04 04:21:00	BASE	1.20	158	2.11	158	-0.2	100	-0.2	0	0	990.1	NA	0.0000		9999	750	0	0	0
2019/12/04 04:22:00	BASE	0.84	163	2.11	158	-0.2	100	-0.2	0	0	990.1	NA	0.0000		9999	750	0	0	0
2019/12/04 04:23:00	BASE	0.79	168	2.11	158	-0.2	100	-0.2	0	0	990.1	NA	0.0000		9999	750	0	0	0
2019/12/04 04:24:00	BASE	1.08	169	2.06	161	-0.2	100	-0.2	0	0	990.1	NA	0.0000		9999	750	0	0	0
2019/12/04 04:25:00	BASE	1.17	165	1.85	161	-0.3	100	-0.3	0	0	990.1	NA	0.0000		9999	750	0	0	0
2019/12/04 04:26:00	BASE	1.22	164	1.85	161	-0.3	100	-0.3	0	0	990.1	NA	0.0000		9999	750	0	0	0
2019/12/04 04:27:00	BASE	1.30	167	1.80	172	-0.3	100	-0.3	0	0	990.1	NA	0.0000		9999	750	0	0	0
2019/12/04 04:28:00	BASE	1.63	166	2.47	163	-0.3	100	-0.3	0	0	990.1	NA	0.0000		9999	750	0	0	0
2019/12/04 04:29:00	BASE	2.25	164	2.62	166	-0.3	100	-0.3	0	0	990.1	NA	0.0000		9999	750	0	0	0
2019/12/04 04:30:00	BASE	2.36	164	2.62	166	-0.3	100	-0.3	0	0	990.0	NA	0.0000		9999	750	0	0	0
2019/12/04 04:31:00	BASE	2.04	161	2.62	166	-0.4	100	-0.4	0	0	990.0	NA	0.0000		9999	750	0	0	0
2019/12/04 04:32:00	BASE	1.81	159	2.62	166	-0.4	100	-0.4	0	0	990.1	NA	0.0000		9999	750	0	0	0
2019/12/04 04:33:00	BASE	1.70	156	2.62	166	-0.5	100	-0.5	0	0	990.1	NA	0.0000		9999	750	0	0	0
2019/12/04 04:34:00	BASE	1.57	154	2.62	166	-0.5	100	-0.5	0	0	990.1	NA	0.0000		9999	750	0	0	0
2019/12/04 04:35:00	BASE	1.46	150	2.62	166	-0.5	100	-0.5	0	0	990.1	NA	0.0000		9999	750	0	0	0
2019/12/04 04:36:00	BASE	1.41	149	2.62	166	-0.5	100	-0.5	0	0	990.1	NA	0.0000		9999	750	0	0	0
2019/12/04 04:37:00	BASE	1.30	156	2.62	166	-0.5	100	-0.5	0	0	990.1	NA	0.0000		9999	790	0	0	0
2019/12/04 04:38:00	BASE	1.27	161	2.62	166	-0.5	100	-0.5	0	0	990.1	NA	0.0000		9999	790	0	0	0
2019/12/04 04:39:00	BASE	1.30	163	2.52	165	-0.5	100	-0.5	0	0	990.1	NA	0.0000		9999	790	0	0	0
2019/12/04 04:40:00	BASE	1.33	167	2.11	161	-0.5	100	-0.5	0	0	990.1	NA	0.0000		9999	750	0	0	0
2019/12/04 04:41:00	BASE	1.31	171	1.85	150	-0.5	100	-0.5	0	0	990.1	NA	0.0000		9999	790	0	0	0
2019/12/04 04:42:00	BASE	1.27	165	1.85	150	-0.5	100	-0.5	0	0	990.1	NA	0.0000		9999	790	0	0	0
2019/12/04 04:43:00	BASE	1.19	162	1.65	144	-0.5	100	-0.5	0	0	990.1	NA	0.0000		9999	790	0	0	0
2019/12/04 04:44:00	BASE	0.90	166	1.65	144	-0.5	100	-0.5	0	0	990.1	NA	0.0000		9999	790	0	0	0
2019/12/04 04:45:00	BASE	0.81	164	1.49	150	-0.5	100	-0.5	0	0	990.2	NA	0.0000		9999	750	0	0	0
2019/12/04 04:46:00	BASE	0.52	164	1.44	170	-0.5	100	-0.5	0	0	990.2	NA	0.0000		9999	790	0	0	0
2019/12/04 04:47:00	BASE	0.05	166	1.44	170	-0.5	100	-0.5	0	0	990.2	NA	0.0000		9999	790	0	0	0
2019/12/04 04:48:00	BASE	0.38	162	1.44	170	-0.5	100	-0.5	0	0	990.2	NA	0.0000		9999	790	0	0	0
2019/12/04 04:49:00	BASE	1.03	159	1.44	152	-0.5	100	-0.5	0	0	990.2	NA	0.0000		9999	790	0	0	0
2019/12/04 04:50:00	BASE	1.17	152	1.44	152	-0.5	100	-0.5	0	0	990.2	NA	0.0000		9999	790	0	0	0
2019/12/04 04:51:00	BASE	0.69	146	1.44	152	-0.4	100	-0.4	0	0	990.2	NA	0.0000		9999	820	0	0	0
2019/12/04 04:52:00	BASE	0.63	146	1.75	149	-0.4	100	-0.4	0	0	990.3	NA	0.0000		9999	820	0	0	0
2019/12/04 04:53:00	BASE	1.33	140	2.11	138	-0.4	100	-0.4	0	0	990.3	NA	0.0000		9999	850	0	0	0
2019/12/04 04:54:00	BASE	1.73	136	2.11	138	-0.3	100	-0.3	0	0	990.4	NA	0.0000		9999	1050	0	0	0
2019/12/04 04:55:00	BASE	1.86	128	2.52	110	-0.3	100	-0.3	0	0	990.4	NA	0.0000		9999	1120	0	0	0
2019/12/04 04:56:00	BASE	2.12	114	2.78	111	-0.3	100	-0.3	0	0	990.4	NA	0.0000		9999	1120	0	0	0
2019/12/04 04:57:00	BASE	2.25	110	2.78	111	-0.2	100	-0.2	0	0	990.4	NA	0.0000		9999	1150	0	0	0
2019/12/04 04:58:00	BASE	2.27	113	2.78	111	-0.2	100	-0.2	0	0	990.4	NA	0.0000		9999	1120	0	0	0
2019/12/04 04:59:00	BASE	2.34	117	2.78	111	-0.2	100	-0.2	0	0	990.4	NA	0.0000		9999	1120	0	0	0
2019/12/04 05:00:00	BASE	2.09	121	2.78	111	-0.2	100	-0.2	0	0	990.4	NA	0.0000		9999	1180	0	0	0
2019/12/04 05:01:00	BASE	2.02	118	2.78	111	-0.2	100	-0.2	0	0	990.4	NA	0.0000		9999	1180	0	0	0
2019/12/04 05:02:00	BASE	2.30	114	2.78	111	-0.2	100	-0.2	0	0	990.4	NA	0.0000		9999	1080	0	0	0
2019/12/04 05:03:00	BASE	2.36	113	2.78	111	-0.2	100	-0.2	0	0	990.4	NA	0.0000		9999	950	0	0	0
2019/12/04 05:04:00	BASE	2.46	112	2.88	112	-0.2	100	-0.2	0	0	990.4	NA	0.0000		9999	850	0	0	0
2019/12/04 05:05:00	BASE	2.46	113	2.88	112	-0.2	100	-0.2	0	0	990.4	NA	0.0000		9999	890	0	0	0
2019/12/04 05:06:00	BASE	2.43	114	2.93	117	-0.2	100	-0.2	0	0	990.4	NA	0.0000		9999	890	0	0	0
2019/12/04 05:07:00	BASE	2.69	117	2.98	120	-0.2	100	-0.2	0	0	990.4	NA	0.0000		9999	890	0	0	0
2019/12/04 05:08:00	BASE	2.58	116	2.98	120	-0.2	100	-0.2	0	0	990.4	NA	0.0000		9999	890	0	0	0
2019/12/04 05:09:00	BASE	2.31	115	2.98	120	-0.2	100	-0.2	0	0	990.4	NA	0.0000		9999	890	0	0	0
2019/12/04 05:10:00	BASE	2.43	113	2.98	120	-0.2	100	-0.2	0	0	990.4	NA	0.0000		9999	890	0	0	0
2019/12/04 05:11:00	BASE	2.55	110	2.98	120	-0.2	100	-0.2	0	0	990.4	NA	0.0000		9999	850	0	0	0
2019/12/04 05:12:00	BASE	2.62	109	3.34	104	-0.2	100	-0.2	0	0	990.4	NA	0.0000		9999	850	0	0	0
2019/12/04 05:13:00	BASE	2.71	109	3.34	104	-0.2	100	-0.2	0	0	990.4	NA	0.0000		9999	850	0	0	0
2019/12/04 05:14:00	BASE	2.74	108	3.34	104	-0.2	100	-0.2	0	0	990.4	NA	0.0000		9999	850	0	0	0
2019/12/04 05:15:00	BASE	2.70	107	3.34	104	-0.2	100	-0.2	0	0	990.4	NA	0.0000		9999	850	0	0	0
2019/12/04 05:16:00	BASE	2.63	102	3.34	104	-0.2	100	-0.2	0	0	990.4	NA	0.0000		9999	850	0	0	0
2019/12/04 05:17:00	BASE	2.43	97	3.34	104	-0.2	100	-0.2	0	0	990.4	NA	0.0000		9999	850	0	0	0
2019/12/04 05:18:00	BASE	2.56	101	3.34	104	-0.2	100	-0.2	1	0	990.5	NA	0.0000		9999	850	0	0	0
2019/12/04 05:19:00	BASE	2.95	104	3.34	104	-0.2	100	-0.2	1	0	990.5	NA	0.0000		9999	850	0	0	0
2019/12/04 05:20:00	BASE	3.10	102	3.34	104	-0.2	100	-0.2	1	0	990.5	NA	0.0000		9999	980	0	0	0
2019/12/04 05:21:00	BASE	3.20	105	3.34	107	-0.2	100	-0.2	1	0	990.5	NA	0.0000		9999	850	0	0	0
2019/12/04 05:22:00	BASE	3.09	105	3.34	107	-0.2	100	-0.2	1	0	990.5	NA	0.0000		9999	850	0	0	0
2019/12/04 05:23:00	BASE	2.51	105	3.34	107	-0.2	100	-0.2	1	0	990.5	NA	0.0000		9999	1150	0	0	0
2019/12/04 05:24:00	BASE	2.12	106	3.34	107	-0.2	100	-0.2	1	0	990.4	NA	0.0000		9999	1150	0	0	0
2019/12/04 05:25:00	BASE	2.23	106	3.34	107	-0.1	100	-0.1	1	0	990.5	NA	0.0000		9999	1120	0	0	0
2019/12/04 05:26:00	BASE	2.47	106	3.34	107	-0.1	100	-0.1	1	0	990.6	NA	0.0000		9999	1120	0	0	0
2019/12/04 05:27:00	BASE	2.66	103	3.34	107	-0.1	100	-0.1	1	0	990.6	NA	0.0000		9999	1120	0	0	0
2019/12/04 05:28:00	BASE	2.59	104	3.34	107	-0.1	100	-0.1	1	0	990.4	NA	0.0000		9999	1080	0	0	0
2019/12/04 05:29:00	BASE	2.76	106	3.34	107	-0.0	100	-0.0	1	0	990.4	NA	0.0000		9999	1050	0	0	0
2019/12/04 05:30:00	BASE	3.04	103	3.34	107	-0.0	100	-0.0	1	0	990.4	NA	0.0000		9999	1080	0	0	0
2019/12/04 05:31:00	BASE	3.22	101	3.55	101	-0.1	100	-0.1	1	0	990.4	NA	0.0000		9999	980	0	0	0
2019/12/04 05:32:00	BASE	3.39	99	3.55	99	-0.1	100	-0.1	1	0	990.4	NA	0.0000		9999	950	0	0	0
2019/12/04 05:33:00	BASE	3.15	99	3.55	99	-0.1	100	-0.1	1	0	990.4	NA	0.0000		9999	920	0	0	0
2019/12/04 05:34:00	BASE	2.93	99	3.70	98	-0.1	100	-0.1	1	0	990.4	NA	0.0000		9999	890	0	0	0
2019/12/04 05:35:00	BASE	3.35	98	3.81	97	-0.1	100	-0.1	1	0	990.5	NA	0.0000		9999	890	0	0	0
2019/12/04 05:36:00	BASE	3.62	96	3.81	97	-0.1	100	-0.1	1	0	990.5	NA	0.0000		9999	850	0	0	0
2019/12/04 05:37:00	BASE	3.49	98	3.81	97	-0.1	100	-0.1	1	0	990.5	NA	0.0000		9999	850	0	0	0
2019/12/04 05:38:00	BASE	3.42	101	3.81	97	-0.1	100	-0.1	1	0	990.5	NA	0.0000		9999	850	0	0	0
2019/12/04 05:39:00	BASE	3.32	104	3.81	97	-0.1	100	-0.1	1	0	990.6	NA	0.0000		9999	850	0	0	0
2019/12/04 05:40:00	BASE	3.25	108	3.81	97	-0.1	100	-0.1	1	0	990.7	NA	0.0000		9999	890	0	0	0
2019/12/04 05:41:00	BASE	3.30	111	3.81	97	-0.0	100	-0.0	1	0	990.7	NA	0.0000		9999	850	0	0	0
2019/12/04 05:42:00	BASE	3.34	115	3.81	97	-0.0	100	-0.0	1	0	990.7	NA	0.0000		9999	820	0	0	0
2019/12/04 05:43:00	BASE	3.36	117	3.81	97	-0.1	100	-0.1	1	0	990.7	NA	0.0000		9999	820	0	0	0
2019/12/04 05:44:00	BASE	3.38	117	3.81	97	-0.1	100	-0.1	1	0	990.7	NA	0.0000		9999	820	0	0	0
2019/12/04 05:45:00	BASE	3.47	118	3.76	120	-0.1	100	-0.1	1	0	990.7	NA	0.0000		9999	790	0	0	0
2019/12/04 05:46:00	BASE	3.55	119	3.76	120	-0.1	100	-0.1	1	0	990.7	NA	0.0000		9999	850	0	0	0
2019/12/04 05:47:00	BASE	3.40	118	3.76	120	-0.1	100	-0.1	1	0	990.7	NA	0.0000		9999	850	0	0	0
2019/12/04 05:48:00	BASE	3.20	118	3.76	120	-0.1	100	-0.1	1	0	990.7	NA	0.0000		9999	850	0	0	0
2019/12/04 05:49:00	BASE	3.09	119	3.76	120	-0.1	100	-0.1	1	0	990.6	NA	0.0000	UP	9999	850	0	0	0
2019/12/04 05:50:00	BASE	3.13	119	3.76	120	-0.1	100	-0.1	1	0	990.5	NA	0.0000	UP	9999	850	0	0	0
2019/12/04 05:51:00	BASE	3.21	117	3.76	120	-0.2	100	-0.2	1	0	990.5	NA	0.0000	UP	9999	850	0	0	0
2019/12/04 05:52:00	BASE	3.25	115	3.76	120	-0.2	100	-0.2	1	0	990.5	NA	0.0000	UP	9999	850	0	0	0
2019/12/04 05:53:00	BASE	3.46	113	3.76	112	-0.2	100	-0.2	1	0	990.6	NA	0.0000	UP	9999	890	0	0	0
2019/12/04 05:54:00	BASE	3.68	113	3.81	114	-0.2	100	-0.2	1	0	990.7	NA	0.0000	UP	9000	820	0	0	0
2019/12/04 05:55:00	BASE	3.69	115	3.91	115	-0.2	100	-0.2	1	0	990.7	NA	0.0000	UP	8000	820	0	0	0
2019/12/04 05:56:00	BASE	3.68	116	3.91	118	-0.2	100	-0.2	1	0	990.7	NA	0.0000	UP	8000	820	0	0	0
2019/12/04 05:57:00	BASE	3.76	117	4.01	121	-0.2	100	-0.2	1	0	990.8	NA	0.0000	UP BR	8000	850	0	0	0
2019/12/04 05:58:00	BASE	3.75	118	4.01	118	-0.2	100	-0.2	1	0	990.7	NA	0.0000	UP BR	8000	850	0	0	0
2019/12/04 05:59:00	BASE	3.79	118	4.12	122	-0.2	100	-0.2	1	0	990.7	NA	0.0000	UP BR	8000	820	0	0	0
2019/12/04 06:00:00	BASE	3.93	119	4.12	121	-0.2	100	-0.2	1	0	990.7	NA	0.0000	UP BR	9000	850	0	0	0
2019/12/04 06:01:00	BASE	3.95	119	4.12	118	-0.2	100	-0.2	2	0	990.7	NA	0.0000	UP BR	9000	890	0	0	0
2019/12/04 06:02:00	BASE	3.95	117	4.32	113	-0.2	100	-0.2	2	0	990.7	NA	0.0000	UP BR	9000	850	0	0	0
2019/12/04 06:03:00	BASE	3.90	117	4.42	116	-0.2	100	-0.2	2	0	990.7	NA	0.0000	UP BR	9000	850	0	0	0
2019/12/04 06:04:00	BASE	3.95	116	4.42	116	-0.2	100	-0.2	2	0	990.7	NA	0.0000	UP BR	7000	890	0	0	0
2019/12/04 06:05:00	BASE	4.03	115	4.42	116	-0.2	100	-0.2	2	0	990.8	NA	0.0000	UP BR	7000	890	0	0	0
2019/12/04 06:06:00	BASE	3.95	117	4.42	116	-0.2	100	-0.2	2	0	990.8	NA	0.0000	UP BR	7000	820	0	0	0
2019/12/04 06:07:00	BASE	3.80	119	4.42	116	-0.2	100	-0.2	2	0	990.8	NA	0.0000	UP BR	7000	850	0	0	0
2019/12/04 06:08:00	BASE	3.84	118	4.42	116	-0.2	100	-0.2	2	0	990.8	NA	0.0000	UP BR	7000	820	0	0	0
2019/12/04 06:09:00	BASE	3.85	118	4.42	116	-0.2	100	-0.2	2	0	990.9	NA	0.0000	UP BR	7000	850	0	0	0
2019/12/04 06:10:00	BASE	3.83	119	4.42	116	-0.2	100	-0.2	2	0	990.9	NA	0.0000	UP BR	7000	890	0	0	0
2019/12/04 06:11:00	BASE	3.86	122	4.42	116	-0.2	100	-0.2	2	0	990.9	NA	0.0000	UP BR	6000	460	0	0	0
2019/12/04 06:12:00	BASE	3.65	126	4.42	116	-0.2	100	-0.2	3	0	990.8	NA	0.0000	UP BR	6000	520	0	0	0
2019/12/04 06:13:00	BASE	3.46	127	4.22	117	-0.2	100	-0.2	3	0	990.8	NA	0.0000	UP BR	7000	490	0	0	0
2019/12/04 06:14:00	BASE	3.39	126	4.22	117	-0.2	100	-0.2	3	0	990.8	NA	0.0000	UP BR	7000	520	0	0	0
2019/12/04 06:15:00	BASE	3.39	126	4.22	117	-0.2	100	-0.2	3	0	990.8	NA	0.0000	UP BR	7000	590	0	0	0
2019/12/04 06:16:00	BASE	3.45	127	4.22	117	-0.2	100	-0.2	3	0	990.8	NA	0.0000	UP BR	8000	560	0	0	0
2019/12/04 06:17:00	BASE	3.57	124	4.22	117	-0.2	100	-0.2	3	0	990.8	NA	0.0000	UP BR	8000	520	0	0	0
2019/12/04 06:18:00	BASE	3.97	121	4.63	120	-0.2	100	-0.2	3	0	990.8	NA	0.0000	UP BR	8000	430	0	0	0
2019/12/04 06:19:00	BASE	4.27	121	4.68	119	-0.2	100	-0.2	3	0	990.8	NA	0.0000	UP BR	8000	390	0	0	0
2019/12/04 06:20:00	BASE	4.48	121	4.99	118	-0.3	100	-0.3	3	0	990.8	NA	0.0000	UP BR	7000	360	0	0	0
2019/12/04 06:21:00	BASE	4.66	120	4.99	121	-0.3	100	-0.3	3	0	990.8	NA	0.0000	UP BR	6000	360	0	0	0
2019/12/04 06:22:00	BASE	4.54	120	4.99	121	-0.3	100	-0.3	3	0	990.8	NA	0.0000	UP BR	3900	360	0	0	0
2019/12/04 06:23:00	BASE	4.49	119	4.99	121	-0.3	100	-0.3	3	0	990.8	NA	0.0000	UP BR	2700	0	0	0	1410
2019/12/04 06:24:00	BASE	4.52	120	4.99	121	-0.3	100	-0.3	3	0	990.8	NA	0.0000	UP BR	2400	0	0	0	1440
2019/12/04 06:25:00	BASE	4.53	119	4.99	121	-0.3	100	-0.3	4	0	990.9	NA	0.0000	-SN BR	2300	0	0	0	1510
2019/12/04 06:26:00	BASE	4.66	117	5.09	116	-0.3	100	-0.3	4	0	990.9	NA	0.0000	-SN BR	2400	0	0	0	1480
2019/12/04 06:27:00	BASE	4.70	119	5.09	116	-0.3	100	-0.3	4	0	990.9	NA	0.0000	-SN BR	2900	300	0	0	0
2019/12/04 06:28:00	BASE	4.63	119	5.09	116	-0.3	100	-0.3	4	0	990.7	NA	0.0000	-SN BR	3500	300	0	0	0
2019/12/04 06:29:00	BASE	4.68	117	5.14	116	-0.3	100	-0.3	4	0	990.7	NA	0.0000	-SN BR	5000	360	1050	0	0
2019/12/04 06:30:00	BASE	4.80	118	5.14	116	-0.3	100	-0.3	5	0	990.7	NA	0.0000	-SN BR	8000	360	0	0	0
2019/12/04 06:31:00	BASE	4.98	119	5.61	118	-0.3	100	-0.3	5	0	990.7	NA	0.0000	-SN BR	8000	360	0	0	0
2019/12/04 06:32:00	BASE	5.05	123	5.61	118	-0.4	100	-0.4	5	0	990.7	NA	0.0000	-SN BR	6000	360	0	0	0
2019/12/04 06:33:00	BASE	5.26	123	5.92	116	-0.4	100	-0.4	6	0	990.6	NA	0.0000	-SN BR	5000	850	0	0	0
2019/12/04 06:34:00	BASE	5.48	120	5.92	125	-0.5	100	-0.5	6	0	990.5	NA	0.0000	-SN BR	6000	330	0	0	0
2019/12/04 06:35:00	BASE	5.62	119	6.12	121	-0.5	100	-0.5	6	0	990.5	NA	0.0000	-SN BR	5000	360	0	0	0
2019/12/04 06:36:00	BASE	5.62	121	6.12	121	-0.6	100	-0.6	6	0	990.5	NA	0.0000	-SN BR	4600	360	0	0	0
2019/12/04 06:37:00	BASE	5.62	122	6.12	123	-0.6	100	-0.6	6	0	990.5	NA	0.0000	-SN BR	4200	330	0	0	0
2019/12/04 06:38:00	BASE	5.80	121	6.33	122	-0.6	100	-0.6	6	0	990.5	NA	0.0000	-SN BR	3300	360	0	0	0
2019/12/04 06:39:00	BASE	5.81	121	6.33	122	-0.7	100	-0.7	6	0	990.6	NA	0.0000	-SN BR	2600	1480	0	0	0
2019/12/04 06:40:00	BASE	5.80	121	6.33	122	-0.7	100	-0.7	6	0	990.7	NA	0.0000	-SN BR	2200	360	0	0	0
2019/12/04 06:41:00	BASE	5.74	121	6.33	122	-0.7	100	-0.7	6	0	990.7	NA	0.0000	-SN BR	2100	330	0	0	0
2019/12/04 06:42:00	BASE	5.53	122	6.33	122	-0.7	100	-0.7	6	0	990.7	NA	0.0000	-SN BR	1900	330	0	0	0
2019/12/04 06:43:00	BASE	5.33	122	6.33	122	-0.7	100	-0.7	6	0	990.7	NA	0.0000	-SN BR	2600	330	0	0	0
2019/12/04 06:44:00	BASE	5.27	122	6.33	122	-0.7	100	-0.7	6	0	990.7	NA	0.0000	-SN BR	2900	360	0	0	0
2019/12/04 06:45:01	BASE	5.27	123	6.33	122	-0.7	100	-0.7	6	0	990.7	NA	0.0000	-SN BR	2600	360	0	0	0
2019/12/04 06:46:00	BASE	5.11	124	6.33	122	-0.7	100	-0.7	6	0	990.8	NA	0.0000	-SN BR	1900	1710	0	0	0
2019/12/04 06:47:00	BASE	4.94	124	6.33	122	-0.7	100	-0.7	6	0	990.8	NA	0.0000	-SN BR	1900	1710	0	0	0
2019/12/04 06:48:00	BASE	4.96	123	6.28	121	-0.7	100	-0.7	6	0	990.8	NA	0.0000	-SN BR	2700	360	0	0	0
2019/12/04 06:49:00	BASE	4.96	123	6.17	121	-0.7	100	-0.7	6	0	990.7	NA	0.0000	-SN BR	3100	360	0	0	0
2019/12/04 06:50:00	BASE	4.75	124	6.02	121	-0.7	100	-0.7	6	0	990.7	NA	0.0000	-SN BR	4100	360	0	0	0
2019/12/04 06:51:00	BASE	4.59	125	5.86	125	-0.8	100	-0.8	6	0	990.7	NA	0.0000	-SN BR	4600	360	0	0	0
2019/12/04 06:52:00	BASE	4.52	126	5.66	124	-0.8	100	-0.8	6	0	990.7	NA	0.0000	-SN BR	4300	360	0	0	0
2019/12/04 06:53:00	BASE	4.42	126	5.66	124	-0.8	100	-0.8	6	0	990.8	NA	0.0000	-SN BR	3600	1540	0	0	0
2019/12/04 06:54:00	BASE	4.29	128	5.66	124	-0.8	100	-0.8	6	0	990.6	NA	0.0000	-SN BR	3100	360	0	0	0
2019/12/04 06:55:01	BASE	4.22	130	5.66	124	-0.8	100	-0.8	6	0	990.6	NA	0.0000	-SN BR	4100	260	0	0	0
2019/12/04 06:56:00	BASE	4.44	130	5.25	123	-0.8	100	-0.8	6	0	990.7	NA	0.0000	-SN BR	3900	1480	0	0	0
2019/12/04 06:57:00	BASE	4.52	129	5.25	123	-0.8	100	-0.8	6	0	990.7	NA	0.0000	-SN BR	4300	1510	0	0	0
2019/12/04 06:58:00	BASE	4.19	130	5.20	118	-0.8	100	-0.8	6	0	990.7	NA	0.0000	-SN BR	3900	1570	0	0	0
2019/12/04 06:59:00	BASE	4.28	129	5.04	121	-0.8	100	-0.8	7	0	990.7	NA	0.0000	-SN BR	4300	1570	0	0	0
2019/12/04 07:00:00	BASE	4.46	129	4.99	127	-0.8	100	-0.8	7	0	990.7	NA	0.0000	-SN BR	4700	1540	0	0	0
2019/12/04 07:01:00	BASE	4.13	129	4.99	127	-0.8	100	-0.8	7	0	990.7	NA	0.0000	-SN BR	5000	1540	0	0	0
2019/12/04 07:02:00	BASE	4.03	127	4.99	127	-0.8	100	-0.8	7	0	990.7	NA	0.0000	-SN BR	5000	1480	0	0	0
2019/12/04 07:03:00	BASE	3.93	127	4.99	127	-0.8	100	-0.8	7	0	990.7	NA	0.0000	-SN BR	5000	1310	0	0	0
2019/12/04 07:04:00	BASE	3.68	127	4.99	127	-0.8	100	-0.8	7	0	990.7	NA	0.0000	-SN BR	4500	1310	0	0	0
2019/12/04 07:05:00	BASE	3.60	125	4.99	127	-0.8	100	-0.8	7	0	990.8	NA	0.0000	-SN BR	4900	1280	0	0	0
2019/12/04 07:06:00	BASE	3.60	125	4.78	128	-0.8	100	-0.8	8	0	990.8	NA	0.0000	-SN BR	4500	1250	0	0	0
2019/12/04 07:07:00	BASE	3.78	124	4.68	120	-0.8	100	-0.8	8	0	990.8	NA	0.0000	-SN BR	4200	1250	0	0	0
2019/12/04 07:08:00	BASE	3.81	124	4.68	120	-0.8	100	-0.8	8	0	990.8	NA	0.0000	-SN BR	4300	1250	0	0	0
2019/12/04 07:09:00	BASE	3.82	124	4.68	120	-0.8	100	-0.8	9	0	990.8	NA	0.0000	-SN BR	4900	1280	0	0	0
2019/12/04 07:10:00	BASE	3.98	123	4.68	120	-0.8	100	-0.8	9	0	990.8	NA	0.0000	-SN BR	4800	1280	0	0	0
2019/12/04 07:11:00	BASE	4.04	122	4.68	120	-0.8	100	-0.8	9	0	990.8	NA	0.0000	-SN BR	5000	1280	0	0	0
2019/12/04 07:12:00	BASE	4.13	122	4.48	121	-0.8	100	-0.8	9	0	990.8	NA	0.0000	-SN BR	5000	1280	0	0	0
2019/12/04 07:13:00	BASE	4.11	123	4.48	121	-0.8	100	-0.8	10	0	990.8	NA	0.0000	-SN BR	5000	1250	0	0	0
2019/12/04 07:14:00	BASE	3.99	124	4.48	121	-0.8	100	-0.8	10	0	990.8	NA	0.0000	-SN BR	5000	1250	0	0	0
2019/12/04 07:15:00	BASE	4.00	125	4.48	121	-0.8	100	-0.8	11	0	990.8	NA	0.0000	-SN BR	5000	1210	0	0	0
2019/12/04 07:16:00	BASE	3.95	127	4.48	121	-0.8	100	-0.8	11	0	990.8	NA	0.0000	-SN BR	5000	1120	0	0	0
2019/12/04 07:17:00	BASE	3.89	127	4.48	121	-0.8	100	-0.8	12	0	990.9	NA	0.0000	-SN BR	5000	1080	0	0	0
2019/12/04 07:18:00	BASE	3.98	129	4.48	121	-0.8	100	-0.8	12	0	990.9	NA	0.0000	-SN BR	5000	950	0	0	0
2019/12/04 07:19:00	BASE	3.96	131	4.48	121	-0.8	100	-0.8	12	0	990.9	NA	0.0000	-SN BR	5000	950	0	0	0
2019/12/04 07:20:00	BASE	3.91	131	4.48	121	-0.8	100	-0.8	13	0	990.9	NA	0.0000	-SN BR	5000	890	0	0	0
2019/12/04 07:21:00	BASE	3.96	132	4.48	121	-0.8	100	-0.8	13	0	990.9	NA	0.0000	-SN BR	5000	820	0	0	0
2019/12/04 07:22:00	BASE	3.97	132	4.32	121	-0.8	100	-0.8	13	0	991.0	NA	0.0000	-SN BR	6000	720	0	0	0
2019/12/04 07:23:00	BASE	3.88	132	4.32	121	-0.8	100	-0.8	13	0	991.0	NA	0.0000	-SN BR	6000	590	0	0	0
2019/12/04 07:24:00	BASE	4.03	132	4.32	131	-0.8	100	-0.8	14	0	991.1	NA	0.0000	-SN BR	6000	590	0	0	0
2019/12/04 07:25:00	BASE	4.15	133	4.42	132	-0.8	100	-0.8	14	0	991.2	NA	0.0000	-SN BR	6000	660	0	0	0
2019/12/04 07:26:00	BASE	4.18	134	4.42	132	-0.8	100	-0.8	14	0	991.3	NA	0.0000	-SN BR	5000	0	0	0	2660
2019/12/04 07:27:00	BASE	4.28	133	4.48	132	-0.8	100	-0.8	15	0	991.4	NA	0.0000	-SN BR	5000	0	0	0	1250
2019/12/04 07:28:00	BASE	4.22	133	4.48	135	-0.8	100	-0.8	15	0	991.5	NA	0.0000	-SN BR	4800	0	0	0	2690
2019/12/04 07:29:00	BASE	3.98	132	4.48	135	-0.7	100	-0.7	15	0	991.6	NA	0.0000	-SN BR	6000	2360	0	0	0
2019/12/04 07:30:00	BASE	3.89	131	4.48	135	-0.7	100	-0.7	16	0	991.8	NA	0.0000	-SN BR	2900	2260	0	0	0
2019/12/04 07:31:00	BASE	3.97	132	4.48	135	-0.7	100	-0.7	15	0	991.8	NA	0.0000	-SN BR	6000	2170	0	0	0
2019/12/04 07:32:00	BASE	3.91	131	4.48	135	-0.7	100	-0.7	15	0	992.0	NA	0.0000	-SN BR	8000	2260	0	0	0
2019/12/04 07:33:00	BASE	3.86	129	4.48	135	-0.7	100	-0.7	15	0	992.1	NA	0.0000	-SN BR	9999	1740	2330	0	0
2019/12/04 07:34:00	BASE	3.91	129	4.48	135	-0.7	100	-0.7	15	0	992.2	NA	0.0000	-SN BR	9000	1800	0	0	0
2019/12/04 07:35:00	BASE	4.06	129	4.48	129	-0.7	100	-0.7	15	0	992.3	NA	0.0000	-SN BR	9000	1540	2000	0	0
2019/12/04 07:36:00	BASE	4.32	128	4.78	130	-0.7	100	-0.7	15	0	992.4	NA	0.0000	-SN BR	9000	1670	0	0	0
2019/12/04 07:37:00	BASE	4.48	129	4.78	131	-0.7	100	-0.7	15	0	992.4	NA	0.0000	-SN BR	9000	1970	0	0	0
2019/12/04 07:38:00	BASE	4.57	130	4.84	132	-0.7	100	-0.7	15	0	992.5	NA	0.0000	-SN BR	9000	2030	0	0	0
2019/12/04 07:39:00	BASE	4.62	127	5.04	126	-0.7	100	-0.7	16	0	992.6	NA	0.0000	-SN BR	9000	2030	0	0	0
2019/12/04 07:40:00	BASE	4.72	125	5.14	123	-0.7	100	-0.7	16	0	992.7	NA	0.0000	-SN BR	9000	2070	0	0	0
2019/12/04 07:41:00	BASE	4.88	125	5.50	126	-0.7	100	-0.7	17	0	992.8	NA	0.0000	BR	8000	2100	0	0	0
2019/12/04 07:42:00	BASE	5.13	127	5.61	128	-0.7	100	-0.7	17	0	992.9	NA	0.0000	BR	8000	2100	0	0	0
2019/12/04 07:43:00	BASE	5.34	127	5.66	130	-0.7	100	-0.7	18	0	993.0	NA	0.0000	BR	8000	2170	0	0	0
2019/12/04 07:44:00	BASE	5.03	126	5.66	130	-0.6	100	-0.6	19	0	993.1	NA	0.0000	BR	9999	2200	0	0	0
2019/12/04 07:45:00	BASE	4.69	123	5.66	130	-0.6	100	-0.6	19	0	993.2	NA	0.0000	BR	9999	2230	0	0	0
2019/12/04 07:46:00	BASE	4.77	121	5.66	130	-0.6	100	-0.6	20	0	993.3	NA	0.0000	BR	9999	2230	0	0	0
2019/12/04 07:47:00	BASE	5.04	122	5.66	130	-0.6	100	-0.6	21	0	993.4	NA	0.0000		9999	2230	0	0	0
2019/12/04 07:48:00	BASE	5.04	124	5.66	130	-0.6	100	-0.6	21	0	993.5	NA	0.0000		9999	2230	0	0	0
2019/12/04 07:49:00	BASE	4.76	124	5.66	130	-0.6	100	-0.6	21	0	993.6	NA	0.0000		9999	2260	0	0	0
2019/12/04 07:50:00	BASE	4.58	123	5.66	130	-0.6	100	-0.6	21	0	993.7	NA	0.0000		9999	2260	0	0	0
2019/12/04 07:51:00	BASE	4.64	122	5.66	130	-0.6	100	-0.6	21	0	993.7	NA	0.0000		9999	2300	0	0	0
2019/12/04 07:52:00	BASE	4.75	123	5.66	130	-0.6	100	-0.6	21	0	993.9	NA	0.0000		9999	2300	0	0	0
2019/12/04 07:53:00	BASE	4.77	125	5.40	123	-0.6	100	-0.6	21	0	993.9	NA	0.0000		9999	2300	0	0	0
2019/12/04 07:54:00	BASE	4.82	128	5.40	123	-0.6	100	-0.6	21	0	993.9	NA	0.0000		9999	2330	0	0	0
2019/12/04 07:55:00	BASE	4.79	129	5.40	123	-0.6	100	-0.6	21	0	994.0	NA	0.0000		9999	2330	0	0	0
2019/12/04 07:56:00	BASE	4.61	126	5.40	123	-0.6	100	-0.6	21	0	994.0	NA	0.0000		9999	2330	0	0	0
2019/12/04 07:57:00	BASE	4.57	125	5.35	127	-0.6	100	-0.6	21	0	994.1	NA	0.0000		9999	2360	0	0	0
2019/12/04 07:58:00	BASE	4.65	127	5.09	126	-0.6	100	-0.6	22	0	994.1	NA	0.0000		9999	2360	0	0	0
2019/12/04 07:59:00	BASE	4.71	127	5.09	126	-0.6	100	-0.6	22	0	994.2	NA	0.0000		9999	2360	0	0	0
2019/12/04 08:00:00	BASE	4.82	125	5.14	124	-0.6	100	-0.6	23	0	994.3	NA	0.0000		9999	2330	0	0	0
2019/12/04 08:01:00	BASE	4.94	125	5.25	125	-0.6	100	-0.6	23	0	994.4	NA	0.0000		9999	2360	0	0	0
2019/12/04 08:02:00	BASE	4.82	124	5.25	125	-0.6	100	-0.6	24	0	994.4	NA	0.0000		9999	2400	0	0	0
2019/12/04 08:03:00	BASE	4.70	123	5.25	125	-0.6	100	-0.6	24	0	994.5	NA	0.0000		9999	2400	0	0	0
2019/12/04 08:04:00	BASE	4.77	123	5.25	125	-0.5	100	-0.5	26	0	994.6	NA	0.0000		9999	2400	0	0	0
2019/12/04 08:05:00	BASE	5.00	126	5.61	128	-0.5	100	-0.5	27	0	994.7	NA	0.0000		9999	2400	0	0	0
2019/12/04 08:06:00	BASE	5.02	127	5.61	128	-0.5	100	-0.5	29	0	994.8	NA	0.0000		9999	2330	0	0	0
2019/12/04 08:07:00	BASE	4.56	126	5.61	128	-0.5	100	-0.5	30	0	994.8	NA	0.0000		9999	2330	0	0	0
2019/12/04 08:08:00	BASE	4.35	127	5.61	128	-0.4	100	-0.4	31	0	994.9	NA	0.0000		9999	2330	0	0	0
2019/12/04 08:09:00	BASE	4.18	127	5.61	128	-0.4	100	-0.4	30	0	994.9	NA	0.0000		9999	2330	0	0	0
2019/12/04 08:10:00	BASE	4.02	128	5.61	128	-0.4	100	-0.4	30	0	995.0	NA	0.0000		9999	1670	2330	0	0
2019/12/04 08:11:00	BASE	4.37	126	5.61	128	-0.4	100	-0.4	29	0	995.1	NA	0.0000		9999	1640	2360	0	0
2019/12/04 08:12:00	BASE	4.46	125	5.61	128	-0.4	100	-0.4	29	0	995.1	NA	0.0000		9999	1800	2360	0	0
2019/12/04 08:13:00	BASE	4.04	125	5.61	128	-0.4	100	-0.4	29	0	995.2	NA	0.0000		9999	1670	0	0	0
2019/12/04 08:14:00	BASE	3.65	122	5.61	128	-0.4	100	-0.4	31	0	995.2	NA	0.0000		9999	1610	2490	0	0
2019/12/04 08:15:00	BASE	3.39	125	5.25	126	-0.4	100	-0.4	32	0	995.3	NA	0.0000		9999	2430	0	0	0
2019/12/04 08:16:00	BASE	3.10	134	5.20	121	-0.3	100	-0.3	35	0	995.3	NA	0.0000		9999	2000	0	0	0
2019/12/04 08:17:00	BASE	2.90	116	5.20	121	-0.3	100	-0.3	36	0	995.6	NA	0.0000		9999	2030	0	0	0
2019/12/04 08:18:00	BASE	2.44	84	5.20	121	-0.3	100	-0.3	38	0	995.7	NA	0.0000		9999	2490	0	0	0
2019/12/04 08:19:00	BASE	1.92	70	5.20	121	-0.2	100	-0.2	38	0	995.5	NA	0.0000		9999	1670	2530	0	0
2019/12/04 08:20:00	BASE	1.73	91	5.20	121	-0.2	100	-0.2	38	0	995.5	NA	0.0000		9999	1670	0	0	0
2019/12/04 08:21:00	BASE	1.63	127	4.58	128	-0.2	100	-0.2	38	0	995.5	NA	0.0000		9999	1770	2360	0	0
2019/12/04 08:22:00	BASE	1.88	129	4.58	128	-0.2	100	-0.2	39	0	995.5	NA	0.0000		9999	1770	0	0	0
2019/12/04 08:23:00	BASE	1.68	115	4.01	87	-0.2	100	-0.2	40	0	995.4	NA	0.0000		9999	1640	0	0	0
2019/12/04 08:24:00	BASE	1.45	107	4.01	87	-0.3	100	-0.3	41	0	995.4	NA	0.0000		9999	1610	0	0	0
2019/12/04 08:25:00	BASE	1.33	94	4.01	87	-0.3	100	-0.3	42	0	995.6	NA	0.0000		9999	1640	0	0	0
2019/12/04 08:26:00	BASE	0.52	101	4.01	87	-0.2	100	-0.2	44	0	995.7	NA	0.0000		9999	1710	2460	0	0
2019/12/04 08:27:00	BASE	0.04	137	2.68	70	-0.2	100	-0.2	44	0	995.8	NA	0.0000		9999	2360	0	0	0
2019/12/04 08:28:00	BASE	0.04	146	2.68	70	-0.2	100	-0.2	43	0	995.7	NA	0.0000		9999	2400	0	0	0
2019/12/04 08:29:00	BASE	0.54	134	2.62	107	-0.1	100	-0.1	43	0	995.8	NA	0.0000		9999	1740	2460	0	0
2019/12/04 08:30:00	BASE	1.34	117	2.62	107	-0.1	100	-0.1	43	0	995.7	NA	0.0000		9999	1840	0	0	0
2019/12/04 08:31:00	BASE	1.88	117	2.62	141	-0.1	100	-0.1	43	0	995.6	NA	0.0000		9999	1800	2530	0	0
2019/12/04 08:32:00	BASE	2.10	137	2.62	142	-0.2	100	-0.2	43	0	995.5	NA	0.0000		9999	1870	0	0	0
2019/12/04 08:33:00	BASE	1.98	139	2.62	142	-0.2	100	-0.2	43	0	995.4	NA	0.0000		9999	2130	0	0	0
2019/12/04 08:34:00	BASE	1.91	135	2.62	142	-0.3	100	-0.3	43	0	995.3	NA	0.0000		9999	2230	0	0	0
2019/12/04 08:35:00	BASE	2.06	138	2.62	142	-0.3	100	-0.3	43	0	995.3	NA	0.0000		9999	2490	0	0	0
2019/12/04 08:36:00	BASE	2.29	142	2.62	142	-0.3	100	-0.3	43	0	995.3	NA	0.0000		9999	2490	0	0	0
2019/12/04 08:37:00	BASE	2.30	142	2.62	142	-0.3	100	-0.3	43	0	995.2	NA	0.0000		9999	2560	0	0	0
2019/12/04 08:38:00	BASE	2.20	136	2.62	127	-0.3	100	-0.3	43	0	995.2	NA	0.0000		9999	2560	0	0	0
2019/12/04 08:39:00	BASE	2.26	126	2.68	124	-0.3	100	-0.3	43	0	995.3	NA	0.0000		9999	2560	0	0	0
2019/12/04 08:40:00	BASE	2.19	124	2.68	124	-0.3	100	-0.3	44	0	995.4	NA	0.0000		9999	2590	0	0	0
2019/12/04 08:41:00	BASE	1.84	130	2.68	124	-0.3	100	-0.3	44	0	995.4	NA	0.0000		9999	1940	2690	0	0
2019/12/04 08:42:00	BASE	1.51	132	2.68	124	-0.2	100	-0.2	45	0	995.5	NA	0.0000		9999	2660	0	0	0
2019/12/04 08:43:00	BASE	1.45	132	2.68	124	-0.2	100	-0.2	46	0	995.6	NA	0.0000		9999	2620	0	0	0
2019/12/04 08:44:00	BASE	1.77	133	2.68	124	-0.2	100	-0.2	48	0	995.7	NA	0.0000		9999	2620	0	0	0
2019/12/04 08:45:00	BASE	2.14	136	2.68	124	-0.1	100	-0.1	50	0	995.7	NA	0.0000		9999	2660	0	0	0
2019/12/04 08:46:00	BASE	2.42	138	2.78	139	-0.1	100	-0.1	51	0	995.6	NA	0.0000		9999	2620	0	0	0
2019/12/04 08:47:00	BASE	2.55	134	2.78	139	-0.1	100	-0.1	51	0	995.4	NA	0.0000		9999	1800	2790	0	0
2019/12/04 08:48:00	BASE	2.37	128	2.78	139	-0.1	100	-0.1	51	0	995.4	NA	0.0000		9999	2760	0	0	0
2019/12/04 08:49:00	BASE	2.15	131	2.78	139	-0.1	100	-0.1	52	0	995.6	NA	0.0000		9999	2760	0	0	0
2019/12/04 08:50:00	BASE	2.05	140	2.78	139	-0.1	100	-0.1	54	0	995.7	NA	0.0000		9999	2690	0	0	0
2019/12/04 08:51:00	BASE	2.11	153	2.78	139	-0.1	100	-0.1	57	0	995.5	NA	0.0000		9999	2690	0	0	0
2019/12/04 08:52:00	BASE	2.46	151	3.24	130	-0.1	100	-0.1	60	0	995.4	NA	0.0000		9999	2690	0	0	0
2019/12/04 08:53:00	BASE	3.04	137	3.55	130	-0.1	100	-0.1	62	0	995.3	NA	0.0000		9999	2690	0	0	0
2019/12/04 08:54:00	BASE	3.08	128	3.55	130	-0.1	100	-0.1	62	0	995.3	NA	0.0000		9999	2560	0	0	0
2019/12/04 08:55:00	BASE	2.88	126	3.55	130	-0.2	100	-0.2	61	0	995.3	NA	0.0000		9999	2690	0	0	0
2019/12/04 08:56:00	BASE	2.83	125	3.55	130	-0.2	100	-0.2	60	0	995.2	NA	0.0000		9999	2660	0	0	0
2019/12/04 08:57:00	BASE	2.88	125	3.55	130	-0.2	100	-0.2	60	0	995.2	NA	0.0000		9999	1940	0	0	0
2019/12/04 08:58:00	BASE	3.14	127	3.76	128	-0.2	100	-0.2	61	0	995.2	NA	0.0000		9999	1970	0	0	0
2019/12/04 08:59:00	BASE	3.37	129	3.76	128	-0.2	100	-0.2	60	0	995.2	NA	0.0000		9999	2070	0	0	0
2019/12/04 09:00:00	BASE	3.36	133	3.76	128	-0.2	100	-0.2	59	0	995.2	NA	0.0000		9999	1800	2400	2890	0
2019/12/04 09:01:00	BASE	3.18	138	3.76	128	-0.2	100	-0.2	58	0	995.2	NA	0.0000		9999	1840	0	0	0
2019/12/04 09:02:00	BASE	3.02	137	3.76	128	-0.2	100	-0.2	59	0	995.2	NA	0.0000		9999	1870	0	0	0
2019/12/04 09:03:00	BASE	2.79	138	3.76	128	-0.2	100	-0.2	61	0	995.2	NA	0.0000		9999	1870	2790	0	0
2019/12/04 09:04:00	BASE	2.91	144	3.76	128	-0.2	100	-0.2	63	0	995.3	NA	0.0000		9999	2030	2850	0	0
2019/12/04 09:05:00	BASE	3.34	149	3.91	146	-0.1	100	-0.1	65	0	995.3	NA	0.0000		9999	1870	3740	0	0
2019/12/04 09:06:00	BASE	3.56	153	3.91	146	-0.1	100	-0.1	66	0	995.3	NA	0.0000		9999	3640	0	0	0
2019/12/04 09:07:00	BASE	3.61	157	4.06	156	-0.1	100	-0.1	68	0	995.2	NA	0.0000		9999	2690	0	0	0
2019/12/04 09:08:00	BASE	3.63	158	4.06	156	-0.1	100	-0.1	70	0	995.1	NA	0.0000		9999	2690	0	0	0
2019/12/04 09:09:00	BASE	3.42	155	4.06	156	-0.1	100	-0.1	73	0	995.1	NA	0.0000		9999	2850	3710	0	0
2019/12/04 09:10:00	BASE	3.36	148	4.06	156	-0.1	100	-0.1	77	0	995.1	NA	0.0000		9999	2920	3640	0	0
2019/12/04 09:11:00	BASE	3.82	140	4.89	130	-0.1	100	-0.1	82	0	995.1	NA	0.0000		9999	2890	3580	0	0
2019/12/04 09:12:00	BASE	4.41	132	4.89	128	-0.1	100	-0.1	85	0	994.9	NA	0.0000		9999	1840	2620	0	0
2019/12/04 09:13:00	BASE	4.33	130	4.89	128	-0.1	100	-0.1	86	0	994.7	NA	0.0000		9999	2070	2820	0	0
2019/12/04 09:14:00	BASE	4.06	130	4.89	128	-0.2	100	-0.2	88	0	994.7	NA	0.0000		9999	1840	2950	0	0
2019/12/04 09:15:00	BASE	3.94	129	4.89	128	-0.2	100	-0.2	90	0	994.7	NA	0.0000		9999	1800	0	0	0
2019/12/04 09:16:00	BASE	3.65	130	4.89	128	-0.2	100	-0.2	91	0	994.8	NA	0.0000		9999	1840	0	0	0
2019/12/04 09:17:00	BASE	3.41	130	4.89	128	-0.2	100	-0.2	92	0	994.9	NA	0.0000		9999	1900	3050	0	0
2019/12/04 09:18:00	BASE	3.53	125	4.89	128	-0.1	100	-0.1	91	0	994.9	NA	0.0000		9999	3020	0	0	0
2019/12/04 09:19:00	BASE	3.64	127	4.89	128	-0.1	100	-0.1	91	0	994.7	NA	0.0000		9999	3050	3840	0	0
2019/12/04 09:20:01	BASE	3.79	129	4.89	128	-0.1	100	-0.1	92	0	994.7	NA	0.0000		9999	2990	3740	0	0
2019/12/04 09:21:01	BASE	3.91	129	4.89	128	-0.1	100	-0.1	93	0	994.7	NA	0.0000		9999	2950	3810	0	0
2019/12/04 09:22:01	BASE	4.15	130	4.89	130	-0.2	100	-0.2	93	0	994.6	NA	0.0000		9999	3050	3810	0	0
2019/12/04 09:23:01	BASE	4.35	134	4.89	130	-0.2	100	-0.2	93	0	994.6	NA	0.0000		9999	2460	0	0	0
2019/12/04 09:24:01	BASE	3.98	138	4.89	130	-0.2	100	-0.2	91	0	994.6	NA	0.0000		9999	1970	2850	0	0
2019/12/04 09:25:01	BASE	3.56	142	4.89	130	-0.2	100	-0.2	91	0	994.6	NA	0.0000		9999	1940	2990	0	0
2019/12/04 09:26:01	BASE	3.27	142	4.89	130	-0.2	100	-0.2	91	0	994.7	NA	0.0000		9999	2200	2890	3940	0
2019/12/04 09:27:01	BASE	3.46	136	4.89	130	-0.2	100	-0.2	91	0	994.6	NA	0.0000		9999	2950	3900	0	0
2019/12/04 09:28:01	BASE	3.73	131	4.89	130	-0.2	100	-0.2	91	0	994.5	NA	0.0000		9999	2890	0	0	0
2019/12/04 09:29:01	BASE	4.01	129	4.89	130	-0.2	100	-0.2	91	0	994.5	NA	0.0000		9999	2690	3900	0	0
2019/12/04 09:30:01	BASE	4.05	133	4.89	130	-0.2	100	-0.2	91	0	994.5	NA	0.0000		9999	2200	2760	0	0
2019/12/04 09:31:01	BASE	3.90	144	4.89	130	-0.2	100	-0.2	90	0	994.6	NA	0.0000		9999	2170	0	0	0
2019/12/04 09:32:01	BASE	3.87	147	4.48	130	-0.1	100	-0.1	92	0	994.7	NA	0.0000		9999	2070	0	0	0
2019/12/04 09:33:01	BASE	3.83	136	4.48	130	-0.1	100	-0.1	94	0	994.6	NA	0.0000		9999	2100	0	0	0
2019/12/04 09:34:01	BASE	3.89	130	4.48	130	-0.1	100	-0.1	98	0	994.6	NA	0.0000		9999	2300	0	0	0
2019/12/04 09:35:01	BASE	3.82	132	4.48	130	-0.1	100	-0.1	100	0	994.5	NA	0.0000		9999	2200	2820	0	0
2019/12/04 09:36:01	BASE	3.38	133	4.48	130	-0.1	100	-0.1	100	0	994.4	NA	0.0000		9999	2200	2690	3970	0
2019/12/04 09:37:01	BASE	2.83	135	4.48	130	-0.2	100	-0.2	98	0	994.4	NA	0.0000		9999	2760	3350	3900	0
2019/12/04 09:38:01	BASE	2.49	135	4.48	130	-0.2	100	-0.2	96	0	994.4	NA	0.0000		9999	2100	0	0	0
2019/12/04 09:39:01	BASE	2.62	133	4.37	133	-0.2	100	-0.2	94	0	994.4	NA	0.0000		9999	2130	0	0	0
2019/12/04 09:40:01	BASE	3.05	135	4.37	133	-0.2	100	-0.2	94	0	994.4	NA	0.0000		9999	2790	0	0	0
2019/12/04 09:41:01	BASE	3.11	138	4.37	133	-0.2	100	-0.2	94	0	994.3	NA	0.0000		9999	2530	0	0	0
2019/12/04 09:42:01	BASE	2.86	144	4.37	133	-0.2	100	-0.2	94	0	994.2	NA	0.0000		9999	2790	0	0	0
2019/12/04 09:43:01	BASE	2.76	150	4.27	121	-0.2	100	-0.2	92	0	994.2	NA	0.0000		9999	2590	0	0	0
2019/12/04 09:44:01	BASE	2.71	151	3.86	134	-0.2	100	-0.2	90	0	994.3	NA	0.0000		9999	2690	3350	0	0
2019/12/04 09:45:01	BASE	2.16	137	3.55	134	-0.2	100	-0.2	87	0	994.4	NA	0.0000		9999	2230	0	0	0
2019/12/04 09:46:01	BASE	1.72	120	3.55	134	-0.2	100	-0.2	87	0	994.4	NA	0.0000		9999	2100	0	0	0
2019/12/04 09:47:01	BASE	1.65	125	3.55	134	-0.2	100	-0.2	87	0	994.3	NA	0.0000		9999	2000	0	0	0
2019/12/04 09:48:01	BASE	1.53	145	3.55	134	-0.2	100	-0.2	90	0	994.3	NA	0.0000		9999	2400	2920	0	0
2019/12/04 09:49:01	BASE	1.56	155	3.50	133	-0.2	100	-0.2	94	0	994.1	NA	0.0000		9999	2200	0	0	0
2019/12/04 09:50:01	BASE	1.74	156	3.19	143	-0.2	100	-0.2	99	0	994.1	NA	0.0000		9999	2790	0	0	0
2019/12/04 09:51:01	BASE	2.10	163	3.09	153	-0.2	100	-0.2	105	0	994.1	NA	0.0000		9999	3020	0	0	0
2019/12/04 09:52:01	BASE	2.57	171	3.09	153	-0.3	100	-0.3	109	0	994.0	NA	0.0000		9999	2850	0	0	0
2019/12/04 09:53:01	BASE	2.72	175	2.98	154	-0.3	100	-0.3	112	0	994.0	NA	0.0000		9999	3050	0	0	0
2019/12/04 09:54:01	BASE	2.39	170	2.93	172	-0.3	100	-0.3	114	0	994.0	NA	0.0000		9999	2070	2660	0	0
2019/12/04 09:55:01	BASE	2.07	158	2.98	157	-0.3	100	-0.3	116	0	994.1	NA	0.0000		9999	2720	0	0	0
2019/12/04 09:56:01	BASE	2.31	156	2.98	157	-0.2	100	-0.2	118	0	994.3	NA	0.0000		9999	2620	0	0	0
2019/12/04 09:57:01	BASE	2.76	160	3.09	159	-0.2	100	-0.2	122	0	994.2	NA	0.0000		9999	2950	0	0	0
2019/12/04 09:58:01	BASE	2.96	158	3.45	158	-0.2	100	-0.2	127	0	994.3	NA	0.0000		9999	2070	0	0	0
2019/12/04 09:59:01	BASE	2.32	144	3.45	158	-0.1	100	-0.1	132	0	994.6	NA	0.0000		9999	1970	2920	0	0
2019/12/04 10:00:01	BASE	1.54	148	3.45	158	-0.1	100	-0.1	136	0	994.7	NA	0.0000		9999	1870	0	0	0
2019/12/04 10:01:01	BASE	1.77	168	3.45	158	-0.1	100	-0.1	140	0	994.6	NA	0.0000		9999	1870	21200	0	0
2019/12/04 10:02:01	BASE	2.55	163	3.45	158	-0.1	100	-0.1	141	0	994.4	NA	0.0000		9999	1900	3120	0	0
2019/12/04 10:03:01	BASE	2.88	150	3.45	158	-0.1	100	-0.1	139	0	994.2	NA	0.0000		9999	1870	0	0	0
2019/12/04 10:04:01	BASE	2.90	148	3.45	158	-0.1	100	-0.1	140	0	994.1	NA	0.0000		9999	1970	0	0	0
2019/12/04 10:05:01	BASE	2.90	153	3.45	158	-0.1	100	-0.1	142	0	993.9	NA	0.0000		9999	2330	0	0	0
2019/12/04 10:06:01	BASE	2.80	160	3.45	158	-0.2	100	-0.2	141	0	993.7	NA	0.0000		9999	2000	0	0	0
2019/12/04 10:07:01	BASE	2.65	165	3.45	158	-0.2	100	-0.2	140	0	993.7	NA	0.0000		9999	1870	0	0	0
2019/12/04 10:08:01	BASE	2.41	164	3.24	153	-0.2	100	-0.2	141	0	993.8	NA	0.0000		9999	1870	0	0	0
2019/12/04 10:09:01	BASE	2.44	159	3.24	153	-0.1	100	-0.1	140	0	993.7	NA	0.0000		9999	1800	0	0	0
2019/12/04 10:10:01	BASE	2.65	148	3.24	153	-0.1	100	-0.1	141	0	993.7	NA	0.0000		9999	1940	0	0	0
2019/12/04 10:11:01	BASE	2.95	142	3.40	144	-0.1	100	-0.1	146	0	993.5	NA	0.0000		9999	1900	0	0	0
2019/12/04 10:12:01	BASE	3.27	145	3.45	150	-0.1	100	-0.1	154	0	993.4	NA	0.0000		9999	2260	2890	0	0
2019/12/04 10:13:01	BASE	3.29	149	3.45	150	-0.1	100	-0.1	159	0	993.4	NA	0.0000		9999	2030	3250	0	0
2019/12/04 10:14:01	BASE	2.94	153	3.45	150	-0.1	100	-0.1	163	0	993.4	NA	0.0000		9999	1970	0	0	0
2019/12/04 10:15:01	BASE	2.62	155	3.45	150	-0.1	100	-0.1	170	0	993.3	NA	0.0000		9999	1970	0	0	0
2019/12/04 10:16:01	BASE	2.74	155	3.45	150	-0.1	100	-0.1	179	0	993.3	NA	0.0000		9999	2000	0	0	0
2019/12/04 10:17:01	BASE	3.20	158	3.81	156	-0.1	100	-0.1	189	0	993.1	NA	0.0000		9999	2000	0	0	0
2019/12/04 10:18:01	BASE	3.61	162	3.91	164	-0.1	100	-0.1	197	0	992.9	NA	0.0000		9999	1940	0	0	0
2019/12/04 10:19:01	BASE	3.68	159	3.91	164	-0.0	100	-0.0	197	0	992.8	NA	0.0000		9999	1970	0	0	0
2019/12/04 10:20:01	BASE	3.43	157	3.91	164	-0.0	100	-0.0	193	0	992.8	NA	0.0000		9999	1940	0	0	0
2019/12/04 10:21:01	BASE	3.30	165	3.91	164	-0.0	100	-0.0	196	0	992.7	NA	0.0000		9999	1940	0	0	0
2019/12/04 10:22:01	BASE	3.63	176	4.22	176	-0.0	100	-0.0	204	0	992.6	NA	0.0000		9999	1970	0	0	0
2019/12/04 10:23:01	BASE	4.21	177	4.89	176	0.0	100	0.0	213	0	992.5	NA	0.0000		9999	2000	0	0	0
2019/12/04 10:24:01	BASE	4.16	175	4.89	165	0.0	100	0.0	212	0	992.4	NA	0.0000		9999	1940	0	0	0
2019/12/04 10:25:01	BASE	3.17	180	4.89	165	-0.0	100	-0.0	206	0	992.4	NA	0.0000		9999	2000	0	0	0
2019/12/04 10:26:01	BASE	1.82	159	4.89	165	0.0	100	0.0	198	0	992.6	NA	0.0000		9999	2070	3310	0	0
2019/12/04 10:27:01	BASE	1.03	109	4.89	165	0.1	100	0.1	196	0	992.8	NA	0.0000		9999	2070	2620	0	0
2019/12/04 10:28:01	BASE	0.52	89	4.89	165	0.2	100	0.2	197	0	992.7	NA	0.0000		9999	2000	0	0	0
2019/12/04 10:29:01	BASE	0.98	96	4.89	165	0.3	100	0.3	201	0	992.5	NA	0.0000		9999	2790	0	0	0
2019/12/04 10:30:01	BASE	2.47	127	4.89	165	0.4	100	0.4	211	0	991.7	NA	0.0000		9999	2070	3120	0	0
2019/12/04 10:31:01	BASE	2.99	152	4.89	165	0.5	100	0.5	220	0	991.5	NA	0.0000		9999	2000	3350	0	0
2019/12/04 10:32:01	BASE	2.46	162	4.89	165	0.5	100	0.5	218	0	991.4	NA	0.0000		9999	2000	0	0	0
2019/12/04 10:33:01	BASE	2.01	164	4.89	165	0.4	100	0.4	210	0	991.5	NA	0.0000		9999	1970	3250	0	0
2019/12/04 10:34:01	BASE	2.60	158	4.12	141	0.4	100	0.4	208	0	991.5	NA	0.0000		9999	2000	3250	0	0
2019/12/04 10:35:01	BASE	2.60	165	4.12	141	0.3	100	0.3	213	0	991.5	NA	0.0000		9999	3280	0	0	0
2019/12/04 10:36:01	BASE	1.43	190	4.12	141	0.3	100	0.3	214	0	991.6	NA	0.0000		9999	3220	0	0	0
2019/12/04 10:37:01	BASE	1.74	156	4.12	141	0.4	100	0.4	210	0	991.6	NA	0.0000		9999	2100	3510	0	0
2019/12/04 10:38:01	BASE	3.09	124	4.12	133	0.4	100	0.4	207	0	991.4	NA	0.0000		9999	3350	0	0	0
2019/12/04 10:39:01	BASE	3.33	113	4.99	99	0.5	100	0.5	203	0	991.4	NA	0.0000		9999	3310	0	0	0
2019/12/04 10:40:01	BASE	3.17	102	4.99	99	0.5	100	0.5	203	0	991.5	NA	0.0000		9999	3380	0	0	0
2019/12/04 10:41:01	BASE	4.02	114	6.07	108	0.6	100	0.6	204	0	991.5	NA	0.0000		9999	3450	0	0	0
2019/12/04 10:42:01	BASE	4.50	123	6.07	108	0.6	100	0.6	209	0	991.5	NA	0.0000		9999	3410	0	0	0
2019/12/04 10:43:01	BASE	3.39	121	6.07	108	0.7	100	0.7	212	0	991.4	NA	0.0000		9999	3480	0	0	0
2019/12/04 10:44:01	BASE	1.54	108	6.07	108	0.7	100	0.7	216	0	991.4	NA	0.0000		9999	3510	0	0	0
2019/12/04 10:45:01	BASE	0.57	32	6.07	108	0.8	100	0.8	220	0	991.5	NA	0.0000		9999	3510	0	0	0
2019/12/04 10:46:01	BASE	0.76	320	6.07	108	0.8	100	0.8	224	0	991.6	NA	0.0000		9999	3510	0	0	0
2019/12/04 10:47:01	BASE	1.26	170	6.07	108	0.8	100	0.8	232	0	991.5	NA	0.0000		9999	2590	3510	0	0
2019/12/04 10:48:01	BASE	2.01	166	6.07	108	0.8	100	0.8	241	0	991.4	NA	0.0000		9999	3410	0	0	0
2019/12/04 10:49:01	BASE	2.25	177	6.07	108	0.8	100	0.8	246	0	991.2	NA	0.0000		9999	3480	0	0	0
2019/12/04 10:50:01	BASE	2.05	180	6.07	108	0.8	100	0.8	248	0	991.2	NA	0.0000		9999	3580	16210	0	0
2019/12/04 10:51:01	BASE	1.87	171	5.14	103	0.7	100	0.7	246	0	991.2	NA	0.0000		9999	3640	0	0	0
2019/12/04 10:52:01	BASE	1.77	152	3.09	119	0.7	100	0.7	240	0	991.2	NA	0.0000		9999	3610	0	0	0
2019/12/04 10:53:01	BASE	1.07	138	2.57	166	0.6	100	0.6	233	0	991.3	NA	0.0000		9999	3580	0	0	0
2019/12/04 10:54:01	BASE	0.21	156	2.57	166	0.7	100	0.7	227	0	991.4	NA	0.0000		9999	3610	0	0	0
2019/12/04 10:55:01	BASE	0.31	184	2.57	166	0.7	100	0.7	225	0	991.4	NA	0.0000		9999	3640	0	0	0
2019/12/04 10:56:01	BASE	0.89	47	2.57	166	0.8	100	0.8	221	0	991.5	NA	0.0000		9999	3510	0	0	0
2019/12/04 10:57:01	BASE	1.14	74	2.57	166	0.9	100	0.9	214	0	991.6	NA	0.0000		9999	3540	0	0	0
2019/12/04 10:58:01	BASE	1.16	76	2.98	16	1.0	100	1.0	209	0	991.6	NA	0.0000		9999	3580	0	0	0
2019/12/04 10:59:01	BASE	2.30	59	5.25	41	1.1	100	1.0	204	0	991.6	NA	0.0000		9999	3580	0	0	0
2019/12/04 11:00:01	BASE	2.78	69	5.25	41	1.2	99	1.1	202	0	991.5	NA	0.0000		9999	3640	0	0	0
2019/12/04 11:01:01	BASE	1.58	109	5.25	41	1.3	98	1.0	201	0	991.5	NA	0.0000		9999	3670	19330	0	0
2019/12/04 11:02:01	BASE	2.01	118	5.25	41	1.4	96	0.8	200	0	991.4	NA	0.0000		9999	3810	0	0	0
2019/12/04 11:03:01	BASE	2.44	68	5.25	41	1.4	95	0.7	200	0	991.3	NA	0.0000		9999	3610	0	0	0
2019/12/04 11:04:01	BASE	2.35	32	5.25	41	1.4	94	0.5	198	0	991.3	NA	0.0000		9999	3610	0	0	0
2019/12/04 11:05:01	BASE	4.36	30	6.64	17	1.4	93	0.4	195	0	991.4	NA	0.0000		9999	3640	0	0	0
2019/12/04 11:06:01	BASE	6.13	21	7.31	24	1.5	92	0.4	192	0	991.3	NA	0.0000		9999	3670	0	0	0
2019/12/04 11:07:01	BASE	6.18	24	7.31	24	1.6	91	0.3	192	0	991.2	NA	0.0000		9999	3610	0	0	0
2019/12/04 11:08:01	BASE	6.29	31	8.18	30	1.7	90	0.2	194	0	991.2	NA	0.0000		9999	3640	0	0	0
2019/12/04 11:09:01	BASE	7.19	27	8.49	28	1.8	89	0.1	198	0	991.1	NA	0.0000		9999	3710	0	0	0
2019/12/04 11:10:01	BASE	7.13	22	8.49	28	1.8	87	-0.1	202	0	991.0	NA	0.0000		9999	3710	0	0	0
2019/12/04 11:11:01	BASE	6.64	21	8.49	21	1.8	86	-0.2	205	0	991.0	NA	0.0000		9999	3740	0	0	0
2019/12/04 11:12:01	BASE	7.13	20	8.49	21	1.9	85	-0.3	207	0	990.9	NA	0.0000		9999	3710	0	0	0
2019/12/04 11:13:01	BASE	7.43	20	8.95	15	1.9	85	-0.4	207	0	990.8	NA	0.0000		9999	3640	0	0	0
2019/12/04 11:14:01	BASE	8.57	22	10.24	23	1.9	84	-0.5	203	0	990.7	NA	0.0000		9999	3670	0	0	0
2019/12/04 11:15:01	BASE	8.77	21	10.24	23	1.8	84	-0.5	205	0	990.6	NA	0.0000		9999	3670	0	0	0
2019/12/04 11:16:01	BASE	7.52	19	10.24	23	1.8	84	-0.6	205	0	990.5	NA	0.0000		9999	3740	0	0	0
2019/12/04 11:17:01	BASE	8.68	20	11.42	28	1.8	84	-0.6	205	0	990.4	NA	0.0000		9999	3710	0	0	0
2019/12/04 11:18:01	BASE	10.71	23	13.74	23	1.8	84	-0.7	202	0	990.3	NA	0.0000		9999	3610	0	0	0
2019/12/04 11:19:01	BASE	10.97	24	13.74	23	1.8	83	-0.7	196	0	990.1	NA	0.0000		9999	3580	22470	0	0
2019/12/04 11:20:01	BASE	10.37	31	13.74	23	1.8	83	-0.8	190	0	990.2	NA	0.0000		9999	3610	0	0	0
2019/12/04 11:21:01	BASE	10.77	30	14.15	15	1.8	82	-0.8	186	0	990.0	NA	0.0000		9999	3610	0	0	0
2019/12/04 11:22:01	BASE	12.53	21	15.02	20	1.8	82	-0.9	181	0	989.6	NA	0.0000		9999	3670	0	0	0
2019/12/04 11:23:01	BASE	13.73	19	15.69	22	1.8	82	-1.0	177	0	989.4	NA	0.0000		9999	3640	0	0	0
2019/12/04 11:24:01	BASE	14.47	20	15.74	21	1.7	81	-1.1	176	0	989.3	NA	0.0000		9999	3740	0	0	0
2019/12/04 11:25:01	BASE	13.93	22	15.74	21	1.7	81	-1.2	179	0	989.4	NA	0.0000		9999	3710	0	0	0
2019/12/04 11:26:01	BASE	12.63	22	15.74	21	1.6	81	-1.3	181	0	989.4	NA	0.0000		9999	3640	0	0	0
2019/12/04 11:27:01	BASE	13.45	21	17.03	20	1.5	82	-1.3	184	0	989.2	NA	0.0000		9999	3580	16960	21920	0
2019/12/04 11:28:01	BASE	15.06	21	17.03	20	1.4	82	-1.3	187	0	989.4	NA	0.0000		9999	3540	0	0	0
2019/12/04 11:29:01	BASE	14.95	20	17.03	20	1.4	82	-1.2	190	0	989.4	NA	0.0000		9999	3580	0	0	0
2019/12/04 11:30:01	BASE	13.97	19	17.03	20	1.4	83	-1.2	192	0	989.4	NA	0.0000		9999	3640	0	0	0
2019/12/04 11:31:01	BASE	13.64	18	17.03	20	1.4	83	-1.2	192	0	989.3	NA	0.0000		9999	3610	0	0	0
2019/12/04 11:32:01	BASE	14.30	19	17.03	20	1.4	83	-1.2	192	0	989.3	NA	0.0000		9999	3710	0	0	0
2019/12/04 11:33:01	BASE	14.45	20	17.03	20	1.4	83	-1.2	194	0	989.3	NA	0.0000		9999	3640	0	0	0
2019/12/04 11:34:01	BASE	14.43	23	17.03	20	1.4	83	-1.2	196	0	989.3	NA	0.0000		9999	3640	0	0	0
2019/12/04 11:35:01	BASE	14.98	22	17.03	20	1.3	83	-1.3	199	0	989.3	NA	0.0000		9999	3670	0	0	0
2019/12/04 11:36:01	BASE	14.12	19	17.03	20	1.3	83	-1.3	204	0	989.2	NA	0.0000		9999	3710	0	0	0
2019/12/04 11:37:01	BASE	14.21	19	16.93	20	1.3	83	-1.3	209	0	989.4	NA	0.0000		9999	3710	0	0	0
2019/12/04 11:38:01	BASE	14.81	20	16.41	16	1.3	83	-1.2	211	0	989.3	NA	0.0000		9999	3670	0	0	0
2019/12/04 11:39:01	BASE	14.96	20	16.41	16	1.3	83	-1.2	208	0	989.3	NA	0.0000		9999	3670	0	0	0
2019/12/04 11:40:01	BASE	15.47	20	16.87	18	1.3	83	-1.2	203	0	989.3	NA	0.0000		9999	3670	0	0	0
2019/12/04 11:41:01	BASE	15.04	21	16.87	18	1.4	83	-1.3	203	0	989.3	NA	0.0000		9999	3710	0	0	0
2019/12/04 11:42:01	BASE	14.79	21	16.87	18	1.3	83	-1.3	206	0	989.3	NA	0.0000		9999	3710	0	0	0
2019/12/04 11:43:01	BASE	15.06	20	16.87	18	1.3	82	-1.3	212	0	989.3	NA	0.0000		9999	3670	0	0	0
2019/12/04 11:44:01	BASE	14.20	21	16.87	18	1.3	82	-1.4	217	0	989.2	NA	0.0000		9999	3670	0	0	0
2019/12/04 11:45:01	BASE	13.60	22	16.87	18	1.3	82	-1.4	221	0	989.2	NA	0.0000		9999	3770	0	0	0
2019/12/04 11:46:01	BASE	14.14	22	16.87	18	1.4	82	-1.4	224	0	988.9	NA	0.0000		9999	3900	0	0	0
2019/12/04 11:47:01	BASE	14.51	21	16.87	18	1.4	82	-1.4	227	0	988.5	NA	0.0000		9999	3940	0	0	0
2019/12/04 11:48:01	BASE	14.81	23	16.87	18	1.4	82	-1.4	228	0	988.9	NA	0.0000		9999	3940	0	0	0
2019/12/04 11:49:01	BASE	15.40	23	17.18	19	1.4	81	-1.4	227	0	988.9	NA	0.0000		9999	3970	0	0	0
2019/12/04 11:50:01	BASE	15.26	22	17.18	19	1.4	81	-1.5	224	0	988.8	NA	0.0000		9999	3870	0	0	0
2019/12/04 11:51:01	BASE	14.50	22	17.18	19	1.4	81	-1.5	223	0	988.8	NA	0.0000		9999	3870	0	0	0
2019/12/04 11:52:01	BASE	13.99	25	17.18	19	1.4	81	-1.5	224	0	988.8	NA	0.0000		9999	4070	21030	0	0
2019/12/04 11:53:01	BASE	13.43	25	17.18	19	1.4	81	-1.5	225	0	988.7	NA	0.0000		9999	4040	0	0	0
2019/12/04 11:54:01	BASE	13.57	23	17.18	19	1.5	81	-1.5	225	0	988.6	NA	0.0000		9999	3970	0	0	0
2019/12/04 11:55:01	BASE	13.67	26	17.18	19	1.5	80	-1.5	225	0	988.5	NA	0.0000		9999	3900	0	0	0
2019/12/04 11:56:01	BASE	13.61	26	17.18	19	1.5	80	-1.6	228	0	988.6	NA	0.0000		9999	4100	0	0	0
2019/12/04 11:57:01	BASE	13.76	27	17.18	19	1.5	80	-1.6	232	0	988.6	NA	0.0000		9999	4200	0	0	0
2019/12/04 11:58:01	BASE	13.39	29	17.18	19	1.5	80	-1.6	239	0	988.6	NA	0.0000		9999	4100	22740	0	0
2019/12/04 11:59:01	BASE	12.78	27	16.62	22	1.5	80	-1.6	244	0	988.6	NA	0.0000		9999	4000	19290	0	0
2019/12/04 12:00:01	BASE	12.15	26	15.54	31	1.5	80	-1.5	249	0	988.6	NA	0.0000		9999	4000	0	0	0
2019/12/04 12:01:01	BASE	11.92	25	15.54	31	1.5	80	-1.5	252	0	988.7	NA	0.0000		9999	4130	0	0	0
2019/12/04 12:02:01	BASE	11.88	29	15.28	26	1.5	81	-1.5	256	0	988.6	NA	0.0000		9999	4270	0	0	0
2019/12/04 12:03:01	BASE	11.85	31	15.28	26	1.5	81	-1.4	262	0	988.5	NA	0.0000		9999	4230	0	0	0
2019/12/04 12:04:01	BASE	11.67	32	15.23	20	1.5	81	-1.4	267	0	988.5	NA	0.0000		9999	4130	0	0	0
2019/12/04 12:05:01	BASE	12.27	31	15.23	20	1.6	81	-1.4	268	0	988.5	NA	0.0000		9999	4070	0	0	0
2019/12/04 12:06:01	BASE	13.09	29	15.18	27	1.6	80	-1.4	268	0	988.4	NA	0.0000		9999	3940	0	0	0
2019/12/04 12:07:01	BASE	12.90	30	15.07	33	1.6	80	-1.5	268	0	988.4	NA	0.0000		9999	4130	0	0	0
2019/12/04 12:08:01	BASE	13.08	30	15.07	33	1.6	80	-1.5	269	0	988.4	NA	0.0000		9999	4100	0	0	0
2019/12/04 12:09:01	BASE	13.23	30	15.07	33	1.6	79	-1.6	272	0	988.5	NA	0.0000		9999	4000	0	0	0
2019/12/04 12:10:01	BASE	12.47	31	15.07	33	1.6	79	-1.6	278	0	988.5	NA	0.0000		9999	4000	0	0	0
2019/12/04 12:11:01	BASE	11.79	34	15.07	33	1.7	79	-1.6	284	0	988.4	NA	0.0000		9999	4070	0	0	0
2019/12/04 12:12:01	BASE	12.98	34	16.15	33	1.7	79	-1.6	289	0	988.4	NA	0.0000		9999	4070	0	0	0
2019/12/04 12:13:01	BASE	14.08	31	16.15	33	1.7	78	-1.7	294	0	988.3	NA	0.0000		9999	4100	24050	0	0
2019/12/04 12:14:01	BASE	13.96	28	16.15	33	1.7	78	-1.7	298	0	988.3	NA	0.0000		9999	4100	0	0	0
2019/12/04 12:15:01	BASE	14.23	27	16.15	33	1.7	78	-1.7	302	0	988.4	NA	0.0000		9999	4100	0	0	0
2019/12/04 12:16:01	BASE	13.79	27	16.15	33	1.7	78	-1.8	306	0	988.3	NA	0.0000		9999	4000	21030	0	0
2019/12/04 12:17:01	BASE	13.07	27	16.15	33	1.6	78	-1.8	309	0	988.2	NA	0.0000		9999	4000	0	0	0
2019/12/04 12:18:01	BASE	14.26	29	16.41	32	1.6	78	-1.8	315	0	988.3	NA	0.0000		9999	3940	0	0	0
2019/12/04 12:19:01	BASE	14.34	30	16.41	32	1.6	78	-1.7	328	0	988.4	NA	0.0000		9999	3900	0	0	0
2019/12/04 12:20:01	BASE	12.86	30	16.41	32	1.6	79	-1.7	345	0	988.4	NA	0.0000		9999	3940	0	0	0
2019/12/04 12:21:01	BASE	13.10	33	16.41	32	1.6	79	-1.6	355	0	988.3	NA	0.0000		9999	4200	0	0	0
2019/12/04 12:22:01	BASE	14.34	34	18.01	28	1.7	79	-1.6	358	0	988.3	NA	0.0000		9999	3970	0	0	0
2019/12/04 12:23:01	BASE	15.14	33	18.01	28	1.6	79	-1.6	362	0	988.2	NA	0.0000		9999	4300	0	0	0
2019/12/04 12:24:01	BASE	14.30	32	18.01	28	1.6	79	-1.6	371	0	988.2	NA	0.0000		9999	4300	0	0	0
2019/12/04 12:25:01	BASE	14.10	32	18.01	28	1.6	79	-1.6	381	0	988.2	NA	0.0000		9999	4200	21980	0	0
2019/12/04 12:26:01	BASE	15.07	34	18.01	28	1.6	79	-1.6	384	0	988.2	NA	0.0000		9999	4200	19550	0	0
2019/12/04 12:27:01	BASE	14.92	35	18.01	28	1.6	79	-1.6	381	0	988.2	NA	0.0000		9999	4330	0	0	0
2019/12/04 12:28:01	BASE	13.87	34	18.01	28	1.7	79	-1.6	383	0	988.1	NA	0.0000		9999	4360	0	0	0
2019/12/04 12:29:01	BASE	13.15	34	18.01	28	1.7	79	-1.6	397	0	988.2	NA	0.0000		9999	4430	0	0	0
2019/12/04 12:30:01	BASE	12.89	32	18.01	28	1.7	79	-1.5	411	0	988.1	NA	0.0000		9999	4430	0	0	0
2019/12/04 12:31:01	BASE	12.85	31	18.01	28	1.7	79	-1.5	414	0	988.1	NA	0.0000		9999	4360	0	0	0
2019/12/04 12:32:01	BASE	12.90	34	17.29	29	1.8	79	-1.5	409	0	988.1	NA	0.0000		9999	4400	0	0	0
2019/12/04 12:33:01	BASE	13.28	37	17.29	29	1.8	79	-1.5	400	0	988.0	NA	0.0000		9999	4230	0	0	0
2019/12/04 12:34:01	BASE	13.83	36	17.29	29	1.9	78	-1.5	396	0	988.1	NA	0.0000		9999	4330	0	0	0
2019/12/04 12:35:01	BASE	13.88	33	16.51	29	1.9	78	-1.5	399	0	988.0	NA	0.0000		9999	4270	0	0	0
2019/12/04 12:36:01	BASE	13.34	31	16.00	34	1.9	78	-1.6	400	0	988.1	NA	0.0000		9999	4300	0	0	0
2019/12/04 12:37:01	BASE	12.63	29	15.54	34	1.8	78	-1.6	398	0	988.0	NA	0.0000		9999	4230	0	0	0
2019/12/04 12:38:01	BASE	13.12	32	16.05	33	1.8	78	-1.6	392	0	988.0	NA	0.0000		9999	4230	0	0	0
2019/12/04 12:39:01	BASE	13.54	34	16.05	33	1.8	78	-1.6	385	0	988.0	NA	0.0000		9999	4360	0	0	0
2019/12/04 12:40:01	BASE	12.41	28	16.05	33	1.8	78	-1.6	381	0	988.0	NA	0.0000		9999	4400	0	0	0
2019/12/04 12:41:01	BASE	12.07	28	16.05	33	1.9	78	-1.6	387	0	988.0	NA	0.0000		9999	4490	0	0	0
2019/12/04 12:42:01	BASE	12.61	32	16.05	33	1.9	77	-1.7	399	0	988.1	NA	0.0000		9999	4490	0	0	0
2019/12/04 12:43:01	BASE	11.84	32	16.05	33	1.9	77	-1.7	412	0	988.0	NA	0.0000		9999	4460	0	0	0
2019/12/04 12:44:01	BASE	11.10	30	16.05	33	1.9	77	-1.8	423	0	988.0	NA	0.0000		9999	4490	0	0	0
2019/12/04 12:45:01	BASE	11.07	32	16.05	33	1.9	76	-1.8	431	0	988.0	NA	0.0000		9999	4590	0	0	0
2019/12/04 12:46:01	BASE	11.54	34	16.05	33	1.9	76	-1.8	445	0	988.0	NA	0.0000		9999	4660	0	0	0
2019/12/04 12:47:01	BASE	12.05	33	16.05	33	2.0	76	-1.9	468	0	987.9	NA	0.0000		9999	4560	0	0	0
2019/12/04 12:48:01	BASE	11.29	36	14.40	35	2.0	76	-1.9	502	0	988.0	NA	0.0000		9999	4590	0	0	0
2019/12/04 12:49:01	BASE	10.94	36	14.40	35	2.0	75	-1.9	525	0	988.0	NA	0.0000		9999	4490	0	0	0
2019/12/04 12:50:01	BASE	11.12	35	14.40	35	2.0	75	-1.9	571	0	988.0	NA	0.0000		9999	4560	0	0	0
2019/12/04 12:51:01	BASE	11.29	36	14.40	35	2.0	75	-1.9	561	0	988.0	NA	0.0000		9999	4630	23230	0	0
2019/12/04 12:52:01	BASE	11.39	38	14.40	35	2.0	76	-1.8	501	0	988.0	NA	0.0000		9999	4720	0	0	0
2019/12/04 12:53:01	BASE	10.76	40	14.40	35	2.0	76	-1.8	489	0	988.0	NA	0.0000		9999	4460	0	0	0
2019/12/04 12:54:01	BASE	10.97	40	14.40	35	2.1	76	-1.7	491	0	988.0	NA	0.0000		9999	4430	0	0	0
2019/12/04 12:55:01	BASE	11.38	39	14.40	35	2.1	76	-1.7	495	0	987.9	NA	0.0000		9999	4430	0	0	0
2019/12/04 12:56:01	BASE	11.25	34	14.40	35	2.1	76	-1.6	548	0	987.9	NA	0.0000		9999	4630	0	0	0
2019/12/04 12:57:01	BASE	10.68	32	13.12	46	2.2	76	-1.6	543	0	988.0	NA	0.0000		9999	4990	0	0	0
2019/12/04 12:58:01	BASE	10.36	35	13.12	46	2.2	76	-1.6	488	0	988.0	NA	0.0000		9999	4760	0	0	0
2019/12/04 12:59:00	BASE	10.56	36	13.12	46	2.2	76	-1.5	444	0	988.0	NA	0.0000		9999	4690	0	0	0
2019/12/04 13:00:01	BASE	11.23	36	13.63	41	2.2	76	-1.5	419	0	988.0	NA	0.0000		9999	4660	19650	0	0
2019/12/04 13:01:01	BASE	11.27	35	13.63	41	2.2	76	-1.5	390	0	988.1	NA	0.0000		9999	4460	0	0	0
2019/12/04 13:02:01	BASE	10.12	40	13.63	41	2.2	76	-1.5	363	0	988.1	NA	0.0000		9999	4590	0	0	0
2019/12/04 13:03:01	BASE	9.58	58	13.63	41	2.2	76	-1.5	340	0	988.2	NA	0.0000		9999	3840	4430	0	0
2019/12/04 13:04:01	BASE	8.92	71	13.63	41	2.2	76	-1.6	328	0	988.3	NA	0.0000		9999	4460	0	0	0
2019/12/04 13:05:01	BASE	7.64	68	13.63	41	2.2	76	-1.5	320	0	988.3	NA	0.0000		9999	4400	0	0	0
2019/12/04 13:06:01	BASE	6.29	63	13.63	41	2.2	76	-1.5	320	0	988.4	NA	0.0000		9999	3710	0	0	0
2019/12/04 13:07:01	BASE	7.10	77	13.63	41	2.2	76	-1.5	326	0	988.3	NA	0.0000		9999	3610	4530	22250	0
2019/12/04 13:08:01	BASE	7.57	104	13.63	41	2.2	76	-1.6	325	0	988.3	NA	0.0000		9999	4460	0	0	0
2019/12/04 13:09:01	BASE	6.64	114	13.63	41	2.1	76	-1.7	327	0	988.3	NA	0.0000		9999	3480	4430	0	0
2019/12/04 13:10:01	BASE	6.56	117	11.63	38	1.9	76	-1.8	336	0	988.3	NA	0.0000		9999	3740	4430	0	0
2019/12/04 13:11:01	BASE	6.58	108	11.32	33	1.7	77	-1.9	344	0	988.3	NA	0.0000		9999	3840	4400	0	0
2019/12/04 13:12:01	BASE	6.72	100	10.44	59	1.6	78	-1.8	342	0	988.3	NA	0.0000		9999	3870	4360	0	0
2019/12/04 13:13:01	BASE	6.24	105	10.03	88	1.4	80	-1.7	341	0	988.3	NA	0.0000		9999	4400	0	0	0
2019/12/04 13:14:01	BASE	6.13	105	10.03	88	1.3	81	-1.6	347	0	988.3	NA	0.0000		9999	4460	0	0	0
2019/12/04 13:15:01	BASE	6.63	106	10.03	88	1.3	82	-1.4	353	0	988.3	NA	0.0000		9999	4530	0	0	0
2019/12/04 13:16:01	BASE	6.10	119	10.03	88	1.2	83	-1.3	355	0	988.3	NA	0.0000		9999	4300	0	0	0
2019/12/04 13:17:01	BASE	5.40	129	7.41	121	1.2	84	-1.3	349	0	988.3	NA	0.0000		9999	4330	0	0	0
2019/12/04 13:18:01	BASE	5.86	135	7.36	109	1.1	85	-1.2	333	0	988.2	NA	0.0000		9999	3840	4360	0	0
2019/12/04 13:19:01	BASE	6.19	142	7.31	102	1.1	85	-1.1	334	0	988.2	NA	0.0000		9999	3940	0	0	0
2019/12/04 13:20:01	BASE	5.86	140	7.31	102	1.1	86	-1.0	340	0	988.3	NA	0.0000		9999	4270	4860	0	0
2019/12/04 13:21:01	BASE	5.51	129	7.31	102	1.1	86	-1.0	344	0	988.3	NA	0.0000		9999	2620	0	0	0
2019/12/04 13:22:01	BASE	5.25	118	7.25	106	1.1	86	-1.0	343	0	988.4	NA	0.0000		9999	3120	3940	0	0
2019/12/04 13:23:01	BASE	5.12	115	7.25	106	1.0	86	-1.0	338	0	988.4	NA	0.0000		9999	3940	0	0	0
2019/12/04 13:24:01	BASE	5.01	122	7.05	105	1.0	86	-1.0	336	0	988.4	NA	0.0000		9999	3940	0	0	0
2019/12/04 13:25:01	BASE	4.49	140	6.84	140	1.0	87	-1.0	336	0	988.3	NA	0.0000		9999	4000	0	0	0
2019/12/04 13:26:01	BASE	3.43	154	6.84	140	1.0	87	-0.9	337	0	988.3	NA	0.0000		9999	2490	3580	0	0
2019/12/04 13:27:01	BASE	3.36	158	6.84	140	1.0	87	-0.9	336	0	988.3	NA	0.0000		9999	2590	3770	0	0
2019/12/04 13:28:01	BASE	3.92	148	6.43	145	1.1	87	-0.8	334	0	988.3	NA	0.0000		9999	2790	3970	0	0
2019/12/04 13:29:01	BASE	4.18	136	6.17	111	1.1	87	-0.8	332	0	988.2	NA	0.0000		9999	3020	3670	0	0
2019/12/04 13:30:01	BASE	4.13	139	6.17	111	1.1	87	-0.8	335	0	988.2	NA	0.0000		9999	3540	0	0	0
2019/12/04 13:31:01	BASE	3.80	156	6.17	111	1.1	87	-0.7	344	0	988.2	NA	0.0000		9999	3020	3740	0	0
2019/12/04 13:32:01	BASE	3.97	170	6.17	111	1.1	87	-0.7	354	0	988.2	NA	0.0000		9999	3810	0	0	0
2019/12/04 13:33:01	BASE	3.39	185	5.81	128	1.2	87	-0.7	367	0	988.2	NA	0.0000		9999	3770	0	0	0
2019/12/04 13:34:01	BASE	2.39	191	4.94	138	1.2	87	-0.7	382	0	988.2	NA	0.0000		9999	3740	0	0	0
2019/12/04 13:35:01	BASE	1.53	180	4.94	138	1.3	86	-0.8	405	0	988.2	NA	0.0000		9999	3970	0	0	0
2019/12/04 13:36:01	BASE	0.83	150	4.94	138	1.3	85	-0.9	432	0	988.2	NA	0.0000		9999	3900	0	0	0
2019/12/04 13:37:01	BASE	1.89	125	4.94	138	1.4	85	-0.9	449	0	988.2	NA	0.0000		9999	3810	0	0	0
2019/12/04 13:38:01	BASE	2.69	125	4.94	138	1.4	84	-1.0	458	0	988.1	NA	0.0000		9999	3940	0	0	0
2019/12/04 13:39:01	BASE	2.29	130	4.89	171	1.4	84	-1.0	458	0	988.1	NA	0.0000		9999	3770	0	0	0
2019/12/04 13:40:01	BASE	2.02	135	4.89	171	1.4	84	-1.0	446	0	988.0	NA	0.0000		9999	3810	0	0	0
2019/12/04 13:41:01	BASE	2.21	138	4.89	171	1.4	84	-1.0	422	0	988.0	NA	0.0000		9999	3870	0	0	0
2019/12/04 13:42:01	BASE	2.86	157	4.01	192	1.4	84	-0.9	399	0	987.9	NA	0.0000		9999	3870	21920	0	0
2019/12/04 13:43:01	BASE	2.69	195	3.76	191	1.5	84	-0.9	390	0	988.0	NA	0.0000		9999	3840	0	0	0
2019/12/04 13:44:01	BASE	2.46	211	3.76	191	1.5	85	-0.8	389	0	988.0	NA	0.0000		9999	2850	3580	24510	0
2019/12/04 13:45:01	BASE	2.63	204	3.76	191	1.4	85	-0.9	396	0	988.0	NA	0.0000		9999	2760	3350	0	0
2019/12/04 13:46:01	BASE	3.13	198	4.37	193	1.4	85	-0.9	403	0	987.9	NA	0.0000		9999	3870	0	0	0
2019/12/04 13:47:01	BASE	4.07	194	4.58	193	1.3	85	-1.0	399	0	987.9	NA	0.0000		9999	4100	5150	0	0
2019/12/04 13:48:01	BASE	4.41	195	5.04	201	1.2	85	-1.0	382	0	987.9	NA	0.0000		9999	4100	0	0	0
2019/12/04 13:49:01	BASE	4.81	197	5.50	196	1.1	86	-1.0	370	0	987.9	NA	0.0000		9999	4330	0	0	0
2019/12/04 13:50:01	BASE	5.02	196	5.50	196	1.0	87	-1.0	366	0	987.9	NA	0.0000		9999	3480	0	0	0
2019/12/04 13:51:01	BASE	4.82	193	5.50	196	1.0	87	-0.9	368	0	987.9	NA	0.0000		9999	4360	0	0	0
2019/12/04 13:52:01	BASE	4.58	194	5.50	196	0.9	88	-0.8	375	0	987.8	NA	0.0000		9999	4400	0	0	0
2019/12/04 13:53:01	BASE	4.48	197	5.50	196	0.9	89	-0.8	388	0	987.8	NA	0.0000		9999	4590	0	0	0
2019/12/04 13:54:01	BASE	3.82	196	5.50	196	0.8	89	-0.7	406	0	987.8	NA	0.0000		9999	4490	0	0	0
2019/12/04 13:55:01	BASE	3.55	196	5.50	196	0.8	90	-0.7	414	0	987.8	NA	0.0000		9999	4460	0	0	0
2019/12/04 13:56:01	BASE	4.09	201	5.50	196	0.8	90	-0.6	416	0	987.8	NA	0.0000		9999	4400	20280	20600	0
2019/12/04 13:57:01	BASE	4.25	209	5.50	196	0.8	91	-0.6	417	0	987.7	NA	0.0000		9999	4360	0	0	0
2019/12/04 13:58:01	BASE	5.27	210	6.38	206	0.8	91	-0.5	420	0	987.7	NA	0.0000		9999	4490	0	0	0
2019/12/04 13:59:01	BASE	5.79	206	6.38	206	0.8	91	-0.5	421	0	987.7	NA	0.0000		9999	2990	4530	0	0
2019/12/04 14:00:01	BASE	5.30	206	6.38	206	0.8	91	-0.5	424	0	987.0	NA	0.0000		9999	4720	0	0	0
2019/12/04 14:01:01	BASE	5.41	207	6.38	206	0.8	91	-0.5	428	0	987.7	NA	0.0000		9999	4490	0	0	0
2019/12/04 14:02:01	BASE	5.62	207	6.38	206	0.8	91	-0.5	431	0	987.6	NA	0.0000		9999	4330	0	0	0
2019/12/04 14:03:01	BASE	5.32	208	6.38	206	0.9	91	-0.4	434	0	987.7	NA	0.0000		9999	4230	0	0	0
2019/12/04 14:04:01	BASE	4.71	208	6.38	206	0.9	91	-0.4	431	0	987.7	NA	0.0000		9999	4130	0	0	0
2019/12/04 14:05:00	BASE	3.64	207	6.38	206	0.9	91	-0.5	424	0	987.7	NA	0.0000		9999	4230	0	0	0
2019/12/04 14:06:01	BASE	3.24	210	6.38	206	0.9	91	-0.5	424	0	987.7	NA	0.0000		9999	4170	0	0	0
2019/12/04 14:07:01	BASE	3.68	212	6.38	206	0.9	91	-0.5	432	0	987.7	NA	0.0000		9999	4170	0	0	0
2019/12/04 14:08:01	BASE	3.93	213	6.12	205	0.9	91	-0.5	447	0	987.7	NA	0.0000		9999	4230	0	0	0
2019/12/04 14:09:01	BASE	4.14	221	6.12	205	0.9	91	-0.5	459	0	987.6	NA	0.0000		9999	4300	20900	23130	0
2019/12/04 14:10:01	BASE	3.82	231	6.12	205	0.9	91	-0.4	463	0	987.6	NA	0.0000		9999	4300	0	0	0
2019/12/04 14:11:01	BASE	3.57	232	6.02	204	1.0	90	-0.5	463	0	987.6	NA	0.0000		9999	4200	0	0	0
2019/12/04 14:12:01	BASE	3.63	231	5.61	209	1.0	90	-0.5	466	0	987.6	NA	0.0000		9999	2890	4200	0	0
2019/12/04 14:13:00	BASE	3.60	229	4.84	206	1.0	89	-0.6	473	0	987.6	NA	0.0000		9999	3150	4720	0	0
2019/12/04 14:14:01	BASE	3.39	219	4.68	230	0.9	89	-0.6	478	0	987.2	NA	0.0000		9999	3120	4360	0	0
2019/12/04 14:15:00	BASE	3.17	210	4.68	230	0.9	89	-0.7	478	0	987.7	NA	0.0000		9999	4760	0	0	0
2019/12/04 14:16:01	BASE	3.06	204	4.68	230	0.9	89	-0.7	475	0	987.7	NA	0.0000		9999	4720	21590	0	0
2019/12/04 14:17:01	BASE	2.82	203	4.68	230	0.8	90	-0.7	470	0	987.7	NA	0.0000		9999	4790	0	0	0
2019/12/04 14:18:01	BASE	2.57	209	4.68	230	0.8	90	-0.7	465	0	987.7	NA	0.0000		9999	2820	4820	0	0
2019/12/04 14:19:01	BASE	2.36	221	4.22	228	0.8	90	-0.7	465	0	987.6	NA	0.0000		9999	2690	3380	0	0
2019/12/04 14:20:01	BASE	2.19	226	4.17	227	0.7	90	-0.7	471	0	987.7	NA	0.0000		9999	2790	4860	0	0
2019/12/04 14:21:01	BASE	1.97	223	4.17	227	0.7	91	-0.7	475	0	987.6	NA	0.0000		9999	4890	0	0	0
2019/12/04 14:22:01	BASE	1.68	221	3.96	220	0.7	91	-0.6	481	0	987.6	NA	0.0000		9999	4950	0	0	0
2019/12/04 14:23:01	BASE	1.59	222	3.60	204	0.6	91	-0.6	488	0	987.6	NA	0.0000		9999	5020	0	0	0
2019/12/04 14:24:01	BASE	1.36	221	3.60	204	0.6	92	-0.6	494	0	987.6	NA	0.0000		9999	5050	0	0	0
2019/12/04 14:25:01	BASE	1.03	219	3.24	198	0.7	92	-0.5	494	0	987.5	NA	0.0000		9999	5090	0	0	0
2019/12/04 14:26:01	BASE	1.53	227	2.88	197	0.7	92	-0.5	496	0	987.1	NA	0.0000		9999	5090	23260	0	0
2019/12/04 14:27:01	BASE	2.29	225	2.98	216	0.7	92	-0.4	502	0	987.4	NA	0.0000		9999	4990	21290	0	0
2019/12/04 14:28:01	BASE	2.36	216	2.98	216	0.8	92	-0.4	511	0	987.4	NA	0.0000		9999	4890	0	0	0
2019/12/04 14:29:01	BASE	2.02	220	2.98	216	0.8	92	-0.3	521	0	987.4	NA	0.0000		9999	3670	5090	21330	0
2019/12/04 14:30:01	BASE	2.00	225	2.98	216	0.9	92	-0.3	530	0	987.4	NA	0.0000		9999	3670	5020	0	0
2019/12/04 14:31:01	BASE	1.37	228	2.98	216	0.9	92	-0.3	535	0	987.3	NA	0.0000		9999	3640	5150	0	0
2019/12/04 14:32:01	BASE	0.41	230	2.98	216	0.9	91	-0.3	534	0	987.3	NA	0.0000		9999	3670	5120	0	0
2019/12/04 14:33:01	BASE	0.09	216	2.98	216	1.0	91	-0.3	538	0	987.3	NA	0.0000		9999	5220	0	0	0
2019/12/04 14:34:01	BASE	0.60	202	2.98	216	0.9	91	-0.4	553	0	987.3	NA	0.0000		9999	5280	0	0	0
2019/12/04 14:35:01	BASE	1.48	198	2.98	216	0.9	90	-0.5	569	0	987.3	NA	0.0000		9999	5220	0	0	0
2019/12/04 14:36:01	BASE	1.57	200	2.98	216	0.9	90	-0.6	579	0	987.2	NA	0.0000		9999	5250	0	0	0
2019/12/04 14:37:01	BASE	1.19	220	2.62	238	0.9	90	-0.6	580	0	987.2	NA	0.0000		9999	5350	0	0	0
2019/12/04 14:38:01	BASE	0.68	217	2.31	227	0.9	89	-0.6	583	0	987.1	NA	0.0000		9999	5320	0	0	0
2019/12/04 14:44:44	BASE	M	M	M	M	1.0	89	-0.6	671	0	M	NA	0.0000		M	5450	0	0	0
2019/12/04 14:45:00	BASE	M	M	M	M	1.1	88	-0.7	664	0	M	NA	0.0000		9999	5450	0	0	0
2019/12/04 14:46:01	BASE	3.26	190	M	M	1.1	88	-0.7	668	0	986.9	NA	0.0000		9999	5450	0	0	0
2019/12/04 14:47:01	BASE	3.63	179	M	M	1.2	87	-0.7	657	0	987.0	NA	0.0000		9999	5410	0	0	0
2019/12/04 14:48:01	BASE	3.69	176	M	M	1.3	86	-0.8	649	0	986.9	NA	0.0000		9999	5510	0	0	0
2019/12/04 14:49:01	BASE	4.08	177	M	M	1.3	86	-0.7	642	0	986.9	NA	0.0000		9999	5510	0	0	0
2019/12/04 14:50:01	BASE	4.90	172	M	M	1.3	86	-0.7	628	0	986.9	NA	0.0000		9999	5580	0	0	0
2019/12/04 14:51:01	BASE	5.16	165	M	M	1.4	86	-0.7	621	0	986.9	NA	0.0000		9999	5510	0	0	0
2019/12/04 14:52:00	BASE	4.92	163	6.17	161	1.4	87	-0.6	591	0	986.9	NA	0.0000		9999	5540	0	0	0
2019/12/04 14:53:00	BASE	4.68	158	6.17	161	1.3	87	-0.5	562	0	986.9	NA	0.0000		9999	5580	0	0	0
2019/12/04 14:54:01	BASE	4.72	152	6.17	161	1.3	88	-0.5	540	0	986.9	NA	0.0000		9999	5610	0	0	0
2019/12/04 14:55:00	BASE	5.13	157	6.17	166	1.2	88	-0.5	527	0	986.9	NA	0.0000		9999	5580	0	0	0
2019/12/04 14:56:01	BASE	5.63	166	6.89	179	1.1	89	-0.4	531	0	987.0	NA	0.0000		9999	5510	0	0	0
2019/12/04 14:57:01	BASE	5.70	170	6.89	179	1.1	90	-0.4	538	0	987.0	NA	0.0000		9999	4760	0	0	0
2019/12/04 14:58:00	BASE	5.27	168	6.89	179	1.0	91	-0.4	543	0	987.0	NA	0.0000		9999	4760	0	0	0
2019/12/04 14:59:00	BASE	4.97	167	6.89	179	1.0	91	-0.3	532	0	987.0	NA	0.0000		9999	4690	5710	0	0
2019/12/04 15:00:00	BASE	4.44	162	6.89	179	1.0	92	-0.2	518	0	987.0	NA	0.0000		9999	4690	0	0	0
2019/12/04 15:01:00	BASE	4.12	157	6.89	179	1.0	92	-0.2	506	0	987.0	NA	0.0000		9999	4690	0	0	0
2019/12/04 15:02:01	BASE	4.20	150	6.89	179	1.1	92	-0.1	497	0	987.0	NA	0.0000		9999	4660	0	0	0
2019/12/04 15:03:01	BASE	4.00	140	6.89	179	1.1	92	-0.1	493	0	987.1	NA	0.0000		9999	4400	0	0	0
2019/12/04 15:04:01	BASE	3.84	130	6.89	179	1.1	92	-0.1	492	0	987.1	NA	0.0000		9999	4590	0	0	0
2019/12/04 15:05:01	BASE	3.89	125	6.89	179	1.0	91	-0.2	495	0	987.1	NA	0.0000		9999	4430	0	0	0
2019/12/04 15:06:01	BASE	3.85	130	6.17	177	1.0	91	-0.3	501	0	987.1	NA	0.0000		9999	3940	4560	0	0
2019/12/04 15:07:01	BASE	3.63	128	5.92	171	0.9	91	-0.4	507	0	987.1	NA	0.0000		9999	4230	0	0	0
2019/12/04 15:08:00	BASE	3.26	122	5.35	169	0.9	91	-0.4	507	0	986.9	NA	0.0000		9999	3900	4400	0	0
2019/12/04 15:09:00	BASE	2.78	119	4.89	156	0.8	91	-0.4	503	0	986.9	NA	0.0000		9999	4000	0	0	0
2019/12/04 15:10:00	BASE	2.62	119	4.89	156	0.8	92	-0.4	501	0	987.0	NA	0.0000		9999	4000	0	0	0
2019/12/04 15:11:00	BASE	2.55	119	4.63	138	0.8	92	-0.4	506	0	987.0	NA	0.0000		9999	4130	0	0	0
2019/12/04 15:12:00	BASE	2.16	113	4.58	134	0.8	92	-0.3	516	0	987.0	NA	0.0000		9999	4230	0	0	0
2019/12/04 15:13:00	BASE	1.71	108	4.58	134	0.8	92	-0.3	524	0	987.1	NA	0.0000		9999	4270	0	0	0
2019/12/04 15:14:00	BASE	1.36	110	4.58	134	0.9	92	-0.3	533	0	987.1	NA	0.0000		9999	3840	4330	0	0
2019/12/04 15:15:00	BASE	0.74	102	4.58	134	0.9	92	-0.2	543	0	987.1	NA	0.0000		9999	3870	4300	0	0
2019/12/04 15:16:01	BASE	0.14	100	3.86	124	1.0	92	-0.2	545	0	987.0	NA	0.0000		9999	4360	0	0	0
2019/12/04 15:17:00	BASE	0.00	96	3.29	128	1.0	91	-0.2	527	0	987.0	NA	0.0000		9999	3870	4430	0	0
2019/12/04 15:18:00	BASE	0.00	46	3.14	107	1.1	91	-0.2	512	0	987.0	NA	0.0000		9999	4400	5710	0	0
2019/12/04 15:19:00	BASE	0.00	347	3.14	107	1.2	90	-0.2	498	0	987.0	NA	0.0000		9999	4690	5840	0	0
2019/12/04 15:20:00	BASE	0.00	335	3.14	107	1.2	90	-0.3	480	0	987.0	NA	0.0000		9999	4560	0	0	0
2019/12/04 15:21:00	BASE	0.00	331	2.11	102	1.3	89	-0.3	456	0	987.0	NA	0.0000		9999	3870	4530	0	0
2019/12/04 15:22:00	BASE	0.00	343	2.06	112	1.3	89	-0.3	431	0	987.0	NA	0.0000		9999	3870	0	0	0
2019/12/04 15:23:00	BASE	0.00	20	1.49	121	1.3	88	-0.4	414	0	987.0	NA	0.0000		9999	3840	0	0	0
2019/12/04 15:24:00	BASE	0.00	25	1.18	111	1.3	88	-0.4	395	0	987.0	NA	0.0000		9999	3840	0	0	0
2019/12/04 15:25:00	BASE	0.00	15	M	M	1.3	88	-0.5	380	0	986.9	NA	0.0000		9999	3840	0	0	0
2019/12/04 15:26:00	BASE	0.00	5	M	M	1.3	88	-0.6	378	0	986.8	NA	0.0000		9999	3810	0	0	0
2019/12/04 15:27:00	BASE	0.00	340	M	M	1.3	88	-0.5	385	0	986.8	NA	0.0000		9999	3810	0	0	0
2019/12/04 15:28:00	BASE	0.00	325	M	M	1.4	87	-0.4	388	0	986.8	NA	0.0000		9999	3810	0	0	0
2019/12/04 15:29:00	BASE	0.00	315	M	M	1.5	87	-0.4	385	0	986.8	NA	0.0000		9999	3840	0	0	0
2019/12/04 15:30:00	BASE	0.00	281	M	M	1.6	86	-0.4	380	0	986.8	NA	0.0000		9999	3810	0	0	0
2019/12/04 15:31:00	BASE	0.00	264	M	M	1.7	86	-0.4	371	0	986.7	NA	0.0000		9999	3810	0	0	0
2019/12/04 15:32:00	BASE	0.00	291	M	M	1.6	85	-0.6	361	0	986.7	NA	0.0000		9999	3810	0	0	0
2019/12/04 15:33:00	BASE	0.56	326	1.34	339	1.7	85	-0.6	350	0	986.7	NA	0.0000		9999	3840	0	0	0
2019/12/04 15:34:00	BASE	1.39	343	2.06	354	1.6	84	-0.8	335	0	986.7	NA	0.0000		9999	3810	19030	0	0
2019/12/04 15:35:00	BASE	1.79	345	2.06	341	1.6	84	-0.9	316	0	986.7	NA	0.0000		9999	3180	3810	0	0
2019/12/04 15:36:00	BASE	1.89	344	2.06	346	1.5	84	-0.9	299	0	986.7	NA	0.0000		9999	3770	0	0	0
2019/12/04 15:37:00	BASE	1.90	350	2.06	346	1.4	84	-1.0	285	0	986.7	NA	0.0000		9999	3810	0	0	0
2019/12/04 15:38:00	BASE	1.83	351	2.06	346	1.3	84	-1.1	275	0	986.7	NA	0.0000		9999	3810	4230	0	0
2019/12/04 15:39:00	BASE	1.63	351	2.06	346	1.3	85	-1.0	269	0	986.7	NA	0.0000		9999	3150	4230	0	0
2019/12/04 15:40:00	BASE	1.42	355	2.06	346	1.3	85	-1.0	267	0	986.7	NA	0.0000		9999	4200	0	0	0
2019/12/04 15:41:00	BASE	1.13	356	2.06	346	1.3	85	-0.9	268	0	986.6	NA	0.0000		9999	4200	0	0	0
2019/12/04 15:42:00	BASE	0.90	355	2.06	346	1.3	86	-0.8	269	0	986.6	NA	0.0000		9999	3870	0	0	0
2019/12/04 15:43:00	BASE	0.84	359	2.06	346	1.4	86	-0.8	273	0	986.6	NA	0.0000		9999	3770	21330	0	0
2019/12/04 15:44:00	BASE	0.69	360	2.06	346	1.4	85	-0.8	275	0	986.6	NA	0.0000		9999	3740	0	0	0
2019/12/04 15:45:00	BASE	0.37	352	2.06	346	1.4	85	-0.8	279	0	986.6	NA	0.0000		9999	3840	0	0	0
2019/12/04 15:46:00	BASE	0.53	341	2.06	346	1.4	85	-0.8	285	0	986.6	NA	0.0000		9999	3870	0	0	0
2019/12/04 15:47:00	BASE	1.02	329	1.85	350	1.5	85	-0.8	292	0	986.6	NA	0.0000		9999	3900	0	0	0
2019/12/04 15:48:00	BASE	1.28	320	1.75	345	1.4	85	-0.8	300	0	986.6	NA	0.0000		9999	3900	0	0	0
2019/12/04 15:49:00	BASE	1.32	317	1.54	308	1.4	85	-0.9	305	0	986.6	NA	0.0000		9999	3810	0	0	0
2019/12/04 15:50:00	BASE	1.35	319	1.59	315	1.3	85	-1.0	307	0	986.6	NA	0.0000		9999	3810	0	0	0
2019/12/04 15:51:00	BASE	1.58	316	1.85	304	1.2	85	-1.1	305	0	986.6	NA	0.0000		9999	3840	0	0	0
2019/12/04 15:52:00	BASE	1.80	307	2.06	305	1.1	85	-1.1	303	0	986.6	NA	0.0000		9999	3840	0	0	0
2019/12/04 15:53:00	BASE	2.11	302	2.57	289	1.2	86	-1.0	299	0	986.6	NA	0.0000		9999	3770	0	0	0
2019/12/04 15:54:00	BASE	2.41	298	2.62	292	1.3	86	-0.8	296	0	986.6	NA	0.0000		9999	3310	3770	0	0
2019/12/04 15:55:00	BASE	2.18	300	2.62	292	1.3	86	-0.7	296	0	986.6	NA	0.0000		9999	3250	0	0	0
2019/12/04 15:56:00	BASE	1.84	305	2.62	292	1.4	87	-0.5	300	0	986.6	NA	0.0000		9999	3350	3740	0	0
2019/12/04 15:57:00	BASE	1.91	301	2.62	292	1.4	87	-0.5	307	0	986.5	NA	0.0000		9999	3770	0	0	0
2019/12/04 15:58:00	BASE	1.95	296	2.62	292	1.3	88	-0.5	314	0	986.5	NA	0.0000		9999	3770	0	0	0
2019/12/04 15:59:01	BASE	1.74	300	2.62	292	1.3	88	-0.4	318	0	986.5	NA	0.0000		9999	3740	21750	23100	0
2019/12/04 16:00:00	BASE	1.96	303	2.62	292	1.3	89	-0.4	320	0	986.5	NA	0.0000		9999	3740	0	0	0
2019/12/04 16:01:00	BASE	2.27	302	2.62	292	1.2	89	-0.4	320	0	986.5	NA	0.0000		9999	3770	0	0	0
2019/12/04 16:02:00	BASE	2.35	299	2.68	305	1.3	89	-0.3	321	0	986.5	NA	0.0000		9999	3740	0	0	0
2019/12/04 16:03:00	BASE	2.53	294	2.73	297	1.4	89	-0.3	322	0	986.5	NA	0.0000		9999	3740	0	0	0
2019/12/04 16:04:00	BASE	2.48	294	2.73	297	1.4	89	-0.3	323	0	986.5	NA	0.0000		9999	3150	3640	0	0
2019/12/04 16:05:00	BASE	2.21	290	2.73	297	1.4	88	-0.3	324	0	986.5	NA	0.0000		9999	3180	3710	0	0
2019/12/04 16:06:00	BASE	1.83	284	2.73	297	1.4	88	-0.3	322	0	986.4	NA	0.0000		9999	3670	0	0	0
2019/12/04 16:07:00	BASE	1.55	280	2.73	297	1.4	88	-0.4	318	0	986.4	NA	0.0000		9999	3640	0	0	0
2019/12/04 16:08:00	BASE	1.57	279	2.73	297	1.3	88	-0.5	314	0	986.4	NA	0.0000		9999	3670	4170	0	0
2019/12/04 16:09:00	BASE	1.75	286	2.73	297	1.3	88	-0.5	311	0	986.4	NA	0.0000		9999	3670	4200	0	0
2019/12/04 16:10:00	BASE	2.13	295	2.73	297	1.2	88	-0.5	311	0	986.4	NA	0.0000		9999	3740	0	0	0
2019/12/04 16:11:00	BASE	2.30	297	2.73	297	1.2	89	-0.4	311	0	986.4	NA	0.0000		9999	3480	0	0	0
2019/12/04 16:12:00	BASE	2.08	295	2.78	272	1.3	89	-0.4	312	0	986.4	NA	0.0000		9999	3350	0	0	0
2019/12/04 16:13:00	BASE	1.86	283	2.78	272	1.2	89	-0.4	313	0	986.3	NA	0.0000		9999	3250	0	0	0
2019/12/04 16:14:00	BASE	1.62	264	2.78	272	1.2	89	-0.4	313	0	985.9	NA	0.0000		9999	2920	3310	0	0
2019/12/04 16:15:00	BASE	1.50	259	2.78	272	1.1	89	-0.4	313	0	986.3	NA	0.0000		9999	3310	0	0	0
2019/12/04 16:16:00	BASE	1.64	260	2.78	272	1.1	90	-0.4	312	0	986.3	NA	0.0000		9999	3280	0	0	0
2019/12/04 16:17:01	BASE	2.03	253	2.78	255	1.0	90	-0.5	312	0	986.3	NA	0.0000		9999	3220	0	0	0
2019/12/04 16:18:01	BASE	2.12	249	2.78	255	0.9	90	-0.5	310	0	986.2	NA	0.0000		9999	3220	0	0	0
2019/12/04 16:19:00	BASE	1.81	236	2.78	255	0.9	91	-0.5	307	0	986.2	NA	0.0000		9999	3180	0	0	0
2019/12/04 16:20:00	BASE	1.67	222	2.78	255	0.9	91	-0.4	307	0	986.2	NA	0.0000		9999	3180	0	0	0
2019/12/04 16:21:00	BASE	1.74	221	2.78	255	0.8	92	-0.4	308	0	986.2	NA	0.0000		9999	3150	0	0	0
2019/12/04 16:22:00	BASE	1.70	221	2.78	255	0.8	92	-0.4	313	0	986.2	NA	0.0000		9999	3150	0	0	0
2019/12/04 16:23:00	BASE	1.48	215	2.78	255	0.8	92	-0.4	316	0	986.2	NA	0.0000		9999	3380	3900	0	0
2019/12/04 16:24:00	BASE	0.79	195	2.78	255	0.8	92	-0.4	316	0	986.2	NA	0.0000		9999	3450	3970	0	0
2019/12/04 16:25:00	BASE	0.10	170	2.78	255	0.8	92	-0.4	315	0	986.2	NA	0.0000		9999	3940	4400	0	0
2019/12/04 16:26:00	BASE	0.04	198	2.78	255	0.8	92	-0.4	316	0	986.2	NA	0.0000		9999	4000	0	0	0
2019/12/04 16:27:00	BASE	0.04	283	2.62	244	0.8	92	-0.4	318	0	986.2	NA	0.0000		9999	4040	0	0	0
2019/12/04 16:28:00	BASE	0.10	359	2.21	218	0.8	92	-0.4	321	0	986.1	NA	0.0000		9999	4400	6040	0	0
2019/12/04 16:29:00	BASE	0.30	24	2.21	218	0.9	91	-0.4	323	0	986.1	NA	0.0000		9999	4430	0	0	0
2019/12/04 16:30:00	BASE	0.85	32	2.21	46	0.9	91	-0.3	321	0	986.1	NA	0.0000		9999	4300	0	0	0
2019/12/04 16:31:00	BASE	1.59	40	2.52	40	1.0	91	-0.2	313	0	986.1	NA	0.0000		9999	4360	0	0	0
2019/12/04 16:32:00	BASE	1.95	43	2.52	50	1.2	91	-0.1	300	0	986.1	NA	0.0000		9999	4270	0	0	0
2019/12/04 16:33:00	BASE	1.36	70	2.52	50	1.3	91	0.0	287	0	986.2	NA	0.0000		9999	3050	4430	0	0
2019/12/04 16:34:00	BASE	0.49	88	2.52	50	1.4	91	0.1	276	0	986.2	NA	0.0000		9999	3050	0	0	0
2019/12/04 16:35:00	BASE	0.27	90	2.52	50	1.5	90	0.0	271	0	986.2	NA	0.0000		9999	2990	0	0	0
2019/12/04 16:36:00	BASE	0.14	102	2.52	50	1.4	90	-0.1	268	0	986.1	NA	0.0000		9999	2950	0	0	0
2019/12/04 16:37:00	BASE	0.18	102	2.52	50	1.4	89	-0.2	267	0	986.0	NA	0.0000		9999	2620	0	0	0
2019/12/04 16:38:00	BASE	0.28	110	2.52	50	1.4	88	-0.3	264	0	986.0	NA	0.0000		9999	2490	0	0	0
2019/12/04 16:39:00	BASE	0.10	192	2.52	50	1.4	87	-0.5	262	0	986.0	NA	0.0000		9999	2660	0	0	0
2019/12/04 16:40:01	BASE	0.00	214	2.52	50	1.4	87	-0.6	260	0	986.0	NA	0.0000		9999	2590	0	0	0
2019/12/04 16:41:00	BASE	0.04	219	2.52	50	1.4	86	-0.7	259	0	986.0	NA	0.0000		9999	2560	0	0	0
2019/12/04 16:42:00	BASE	0.67	200	2.01	190	1.4	86	-0.8	259	0	986.0	NA	0.0000		9999	2760	0	0	0
2019/12/04 16:43:00	BASE	1.51	189	2.11	195	1.3	85	-1.0	258	0	986.0	NA	0.0000		9999	2760	0	0	0
2019/12/04 16:44:01	BASE	2.20	184	3.19	185	1.2	85	-1.0	256	0	986.0	NA	0.0000		9999	2850	0	0	0
2019/12/04 16:45:00	BASE	2.44	177	3.19	185	1.2	85	-1.1	253	0	986.0	NA	0.0000		9999	2920	0	0	0
2019/12/04 16:46:00	BASE	2.16	172	3.19	185	1.2	85	-1.1	251	0	986.0	NA	0.0000		9999	2850	0	0	0
2019/12/04 16:47:00	BASE	2.41	170	3.19	185	1.1	85	-1.1	250	0	986.0	NA	0.0000		9999	2850	22570	0	0
2019/12/04 16:48:00	BASE	2.79	174	3.24	187	1.1	86	-1.0	252	0	986.0	NA	0.0000		9999	2820	0	0	0
2019/12/04 16:49:00	BASE	2.58	175	3.24	187	1.0	87	-1.0	254	0	986.0	NA	0.0000		9999	2850	0	0	0
2019/12/04 16:50:00	BASE	2.37	170	3.24	187	0.9	88	-0.9	255	0	986.0	NA	0.0000		9999	2790	0	0	0
2019/12/04 16:51:00	BASE	2.39	168	3.24	187	0.8	89	-0.8	255	0	986.0	NA	0.0000		9999	2820	0	0	0
2019/12/04 16:52:00	BASE	2.35	171	3.24	187	0.8	90	-0.7	253	0	986.0	NA	0.0000		9999	2790	0	0	0
2019/12/04 16:53:00	BASE	2.61	168	3.45	159	0.8	90	-0.6	250	0	986.0	NA	0.0000		9999	2720	0	0	0
2019/12/04 16:54:01	BASE	2.74	164	3.45	159	0.8	91	-0.5	246	0	986.0	NA	0.0000		9999	2760	0	0	0
2019/12/04 16:55:01	BASE	2.71	159	3.45	159	0.8	91	-0.5	244	0	986.0	NA	0.0000		9999	2760	0	0	0
2019/12/04 16:56:01	BASE	2.92	156	3.55	160	0.8	92	-0.4	245	0	986.0	NA	0.0000		9999	2720	0	0	0
2019/12/04 16:57:00	BASE	2.82	155	3.55	160	0.8	92	-0.3	248	0	986.0	NA	0.0000		9999	2760	0	0	0
2019/12/04 16:58:00	BASE	2.74	151	3.55	160	0.8	92	-0.3	252	0	986.0	NA	0.0000		9999	2690	0	0	0
2019/12/04 16:59:00	BASE	2.87	153	3.55	160	0.8	92	-0.3	254	0	986.0	NA	0.0000		9999	2690	0	0	0
2019/12/04 17:00:00	BASE	2.79	156	3.55	160	0.9	92	-0.3	255	0	986.0	NA	0.0000		9999	2690	0	0	0
2019/12/04 17:01:00	BASE	2.89	159	3.60	177	0.8	92	-0.3	254	0	986.0	NA	0.0000		9999	2720	0	0	0
2019/12/04 17:02:00	BASE	2.80	159	3.60	177	0.9	92	-0.3	253	0	986.0	NA	0.0000		9999	2720	0	0	0
2019/12/04 17:03:00	BASE	2.53	155	3.60	177	0.8	92	-0.3	250	0	986.0	NA	0.0000		9999	2760	3480	0	0
2019/12/04 17:04:00	BASE	2.45	155	3.60	177	0.9	92	-0.3	245	0	986.0	NA	0.0000		9999	2790	5020	20440	0
2019/12/04 17:05:00	BASE	2.34	164	3.60	177	0.9	92	-0.3	237	0	986.0	NA	0.0000		9999	4990	0	0	0
2019/12/04 17:06:00	BASE	2.37	168	3.60	177	0.9	92	-0.3	227	0	986.0	NA	0.0000		9999	2850	4950	21330	0
2019/12/04 17:07:01	BASE	2.32	161	3.60	177	0.9	92	-0.2	219	0	986.0	NA	0.0000		9999	2790	0	0	0
2019/12/04 17:08:00	BASE	2.28	158	3.60	177	1.0	92	-0.2	215	0	986.0	NA	0.0000		9999	2690	0	0	0
2019/12/04 17:09:00	BASE	2.10	156	3.60	177	1.0	92	-0.2	213	0	986.0	NA	0.0000		9999	2720	0	0	0
2019/12/04 17:10:00	BASE	2.02	152	3.60	177	1.0	92	-0.2	212	0	986.0	NA	0.0000		9999	2720	0	0	0
2019/12/04 17:11:00	BASE	1.89	157	2.93	165	1.0	92	-0.2	212	0	986.0	NA	0.0000		9999	2720	0	0	0
2019/12/04 17:12:00	BASE	1.56	164	2.93	165	1.0	92	-0.2	211	0	986.0	NA	0.0000		9999	2720	0	0	0
2019/12/04 17:13:00	BASE	1.57	170	2.93	165	1.0	92	-0.2	211	0	986.0	NA	0.0000		9999	2720	0	0	0
2019/12/04 17:14:00	BASE	1.52	182	2.88	160	0.9	91	-0.3	213	0	986.0	NA	0.0000		9999	2690	0	0	0
2019/12/04 17:15:00	BASE	1.27	179	2.88	160	0.9	91	-0.4	217	0	986.0	NA	0.0000		9999	2690	0	0	0
2019/12/04 17:16:00	BASE	0.89	161	2.88	160	0.9	91	-0.4	223	0	986.0	NA	0.0000		9999	2690	0	0	0
2019/12/04 17:17:00	BASE	0.74	160	2.88	160	1.0	91	-0.3	230	0	986.0	NA	0.0000		9999	2690	0	0	0
2019/12/04 17:18:00	BASE	1.25	170	2.52	136	0.9	91	-0.4	236	0	985.9	NA	0.0000		9999	2690	5090	0	0
2019/12/04 17:19:00	BASE	1.61	176	2.52	136	1.0	91	-0.4	239	0	985.9	NA	0.0000		9999	2760	4920	0	0
2019/12/04 17:20:01	BASE	1.58	178	2.11	173	0.9	90	-0.4	239	0	985.9	NA	0.0000		9999	4950	0	0	0
2019/12/04 17:21:00	BASE	1.59	182	2.11	173	0.9	90	-0.6	236	0	985.9	NA	0.0000		9999	4950	0	0	0
2019/12/04 17:22:00	BASE	1.43	184	2.11	173	0.8	90	-0.7	231	0	985.9	NA	0.0000		9999	4950	0	0	0
2019/12/04 17:23:00	BASE	1.20	178	2.11	173	0.8	90	-0.7	226	0	985.9	NA	0.0000		9999	4560	4920	0	0
2019/12/04 17:24:00	BASE	0.60	160	2.11	173	0.8	90	-0.7	220	0	985.9	NA	0.0000		9999	3900	5020	0	0
2019/12/04 17:25:00	BASE	0.05	153	2.11	173	0.9	90	-0.5	215	0	985.9	NA	0.0000		9999	3840	0	0	0
2019/12/04 17:26:00	BASE	0.00	153	2.11	173	0.9	91	-0.4	211	0	985.9	NA	0.0000		9999	3810	0	0	0
2019/12/04 17:27:00	BASE	0.00	131	2.11	173	1.0	91	-0.4	208	0	985.9	NA	0.0000		9999	3410	0	0	0
2019/12/04 17:28:00	BASE	0.00	88	1.95	188	1.0	91	-0.3	205	0	985.9	NA	0.0000		9999	3380	0	0	0
2019/12/04 17:29:00	BASE	0.00	323	1.90	179	1.0	90	-0.4	203	0	985.8	NA	0.0000		9999	3280	0	0	0
2019/12/04 17:30:00	BASE	0.41	342	1.90	179	1.0	90	-0.4	201	0	985.8	NA	0.0000		9999	3220	0	0	0
2019/12/04 17:31:00	BASE	1.16	360	1.75	352	1.1	90	-0.4	199	0	985.8	NA	0.0000		9999	3180	0	0	0
2019/12/04 17:32:00	BASE	1.48	349	1.75	352	1.1	89	-0.5	198	0	985.8	NA	0.0000		9999	3180	0	0	0
2019/12/04 17:33:00	BASE	1.51	350	1.75	352	1.0	89	-0.6	198	0	985.8	NA	0.0000		9999	2890	0	0	0
2019/12/04 17:34:00	BASE	1.64	347	1.95	360	1.0	89	-0.6	198	0	985.8	NA	0.0000		9999	2920	0	0	0
2019/12/04 17:35:00	BASE	1.71	349	1.95	3	0.9	89	-0.7	198	0	985.8	NA	0.0000		9999	2820	0	0	0
2019/12/04 17:36:00	BASE	1.65	350	1.95	3	0.9	89	-0.7	199	0	985.8	NA	0.0000		9999	2790	0	0	0
2019/12/04 17:37:00	BASE	1.52	349	1.95	3	0.9	89	-0.7	200	0	985.8	NA	0.0000		9999	2820	0	0	0
2019/12/04 17:38:00	BASE	1.24	348	1.95	3	0.9	90	-0.6	203	0	985.7	NA	0.0000		9999	2820	0	0	0
2019/12/04 17:39:00	BASE	1.09	341	1.95	3	1.0	90	-0.5	206	0	985.7	NA	0.0000		9999	2790	0	0	0
2019/12/04 17:40:00	BASE	1.13	337	1.95	3	1.1	90	-0.4	209	0	985.7	NA	0.0000		9999	2790	21330	0	0
2019/12/04 17:41:00	BASE	1.03	332	1.95	3	1.1	90	-0.4	211	0	985.7	NA	0.0000		9999	2790	0	0	0
2019/12/04 17:42:00	BASE	1.10	321	1.95	3	1.1	90	-0.4	212	0	985.7	NA	0.0000		9999	2720	0	0	0
2019/12/04 17:43:00	BASE	1.02	316	1.95	3	1.1	89	-0.4	214	0	985.7	NA	0.0000		9999	2690	22080	0	0
2019/12/04 17:44:02	BASE	0.68	317	1.95	3	1.2	89	-0.4	216	0	985.5	NA	0.0000		9999	2690	0	0	0
2019/12/04 17:45:00	BASE	0.57	314	1.75	348	1.1	89	-0.5	219	0	985.1	NA	0.0000		9999	2690	0	0	0
2019/12/04 17:46:00	BASE	0.48	313	1.65	349	1.1	88	-0.6	223	0	985.2	NA	0.0000		9999	2690	0	0	0
2019/12/04 17:47:01	BASE	0.50	306	1.49	335	1.2	88	-0.6	228	0	985.7	NA	0.0000		9999	2660	0	0	0
2019/12/04 17:48:00	BASE	0.28	295	1.49	335	1.2	88	-0.6	233	0	985.7	NA	0.0000		9999	2620	0	0	0
2019/12/04 17:49:00	BASE	0.00	297	1.49	335	1.2	88	-0.6	239	0	985.6	NA	0.0000		9999	2620	0	0	0
2019/12/04 17:50:00	BASE	0.15	305	1.39	315	1.2	87	-0.7	244	0	985.6	NA	0.0000		9999	2620	0	0	0
2019/12/04 17:51:00	BASE	0.24	311	1.39	315	1.2	87	-0.6	249	0	985.6	NA	0.0000		9999	2660	0	0	0
2019/12/04 17:52:00	BASE	0.13	304	1.29	287	1.3	87	-0.6	253	0	985.6	NA	0.0000		9999	2660	0	0	0
2019/12/04 17:53:00	BASE	0.32	299	1.29	287	1.3	87	-0.7	258	0	985.6	NA	0.0000		9999	2690	21920	22280	0
2019/12/04 17:54:00	BASE	0.32	300	1.29	287	1.3	87	-0.7	264	0	985.6	NA	0.0000		9999	2720	21980	0	0
2019/12/04 17:55:00	BASE	0.13	296	1.29	287	1.3	86	-0.8	269	0	985.5	NA	0.0000		9999	2890	0	0	0
2019/12/04 17:56:00	BASE	0.37	274	1.29	287	1.2	86	-0.9	272	0	985.4	NA	0.0000		9999	2950	0	0	0
2019/12/04 17:57:00	BASE	0.27	251	1.29	287	1.1	86	-0.9	273	0	985.4	NA	0.0000		9999	2990	0	0	0
2019/12/04 17:58:00	BASE	0.35	240	1.44	226	1.0	86	-1.0	268	0	985.4	NA	0.0000		9999	2820	0	0	0
2019/12/04 17:59:00	BASE	0.66	230	1.44	226	0.9	87	-1.1	260	0	985.4	NA	0.0000		9999	2790	0	0	0
2019/12/04 18:00:00	BASE	0.56	217	1.44	226	0.8	87	-1.1	252	0	985.4	NA	0.0000		9999	2720	0	0	0
2019/12/04 18:01:00	BASE	0.66	202	1.44	226	0.7	88	-1.1	246	0	985.4	NA	0.0000		9999	2720	0	0	0
2019/12/04 18:02:00	BASE	0.86	194	1.44	226	0.7	88	-1.0	243	0	985.4	NA	0.0000		9999	2690	19920	0	0
2019/12/04 18:03:00	BASE	1.12	189	1.54	186	0.7	89	-1.0	243	0	985.4	NA	0.0000		9999	2720	0	0	0
2019/12/04 18:04:00	BASE	1.45	188	1.95	186	0.7	89	-0.9	244	0	985.4	NA	0.0000		9999	2690	0	0	0
2019/12/04 18:05:00	BASE	1.66	193	2.06	203	0.7	90	-0.8	245	0	985.4	NA	0.0000		9999	2690	0	0	0
2019/12/04 18:06:00	BASE	1.72	196	2.06	203	0.7	90	-0.8	245	0	985.4	NA	0.0000		9999	2720	0	0	0
2019/12/04 18:07:00	BASE	1.56	199	2.06	203	0.7	90	-0.8	245	0	985.4	NA	0.0000		9999	2720	0	0	0
2019/12/04 18:08:00	BASE	1.46	199	2.06	203	0.6	90	-0.8	246	0	985.4	NA	0.0000		9999	2720	0	0	0
2019/12/04 18:09:00	BASE	1.54	196	2.06	203	0.6	90	-0.8	247	0	985.4	NA	0.0000		9999	2690	0	0	0
2019/12/04 18:10:00	BASE	1.82	195	2.11	195	0.6	90	-0.9	249	0	985.4	NA	0.0000		9999	2690	0	0	0
2019/12/04 18:11:00	BASE	2.19	195	2.83	200	0.6	90	-0.9	252	0	985.4	NA	0.0000		9999	2760	0	0	0
2019/12/04 18:12:00	BASE	2.11	196	2.83	200	0.6	90	-0.9	254	0	985.4	NA	0.0000		9999	2990	0	0	0
2019/12/04 18:13:00	BASE	2.15	196	2.83	200	0.6	90	-0.9	257	0	985.3	NA	0.0000		9999	2990	0	0	0
2019/12/04 18:14:00	BASE	2.33	199	2.83	200	0.6	90	-0.9	260	0	985.3	NA	0.0000		9999	2990	0	0	0
2019/12/04 18:15:00	BASE	2.12	203	2.83	200	0.6	90	-0.9	262	0	985.3	NA	0.0000		9999	2950	0	0	0
2019/12/04 18:16:00	BASE	2.21	204	2.83	200	0.6	90	-0.9	265	0	985.3	NA	0.0000		9999	2720	0	0	0
2019/12/04 18:17:00	BASE	2.24	203	2.83	200	0.5	90	-0.9	270	0	985.3	NA	0.0000		9999	2950	0	0	0
2019/12/04 18:18:00	BASE	2.18	204	2.83	200	0.5	91	-0.8	277	0	985.3	NA	0.0000		9999	2990	0	0	0
2019/12/04 18:19:00	BASE	2.19	205	2.83	200	0.5	91	-0.8	284	0	985.2	NA	0.0000		9999	3020	0	0	0
2019/12/04 18:20:00	BASE	2.19	206	2.83	208	0.6	91	-0.7	289	0	985.2	NA	0.0000		9999	3080	0	0	0
2019/12/04 18:21:00	BASE	2.53	206	3.04	206	0.6	91	-0.7	294	0	985.2	NA	0.0000		9999	3120	0	0	0
2019/12/04 18:22:00	BASE	2.50	200	3.04	206	0.6	92	-0.6	297	0	985.2	NA	0.0000		9999	3120	0	0	0
2019/12/04 18:23:00	BASE	1.93	186	3.04	206	0.6	92	-0.6	300	0	985.2	NA	0.0000		9999	3150	0	0	0
2019/12/04 18:24:00	BASE	1.54	184	3.04	206	0.6	92	-0.6	303	0	985.1	NA	0.0000		9999	3120	0	0	0
2019/12/04 18:25:01	BASE	0.92	171	3.04	206	0.6	92	-0.5	305	0	985.1	NA	0.0000		9999	3150	24310	0	0
2019/12/04 18:26:00	BASE	0.91	142	3.04	206	0.7	92	-0.4	306	0	985.1	NA	0.0000		9999	3180	0	0	0
2019/12/04 18:27:00	BASE	1.71	137	3.04	206	0.7	93	-0.4	306	0	985.1	NA	0.0000		9999	3150	19520	21650	0
2019/12/04 18:28:00	BASE	1.94	148	3.04	206	0.8	93	-0.3	304	0	985.1	NA	0.0000		9999	3220	0	0	0
2019/12/04 18:29:00	BASE	1.36	154	3.04	206	0.8	93	-0.2	303	0	985.1	NA	0.0000		9999	3220	0	0	0
2019/12/04 18:30:00	BASE	0.51	135	3.04	206	0.8	93	-0.2	304	0	985.1	NA	0.0000		9999	3250	0	0	0
2019/12/04 18:31:00	BASE	0.80	124	2.52	197	0.8	93	-0.2	307	0	985.1	NA	0.0000		9999	3220	19950	0	0
2019/12/04 18:32:00	BASE	1.60	130	2.62	153	0.8	93	-0.3	311	0	985.1	NA	0.0000		9999	3250	0	0	0
2019/12/04 18:33:00	BASE	1.77	142	2.62	153	0.7	93	-0.3	316	0	985.1	NA	0.0000		9999	2360	3280	0	0
2019/12/04 18:34:00	BASE	1.42	152	2.62	153	0.7	92	-0.4	321	0	985.1	NA	0.0000		9999	3280	0	0	0
2019/12/04 18:35:00	BASE	1.55	145	2.62	153	0.7	92	-0.4	326	0	985.1	NA	0.0000		9999	3350	0	0	0
2019/12/04 18:36:00	BASE	2.31	145	3.34	140	0.7	92	-0.4	331	0	985.1	NA	0.0000		9999	3350	0	0	0
2019/12/04 18:37:00	BASE	2.39	161	3.34	140	0.7	92	-0.4	338	0	985.1	NA	0.0000		9999	3310	21000	0	0
2019/12/04 18:38:00	BASE	1.97	162	3.34	140	0.7	93	-0.3	344	0	985.1	NA	0.0000		9999	3310	18440	21980	0
2019/12/04 18:39:00	BASE	1.44	161	3.34	140	0.8	93	-0.3	350	0	985.0	NA	0.0000		9999	3350	0	0	0
2019/12/04 18:40:00	BASE	1.31	175	3.34	140	0.7	93	-0.3	356	0	984.9	NA	0.0000		9999	3350	0	0	0
2019/12/04 18:41:00	BASE	1.41	167	3.34	140	0.7	93	-0.2	359	0	984.9	NA	0.0000		9999	3350	0	0	0
2019/12/04 18:42:00	BASE	1.34	143	3.34	140	0.7	93	-0.2	360	0	984.9	NA	0.0000		9999	3380	0	0	0
2019/12/04 18:43:00	BASE	1.41	132	3.34	140	0.7	94	-0.2	361	0	984.9	NA	0.0000		9999	3380	0	0	0
2019/12/04 18:44:01	BASE	0.98	143	3.34	140	0.7	94	-0.2	366	0	984.9	NA	0.0000		9999	3380	0	0	0
2019/12/04 18:45:00	BASE	0.27	161	3.34	140	0.6	94	-0.2	374	0	984.9	NA	0.0000		9999	3380	0	0	0
2019/12/04 18:46:00	BASE	0.00	186	3.14	167	0.6	94	-0.2	382	0	984.9	NA	0.0000		9999	3380	0	0	0
2019/12/04 18:47:00	BASE	0.13	192	2.06	189	0.6	94	-0.2	390	0	984.9	NA	0.0000		9999	3380	0	0	0
2019/12/04 18:48:00	BASE	0.32	178	2.06	189	0.6	95	-0.2	393	0	984.8	NA	0.0000		9999	3410	0	0	0
2019/12/04 18:49:00	BASE	0.19	180	2.06	189	0.6	95	-0.1	397	0	984.8	NA	0.0000		9999	3380	0	0	0
2019/12/04 18:50:00	BASE	0.00	196	1.65	137	0.6	95	-0.1	403	0	984.8	NA	0.0000		9999	3450	0	0	0
2019/12/04 18:51:00	BASE	0.09	191	1.65	137	0.6	95	-0.1	410	0	984.8	NA	0.0000		9999	3510	0	0	0
2019/12/04 18:52:00	BASE	0.09	168	1.65	137	0.6	95	-0.1	418	0	984.8	NA	0.0000		9999	3580	0	0	0
2019/12/04 18:53:00	BASE	0.00	155	1.23	170	0.7	95	-0.0	422	0	984.8	NA	0.0000		9999	3580	0	0	0
2019/12/04 18:54:00	BASE	0.00	170	1.23	170	0.7	95	0.0	422	0	984.8	NA	0.0000		9999	3770	0	0	0
2019/12/04 18:55:00	BASE	0.00	193	1.23	170	0.8	95	0.0	419	0	984.8	NA	0.0000		9999	3840	0	0	0
2019/12/04 18:56:00	BASE	0.50	204	1.29	208	0.8	94	0.1	419	0	984.8	NA	0.0000		9999	3870	0	0	0
2019/12/04 18:57:00	BASE	0.76	214	1.29	207	0.9	94	0.1	426	0	984.8	NA	0.0000		9999	3870	0	0	0
2019/12/04 18:58:00	BASE	0.25	225	1.29	207	0.9	94	0.0	421	0	984.8	NA	0.0000		9999	3900	0	0	0
2019/12/04 18:59:00	BASE	0.09	242	1.29	207	0.9	94	0.1	412	0	984.7	NA	0.0000		9999	3970	0	0	0
2019/12/04 19:00:00	BASE	0.35	243	1.39	232	0.9	94	0.1	401	0	984.7	NA	0.0000		9999	3410	4070	0	0
2019/12/04 19:01:00	BASE	0.93	224	1.49	233	0.9	94	0.1	393	0	984.7	NA	0.0000		9999	4100	0	0	0
2019/12/04 19:02:00	BASE	1.49	180	2.47	147	1.0	94	0.1	392	0	984.7	NA	0.0000		9999	4100	0	0	0
2019/12/04 19:03:00	BASE	1.82	137	2.47	105	1.0	94	0.1	395	0	984.7	NA	0.0000		9999	4130	0	0	0
2019/12/04 19:04:00	BASE	2.07	85	2.68	32	1.1	94	0.2	403	0	984.7	NA	0.0000		9999	7450	0	0	0
2019/12/04 19:05:00	BASE	1.90	51	2.68	32	1.2	93	0.3	401	0	984.6	NA	0.0000		9999	4170	0	0	0
2019/12/04 19:06:00	BASE	2.71	77	5.92	92	1.3	93	0.3	393	0	984.6	NA	0.0000		9999	4070	0	0	0
2019/12/04 19:07:00	BASE	5.14	93	7.25	91	1.4	92	0.2	387	0	984.6	NA	0.0000		9999	4130	0	0	0
2019/12/04 19:08:00	BASE	7.00	90	8.44	98	1.6	90	0.1	383	0	984.6	NA	0.0000		9999	4230	0	0	0
2019/12/04 19:09:00	BASE	6.98	96	8.44	98	1.6	89	-0.1	385	0	984.6	NA	0.0000		9999	4270	7280	0	0
2019/12/04 19:10:00	BASE	6.03	97	8.44	98	1.7	87	-0.3	390	0	984.6	NA	0.0000		9999	4360	0	0	0
2019/12/04 19:11:00	BASE	5.57	99	8.44	98	1.8	85	-0.5	391	0	984.5	NA	0.0000		9999	4400	7280	0	0
2019/12/04 19:12:00	BASE	5.04	109	8.44	98	1.8	83	-0.8	388	0	984.5	NA	0.0000		9999	7380	0	0	0
2019/12/04 19:13:00	BASE	3.86	117	8.44	98	1.8	81	-1.0	383	0	984.5	NA	0.0000		9999	7510	0	0	0
2019/12/04 19:14:00	BASE	3.29	119	8.44	98	1.8	80	-1.3	383	0	984.5	NA	0.0000		9999	7640	0	0	0
2019/12/04 19:15:00	BASE	3.29	120	8.44	98	1.7	79	-1.5	383	0	984.5	NA	0.0000		9999	7610	0	0	0
2019/12/04 19:16:00	BASE	2.93	123	8.44	98	1.7	79	-1.6	385	0	984.5	NA	0.0000		9999	7640	0	0	0
2019/12/04 19:17:00	BASE	2.99	125	8.44	98	1.6	79	-1.6	389	0	984.5	NA	0.0000		9999	7710	0	0	0
2019/12/04 19:18:00	BASE	3.14	126	7.20	97	1.5	80	-1.6	396	0	984.5	NA	0.0000		9999	7710	0	0	0
2019/12/04 19:19:00	BASE	2.86	131	6.69	103	1.5	80	-1.6	398	0	984.5	NA	0.0000		9999	4130	0	0	0
2019/12/04 19:20:00	BASE	2.60	125	6.69	103	1.5	80	-1.6	401	0	984.4	NA	0.0000		9999	4040	0	0	0
2019/12/04 19:21:00	BASE	2.66	126	5.66	105	1.5	80	-1.6	406	0	984.5	NA	0.0000		9999	3970	0	0	0
2019/12/04 19:22:00	BASE	3.00	133	3.91	110	1.5	80	-1.5	413	0	984.5	NA	0.0000		9999	3840	0	0	0
2019/12/04 19:23:00	BASE	3.45	130	4.58	122	1.5	80	-1.5	405	0	984.5	NA	0.0000		9999	3740	0	0	0
2019/12/04 19:24:00	BASE	4.02	126	5.09	115	1.5	81	-1.5	386	0	984.5	NA	0.0000		9999	3580	0	0	0
2019/12/04 19:25:00	BASE	4.14	132	5.09	115	1.5	81	-1.5	381	0	984.4	NA	0.0000		9999	3840	0	0	0
2019/12/04 19:26:00	BASE	3.95	147	5.09	115	1.5	80	-1.5	379	0	984.4	NA	0.0000		9999	4000	7550	0	0
2019/12/04 19:27:00	BASE	3.65	157	5.09	115	1.6	80	-1.5	377	0	984.3	NA	0.0000		9999	7420	23030	0	0
2019/12/04 19:28:00	BASE	2.93	169	5.09	115	1.6	80	-1.5	377	0	984.3	NA	0.0000		9999	3610	7450	0	0
2019/12/04 19:29:00	BASE	2.30	167	5.09	115	1.5	80	-1.5	374	0	984.3	NA	0.0000		9999	7480	0	0	0
2019/12/04 19:30:00	BASE	1.92	138	5.09	115	1.5	81	-1.4	369	0	984.3	NA	0.0000		9999	7420	22080	0	0
2019/12/04 19:31:00	BASE	1.85	117	5.09	115	1.4	82	-1.3	364	0	984.3	NA	0.0000		9999	3970	7480	0	0
2019/12/04 19:32:00	BASE	2.52	119	5.09	115	1.3	83	-1.2	358	0	984.3	NA	0.0000		9999	3810	7250	0	0
2019/12/04 19:33:00	BASE	3.40	134	5.09	115	1.3	84	-1.2	354	0	984.2	NA	0.0000		9999	3710	0	0	0
2019/12/04 19:34:00	BASE	3.67	138	4.78	138	1.4	84	-1.1	353	0	984.3	NA	0.0000		9999	7020	0	0	0
2019/12/04 19:35:00	BASE	3.25	121	4.48	143	1.4	83	-1.1	357	0	984.3	NA	0.0000		9999	4170	7250	0	0
2019/12/04 19:36:00	BASE	2.99	111	4.48	143	1.4	83	-1.2	355	0	984.3	NA	0.0000		9999	3510	0	0	0
2019/12/04 19:37:00	BASE	2.77	132	4.48	143	1.4	82	-1.2	346	0	984.2	NA	0.0000		9999	3450	0	0	0
2019/12/04 19:38:00	BASE	2.35	135	4.48	143	1.5	82	-1.3	338	0	984.2	NA	0.0000		9999	3640	7050	0	0
2019/12/04 19:39:00	BASE	2.29	119	4.48	143	1.5	81	-1.5	330	0	984.2	NA	0.0000		9999	4490	0	0	0
2019/12/04 19:40:00	BASE	2.47	118	4.48	143	1.5	80	-1.6	320	0	984.3	NA	0.0000		9999	3610	0	0	0
2019/12/04 19:41:01	BASE	2.52	115	4.48	143	1.5	80	-1.7	315	0	984.3	NA	0.0000		9999	3580	0	0	0
2019/12/04 19:42:00	BASE	2.35	112	4.48	143	1.5	79	-1.7	312	0	984.3	NA	0.0000		9999	3610	0	0	0
2019/12/04 19:43:01	BASE	2.17	124	4.42	145	1.5	79	-1.7	310	0	984.3	NA	0.0000		9999	3540	0	0	0
2019/12/04 19:44:01	BASE	2.00	132	3.81	126	1.5	79	-1.7	309	0	984.3	NA	0.0000		9999	3610	0	0	0
2019/12/04 19:45:01	BASE	2.13	124	3.81	126	1.6	79	-1.7	304	0	984.2	NA	0.0000		9999	3580	0	0	0
2019/12/04 19:46:01	BASE	2.31	124	2.98	103	1.6	79	-1.7	300	0	984.2	NA	0.0000		9999	3610	4170	0	0
2019/12/04 19:47:01	BASE	2.22	134	3.09	126	1.6	79	-1.7	299	0	984.2	NA	0.0000		9999	3640	0	0	0
2019/12/04 19:48:01	BASE	2.33	137	3.09	126	1.6	79	-1.7	299	0	984.2	NA	0.0000		9999	3540	0	0	0
2019/12/04 19:49:01	BASE	3.10	134	4.01	130	1.5	79	-1.7	298	0	984.3	NA	0.0000		9999	3640	0	0	0
2019/12/04 19:50:01	BASE	4.24	121	5.71	103	1.5	79	-1.8	295	0	984.2	NA	0.0000		9999	3740	0	0	0
2019/12/04 19:51:01	BASE	4.68	114	5.71	103	1.5	79	-1.8	293	0	984.2	NA	0.0000		9999	3670	0	0	0
2019/12/04 19:52:01	BASE	4.41	118	5.81	113	1.5	78	-1.8	292	0	984.2	NA	0.0000		9999	3610	0	0	0
2019/12/04 19:53:01	BASE	5.02	116	8.49	104	1.5	78	-1.9	291	0	984.2	NA	0.0000		9999	3410	0	0	0
2019/12/04 19:54:01	BASE	5.48	118	8.49	104	1.6	78	-1.9	290	0	984.2	NA	0.0000		9999	3640	0	0	0
2019/12/04 19:55:00	BASE	4.42	124	8.49	104	1.6	77	-2.0	290	0	984.1	NA	0.0000		9999	3510	0	0	0
2019/12/04 19:56:00	BASE	3.24	123	8.49	104	1.6	76	-2.1	291	0	984.1	NA	0.0000		9999	3580	18370	0	0
2019/12/04 19:57:00	BASE	3.11	129	8.49	104	1.7	76	-2.0	291	0	984.1	NA	0.0000		9999	3580	0	0	0
2019/12/04 19:58:00	BASE	4.16	130	8.49	104	1.7	76	-2.1	291	0	984.2	NA	0.0000		9999	3640	0	0	0
2019/12/04 19:59:00	BASE	5.29	122	8.49	104	1.7	76	-2.1	290	0	984.2	NA	0.0000		9999	3610	23000	0	0
2019/12/04 20:00:00	BASE	6.95	113	9.47	102	1.7	76	-2.1	290	0	984.1	NA	0.0000		9999	3740	0	0	0
2019/12/04 20:01:00	BASE	7.85	100	9.47	102	1.7	76	-2.1	290	0	984.0	NA	0.0000		9999	3870	0	0	0
2019/12/04 20:02:01	BASE	8.10	102	11.42	107	1.7	75	-2.2	292	0	983.9	NA	0.0000		9999	3740	0	0	0
2019/12/04 20:03:01	BASE	9.25	103	11.42	107	1.7	75	-2.3	295	0	983.9	NA	0.0000		9999	3740	0	0	0
2019/12/04 20:04:01	BASE	9.62	91	11.42	92	1.7	75	-2.3	297	0	983.9	NA	0.0000		9999	3670	0	0	0
2019/12/04 20:05:01	BASE	7.83	74	11.42	92	1.8	74	-2.3	299	0	984.0	NA	0.0000		9999	3540	0	0	0
2019/12/04 20:06:01	BASE	5.49	71	11.42	92	1.8	74	-2.3	297	0	984.1	NA	0.0000		9999	3450	0	0	0
2019/12/04 20:07:01	BASE	5.30	79	11.42	92	1.8	74	-2.3	292	0	984.0	NA	0.0000		9999	3350	0	0	0
2019/12/04 20:08:01	BASE	5.63	87	11.42	92	1.8	74	-2.2	285	0	984.0	NA	0.0000		9999	3480	3940	0	0
2019/12/04 20:09:01	BASE	5.62	95	11.42	92	1.8	74	-2.2	286	0	984.0	NA	0.0000		9999	3610	0	0	0
2019/12/04 20:10:01	BASE	7.60	94	11.42	92	1.8	74	-2.3	287	0	983.9	NA	0.0000		9999	3710	0	0	0
2019/12/04 20:11:01	BASE	9.25	94	11.42	92	1.8	74	-2.4	288	0	983.8	NA	0.0000		9999	3670	0	0	0
2019/12/04 20:12:01	BASE	8.98	97	11.42	92	1.7	74	-2.4	290	0	983.8	NA	0.0000		9999	3810	0	0	0
2019/12/04 20:13:01	BASE	9.17	94	11.42	92	1.7	74	-2.5	293	0	983.7	NA	0.0000		9999	3940	0	0	0
2019/12/04 20:14:01	BASE	9.22	96	10.85	85	1.7	74	-2.5	296	0	983.7	NA	0.0000		9999	3810	0	0	0
2019/12/04 20:15:01	BASE	8.98	100	10.85	85	1.7	74	-2.4	295	0	983.8	NA	0.0000		9999	3810	0	0	0
2019/12/04 20:16:01	BASE	8.89	105	10.85	85	1.7	74	-2.4	297	0	983.7	NA	0.0000		9999	3970	0	0	0
2019/12/04 20:17:01	BASE	8.81	106	10.85	85	1.7	75	-2.3	298	0	983.8	NA	0.0000		9999	3670	0	0	0
2019/12/04 20:18:01	BASE	8.20	104	10.85	85	1.7	75	-2.3	299	0	983.8	NA	0.0000		9999	3900	0	0	0
2019/12/04 20:19:01	BASE	8.10	101	10.85	85	1.7	75	-2.3	301	0	983.7	NA	0.0000		9999	4890	0	0	0
2019/12/04 20:20:01	BASE	8.62	94	10.75	95	1.6	75	-2.4	298	0	983.7	NA	0.0000		9999	0	0	0	0
2019/12/04 20:21:01	BASE	7.88	95	10.75	95	1.6	75	-2.4	295	0	983.7	NA	0.0000		9999	4130	0	0	0
2019/12/04 20:22:01	BASE	7.32	107	10.75	95	1.6	74	-2.5	294	0	983.7	NA	0.0000	UP	9999	4070	0	0	0
2019/12/04 20:23:01	BASE	6.34	116	10.03	101	1.6	74	-2.6	290	0	983.7	NA	0.0000	UP	9999	3900	0	0	0
2019/12/04 20:24:01	BASE	5.02	111	9.98	92	1.7	73	-2.6	285	0	983.7	NA	0.0000	UP	9999	3050	0	0	0
2019/12/04 20:25:01	BASE	4.94	104	9.98	92	1.7	73	-2.7	283	0	983.7	NA	0.0000	UP	9999	2690	0	0	0
2019/12/04 20:26:01	BASE	4.96	104	9.98	92	1.7	72	-2.7	282	0	983.7	NA	0.0000	UP	9999	4270	0	0	0
2019/12/04 20:27:01	BASE	4.47	110	9.98	92	1.7	73	-2.7	279	0	983.7	NA	0.0000	UP	9999	2230	0	0	0
2019/12/04 20:28:01	BASE	4.08	118	9.98	92	1.7	73	-2.6	277	0	983.7	NA	0.0000	UP	9999	22310	0	0	0
2019/12/04 20:29:01	BASE	4.14	122	9.98	92	1.6	74	-2.5	276	0	983.7	NA	0.0000	UP	9999	18930	21330	0	0
2019/12/04 20:30:01	BASE	4.20	134	8.08	92	1.6	74	-2.5	274	0	983.7	NA	0.0000	UP	9999	0	0	0	0
2019/12/04 20:31:01	BASE	3.82	150	7.82	114	1.6	75	-2.4	273	0	983.7	NA	0.0000	UP	9999	20440	0	0	0
2019/12/04 20:32:01	BASE	3.35	159	6.58	111	1.6	75	-2.3	270	0	983.7	NA	0.0000		9999	19330	0	0	0
2019/12/04 20:33:01	BASE	3.61	166	5.76	92	1.5	76	-2.3	268	0	983.7	NA	0.0000		9999	0	0	0	0
2019/12/04 20:34:01	BASE	4.22	179	5.66	103	1.5	76	-2.2	266	0	983.7	NA	0.0000		9999	0	0	0	0
2019/12/04 20:35:01	BASE	4.37	194	5.40	104	1.5	76	-2.2	264	0	983.7	NA	0.0000		9999	0	0	0	0
2019/12/04 20:36:01	BASE	3.87	186	4.99	122	1.4	77	-2.2	264	0	983.7	NA	0.0000		9999	0	0	0	0
2019/12/04 20:37:01	BASE	3.45	160	4.99	122	1.4	78	-2.1	262	0	983.7	NA	0.0000		9999	3480	0	0	0
2019/12/04 20:38:01	BASE	2.89	147	4.99	122	1.3	79	-2.0	260	0	983.7	NA	0.0000		9999	2460	3900	0	0
2019/12/04 20:39:01	BASE	2.56	149	4.84	180	1.2	80	-1.9	259	0	983.7	NA	0.0000		9999	0	0	0	0
2019/12/04 20:40:01	BASE	2.72	143	4.84	180	1.2	81	-1.7	258	0	983.7	NA	0.0000		9999	0	0	0	0
2019/12/04 20:41:01	BASE	2.50	143	4.84	180	1.1	82	-1.6	256	0	983.8	NA	0.0000		9999	3180	0	0	0
2019/12/04 20:42:01	BASE	1.94	172	4.84	180	1.0	83	-1.6	254	0	983.7	NA	0.0000		9000	3350	0	0	0
2019/12/04 20:43:01	BASE	1.69	189	4.84	180	0.9	84	-1.5	255	0	983.7	NA	0.0000		9999	0	0	0	0
2019/12/04 20:44:02	BASE	1.89	196	4.63	192	0.8	84	-1.5	254	0	983.7	NA	0.0000		9999	0	0	0	0
2019/12/04 20:45:01	BASE	1.94	203	3.86	186	0.8	85	-1.4	253	0	983.7	NA	0.0000		9999	0	0	0	0
2019/12/04 20:46:01	BASE	1.52	206	3.76	155	0.7	86	-1.4	252	0	983.7	NA	0.0000		9999	0	0	0	0
2019/12/04 20:47:01	BASE	0.58	187	3.40	152	0.7	87	-1.2	250	0	983.7	NA	0.0000		9999	0	0	0	0
2019/12/04 20:48:01	BASE	0.00	154	3.40	152	0.8	88	-0.9	251	0	983.7	NA	0.0000		9999	0	0	0	0
2019/12/04 20:49:01	BASE	0.35	146	3.24	124	0.8	89	-0.8	250	0	983.7	NA	0.0000		9999	0	0	0	0
2019/12/04 20:50:01	BASE	0.40	178	2.98	128	0.9	90	-0.6	249	0	983.7	NA	0.0000		9999	23230	0	0	0
2019/12/04 20:51:01	BASE	0.09	310	2.62	207	0.9	90	-0.4	248	0	983.6	NA	0.0000		9999	0	0	0	0
2019/12/04 20:52:01	BASE	0.52	100	2.62	207	1.0	90	-0.4	248	0	983.7	NA	0.0000		9999	0	0	0	0
2019/12/04 20:53:01	BASE	1.46	116	3.09	123	1.0	90	-0.4	248	0	983.6	NA	0.0000		9999	3480	0	0	0
2019/12/04 20:54:01	BASE	2.51	117	3.81	131	1.1	89	-0.5	247	0	983.6	NA	0.0000		9999	0	0	0	0
2019/12/04 20:55:01	BASE	3.26	132	4.84	133	1.1	88	-0.7	246	0	983.5	NA	0.0000		9999	0	0	0	0
2019/12/04 20:56:01	BASE	3.05	143	4.84	133	1.2	86	-1.0	247	0	983.6	NA	0.0000		9999	9880	0	0	0
2019/12/04 20:57:01	BASE	3.54	138	5.45	142	1.2	83	-1.3	247	0	983.5	NA	0.0000		9999	0	0	0	0
2019/12/04 20:58:01	BASE	3.71	130	5.45	142	1.3	81	-1.6	247	0	983.5	NA	0.0000		9999	0	0	0	0
2019/12/04 20:59:01	BASE	2.79	127	5.45	142	1.3	80	-1.8	247	0	983.5	NA	0.0000		9999	0	0	0	0
2019/12/04 21:00:01	BASE	4.02	116	6.64	101	1.4	78	-2.0	247	0	983.5	NA	0.0000		9999	0	0	0	0
2019/12/04 21:01:01	BASE	5.22	110	6.64	101	1.4	77	-2.2	248	0	983.5	NA	0.0000		9999	6560	0	0	0
2019/12/04 21:02:01	BASE	4.94	116	6.64	101	1.4	76	-2.3	248	0	983.5	NA	0.0000		9999	6140	0	0	0
2019/12/04 21:03:01	BASE	5.15	116	6.64	101	1.5	76	-2.3	249	0	983.4	NA	0.0000		9999	0	0	0	0
2019/12/04 21:04:01	BASE	5.57	113	6.64	101	1.5	76	-2.3	248	0	983.4	NA	0.0000		9999	0	0	0	0
2019/12/04 21:05:01	BASE	4.91	117	6.64	101	1.4	76	-2.3	248	0	983.5	NA	0.0000		9999	0	0	0	0
2019/12/04 21:06:01	BASE	3.69	133	6.64	101	1.4	77	-2.2	246	0	983.5	NA	0.0000		9999	0	0	0	0
2019/12/04 21:07:01	BASE	3.48	140	6.64	101	1.4	77	-2.1	245	0	983.5	NA	0.0000		9999	0	0	0	0
2019/12/04 21:08:01	BASE	2.73	143	6.64	101	1.4	78	-2.1	243	0	983.5	NA	0.0000		9999	0	0	0	0
2019/12/04 21:09:01	BASE	2.08	169	6.64	101	1.4	78	-2.0	242	0	983.5	NA	0.0000		9999	0	0	0	0
2019/12/04 21:10:01	BASE	1.44	180	6.58	113	1.3	79	-1.9	240	0	983.5	NA	0.0000		9999	0	0	0	0
2019/12/04 21:11:01	BASE	1.36	189	6.58	113	1.2	80	-1.9	238	0	983.5	NA	0.0000		9999	0	0	0	0
2019/12/04 21:12:01	BASE	2.17	196	6.58	113	1.1	81	-1.8	236	0	983.5	NA	0.0000		9999	21560	0	0	0
2019/12/04 21:13:01	BASE	1.37	180	6.58	113	1.1	81	-1.8	235	0	983.5	NA	0.0000		9999	0	0	0	0
2019/12/04 21:14:01	BASE	0.45	151	5.45	127	1.0	82	-1.6	233	0	983.5	NA	0.0000		9999	3350	0	0	0
2019/12/04 21:15:01	BASE	0.63	152	5.45	127	1.0	83	-1.5	231	0	983.5	NA	0.0000		9999	0	0	0	0
2019/12/04 21:16:01	BASE	1.08	161	4.58	129	1.0	84	-1.3	229	0	983.5	NA	0.0000		9999	0	0	0	0
2019/12/04 21:17:01	BASE	1.71	145	2.98	184	1.0	85	-1.3	228	0	983.5	NA	0.0000		9999	0	0	0	0
2019/12/04 21:18:01	BASE	2.56	132	3.19	130	1.0	85	-1.2	226	0	983.5	NA	0.0000		9999	17260	0	0	0
2019/12/04 21:19:01	BASE	2.10	132	3.19	130	1.0	85	-1.2	225	0	983.5	NA	0.0000		9999	0	0	0	0
2019/12/04 21:20:01	BASE	1.30	148	3.19	130	1.0	85	-1.3	223	0	983.5	NA	0.0000		9999	0	0	0	0
2019/12/04 21:21:01	BASE	1.96	198	3.91	240	1.0	84	-1.4	221	0	983.5	NA	0.0000		9999	10990	0	0	0
2019/12/04 21:22:01	BASE	3.17	236	4.22	235	1.0	84	-1.4	218	0	983.5	NA	0.0000		9999	3640	0	0	0
2019/12/04 21:23:01	BASE	3.46	241	4.22	235	1.0	83	-1.5	215	0	983.5	NA	0.0000		9999	2990	0	0	0
2019/12/04 21:24:01	BASE	3.09	229	4.22	235	0.8	84	-1.6	212	0	983.5	NA	0.0000		9999	10110	10630	0	0
2019/12/04 21:25:01	BASE	2.78	209	4.22	235	0.7	84	-1.7	210	0	983.5	NA	0.0000		9999	3150	0	0	0
2019/12/04 21:26:01	BASE	2.45	196	4.22	235	0.5	86	-1.6	209	0	983.5	NA	0.0000		9999	4200	0	0	0
2019/12/04 21:27:01	BASE	2.22	193	4.22	235	0.4	87	-1.5	209	0	983.5	NA	0.0000		9999	10470	0	0	0
2019/12/04 21:28:01	BASE	2.31	188	4.22	235	0.3	89	-1.3	206	0	983.5	NA	0.0000		9999	3710	0	0	0
2019/12/04 21:29:01	BASE	2.79	194	4.22	235	0.3	91	-1.0	205	0	983.5	NA	0.0000		9999	10730	0	0	0
2019/12/04 21:30:01	BASE	2.57	199	4.22	235	0.3	92	-0.8	203	0	983.5	NA	0.0000		9999	9710	0	0	0
2019/12/04 21:31:02	BASE	1.82	234	4.22	235	0.3	93	-0.7	201	0	983.4	NA	0.0000		9999	9810	0	0	0
2019/12/04 21:32:01	BASE	1.98	300	4.12	326	0.3	94	-0.5	199	0	983.3	NA	0.0000		9999	7680	0	0	0
2019/12/04 21:33:01	BASE	1.99	265	4.12	326	0.3	95	-0.4	197	0	983.3	NA	0.0000		9999	3610	0	0	0
2019/12/04 21:34:01	BASE	2.88	192	6.07	197	0.3	95	-0.3	195	0	983.3	NA	0.0000		9999	3410	0	0	0
2019/12/04 21:35:01	BASE	4.19	199	6.07	197	0.4	95	-0.3	192	0	983.3	NA	0.0000		9999	3450	0	0	0
2019/12/04 21:36:01	BASE	4.06	198	6.07	197	0.5	95	-0.3	187	0	983.4	NA	0.0000		9999	3540	0	0	0
2019/12/04 21:37:01	BASE	4.39	182	6.07	197	0.5	94	-0.3	179	0	983.4	NA	0.0000		9000	1440	3120	0	0
2019/12/04 21:38:01	BASE	5.02	146	6.64	122	0.5	94	-0.4	176	0	983.4	NA	0.0000	UP	7000	1310	3610	0	0
2019/12/04 21:39:01	BASE	4.02	134	6.64	122	0.5	93	-0.5	175	0	983.4	NA	0.0000	UP	9000	690	0	0	0
2019/12/04 21:40:01	BASE	3.44	153	6.64	122	0.4	93	-0.5	174	0	983.4	NA	0.0000	UP	7000	3020	3670	0	0
2019/12/04 21:41:01	BASE	3.16	189	6.64	122	0.4	94	-0.5	173	0	983.4	NA	0.0000	UP	9000	3480	0	0	0
2019/12/04 21:42:01	BASE	2.91	179	6.64	122	0.3	94	-0.5	171	0	983.4	NA	0.0000	UP BR	9000	3450	0	0	0
2019/12/04 21:43:01	BASE	2.66	133	6.64	122	0.3	94	-0.5	170	0	983.5	NA	0.0000	UP BR	9999	3540	0	0	0
2019/12/04 21:44:02	BASE	1.17	130	6.64	122	0.3	94	-0.5	169	0	983.5	NA	0.0000	UP BR	9999	3710	0	0	0
2019/12/04 21:45:01	BASE	0.92	167	6.64	122	0.4	94	-0.5	168	0	983.5	NA	0.0000	UP BR	9999	3350	0	0	0
2019/12/04 21:46:01	BASE	2.40	235	6.64	122	0.4	93	-0.6	169	0	983.4	NA	0.0000	UP BR	9999	3610	0	0	0
2019/12/04 21:47:01	BASE	2.97	257	6.64	122	0.3	93	-0.6	171	0	983.5	NA	0.0000	UP BR	9999	3770	0	0	0
2019/12/04 21:48:01	BASE	1.89	242	6.02	132	0.3	93	-0.6	171	0	983.5	NA	0.0000	UP BR	9999	3900	22470	0	0
2019/12/04 21:49:01	BASE	1.76	243	5.45	174	0.4	93	-0.6	169	0	983.5	NA	0.0000	UP	9999	4990	0	0	0
2019/12/04 21:50:01	BASE	2.17	255	5.30	148	0.4	93	-0.6	164	0	983.5	NA	0.0000	UP	9999	2890	0	0	0
2019/12/04 21:51:01	BASE	2.47	258	5.30	148	0.4	93	-0.5	160	0	983.5	NA	0.0000	UP	9999	2950	0	0	0
2019/12/04 21:52:01	BASE	3.51	253	5.40	252	0.4	93	-0.5	158	0	983.5	NA	0.0000	UP	9999	2990	0	0	0
2019/12/04 21:53:01	BASE	3.90	250	5.40	252	0.4	93	-0.5	158	0	983.5	NA	0.0000	UP	9999	3120	3710	0	0
2019/12/04 21:54:01	BASE	3.68	259	5.40	252	0.4	93	-0.6	157	0	983.5	NA	0.0000		9999	3020	0	0	0
2019/12/04 21:55:01	BASE	3.83	265	5.40	252	0.4	93	-0.6	155	0	983.5	NA	0.0000		9999	2560	0	0	0
2019/12/04 21:56:01	BASE	3.77	261	5.40	252	0.3	93	-0.7	154	0	983.5	NA	0.0000		9999	2690	0	0	0
2019/12/04 21:57:01	BASE	3.13	259	5.40	252	0.3	93	-0.7	154	0	983.5	NA	0.0000		9999	3150	0	0	0
2019/12/04 21:58:01	BASE	2.52	255	5.40	252	0.2	94	-0.6	154	0	983.5	NA	0.0000		9999	4070	0	0	0
2019/12/04 21:59:01	BASE	2.31	245	5.40	252	0.2	94	-0.6	154	0	983.5	NA	0.0000		9999	3150	0	0	0
2019/12/04 22:00:01	BASE	2.34	232	5.40	252	0.2	95	-0.5	154	0	983.5	NA	0.0000		9999	2490	3350	0	0
2019/12/04 22:41:58	BASE	M	M	M	M	M	M	M	87	0	M	NA	0.0000		M	1350	0	0	0
2019/12/04 22:42:02	BASE	M	M	M	M	M	M	M	81	0	M	NA	0.0000	UP	M	1310	0	0	0
2019/12/04 22:43:00	BASE	M	M	M	M	M	M	M	77	0	983.9	NA	0.0000	UP	4800	2030	0	0	0
2019/12/04 22:44:00	BASE	3.03	264	M	M	M	M	M	76	0	983.8	NA	0.0000	UP	6000	980	1570	0	0
2019/12/04 22:45:00	BASE	4.03	264	M	M	M	M	M	78	0	983.8	NA	0.0000	UP	6000	1970	3020	0	0
2019/12/04 22:46:00	BASE	5.26	262	M	M	-0.4	100	-0.4	79	0	983.7	NA	0.0000	UP	6000	2330	3020	0	0
2019/12/04 22:47:00	BASE	5.74	259	M	M	-0.4	100	-0.4	80	0	983.7	NA	0.0000	UP	6000	3150	0	0	0
2019/12/04 22:48:00	BASE	5.20	257	M	M	-0.4	100	-0.4	80	0	983.6	NA	0.0000	UP	6000	3120	0	0	0
2019/12/04 22:49:00	BASE	4.76	261	M	M	-0.4	100	-0.4	81	0	983.6	NA	0.0000	UP	6000	3250	0	0	0
2019/12/04 22:50:01	BASE	5.34	260	7.15	244	-0.4	100	-0.4	84	0	983.6	NA	0.0000	UP BR	6000	1840	3610	0	0
2019/12/04 22:51:00	BASE	5.92	250	7.15	244	-0.4	100	-0.4	84	0	983.6	NA	0.0000	UP BR	6000	1640	0	0	0
2019/12/04 22:52:00	BASE	5.65	239	7.15	244	-0.5	100	-0.5	83	0	983.7	NA	0.0000	UP BR	6000	3480	0	0	0
2019/12/04 22:53:01	BASE	4.89	235	7.15	244	-0.5	100	-0.5	83	0	983.7	NA	0.0000	UP BR	6000	1710	3310	0	0
2019/12/04 22:54:00	BASE	4.13	236	7.15	244	-0.5	100	-0.5	84	0	983.7	NA	0.0000	BR	6000	2460	3310	0	0
2019/12/04 22:55:00	BASE	3.58	240	7.15	244	-0.5	100	-0.5	84	0	983.7	NA	0.0000	BR	6000	2890	3580	0	0
2019/12/04 22:56:00	BASE	2.95	243	7.15	244	-0.5	100	-0.5	84	0	983.7	NA	0.0000	BR	6000	3410	0	0	0
2019/12/04 22:57:00	BASE	2.47	226	6.74	233	-0.5	100	-0.5	85	0	983.7	NA	0.0000	BR	6000	3580	0	0	0
2019/12/04 22:58:01	BASE	3.24	219	6.74	233	-0.5	100	-0.5	85	0	983.7	NA	0.0000	BR	6000	3540	0	0	0
2019/12/04 22:59:00	BASE	3.86	232	6.74	233	-0.5	100	-0.5	86	0	983.7	NA	0.0000	BR	6000	3450	0	0	0
2019/12/04 23:00:00	BASE	3.26	228	6.74	233	-0.5	100	-0.5	86	0	983.7	NA	0.0000	BR	6000	3810	0	0	0
2019/12/04 23:01:00	BASE	2.86	217	6.43	236	-0.5	100	-0.5	83	0	983.7	NA	0.0000	UP BR	6000	3410	0	0	0
2019/12/04 23:02:00	BASE	2.38	219	5.04	232	-0.5	100	-0.5	77	0	983.8	NA	0.0000	UP BR	6000	1080	3220	0	0
2019/12/04 23:03:00	BASE	0.98	222	4.89	241	-0.5	100	-0.5	74	0	983.9	NA	0.0000	UP BR	6000	1150	0	0	0
2019/12/04 23:04:00	BASE	0.10	215	4.89	241	-0.5	100	-0.5	75	0	983.9	NA	0.0000	UP BR	6000	1150	0	0	0
2019/12/04 23:05:01	BASE	0.00	352	4.48	235	-0.5	100	-0.5	77	0	983.9	NA	0.0000	UP BR	6000	1180	0	0	0
2019/12/04 23:06:01	BASE	0.09	9	4.48	235	-0.4	100	-0.4	81	0	983.9	NA	0.0000	UP BR	6000	690	0	0	0
2019/12/04 23:07:01	BASE	0.09	6	4.48	235	-0.4	100	-0.4	83	0	984.0	NA	0.0000	UP BR	9999	1280	3810	0	0
2019/12/04 23:08:01	BASE	0.05	249	4.32	231	-0.4	100	-0.4	86	0	984.0	NA	0.0000	BR	9999	720	0	0	0
2019/12/04 23:09:01	BASE	0.77	180	3.91	204	-0.4	100	-0.4	87	0	983.9	NA	0.0000	BR	9999	660	3080	0	0
2019/12/04 23:10:00	BASE	1.97	175	3.91	204	-0.5	100	-0.5	87	0	983.9	NA	0.0000	BR	9999	2720	3380	0	0
2019/12/04 23:11:00	BASE	2.56	201	3.19	171	-0.5	100	-0.5	86	0	983.9	NA	0.0000	BR	9999	2820	0	0	0
2019/12/04 23:12:00	BASE	2.45	218	3.19	171	-0.5	100	-0.5	83	0	983.9	NA	0.0000	BR	9999	2850	0	0	0
2019/12/04 23:13:00	BASE	2.36	222	3.19	171	-0.5	100	-0.5	81	0	984.0	NA	0.0000	BR	9999	1440	2820	0	0
2019/12/04 23:14:00	BASE	2.70	221	3.50	221	-0.5	100	-0.5	81	0	983.9	NA	0.0000	BR	9999	1350	2530	0	0
2019/12/04 23:15:00	BASE	3.05	225	3.50	221	-0.6	100	-0.6	83	0	983.9	NA	0.0000	BR	9999	2820	0	0	0
2019/12/04 23:16:00	BASE	3.09	229	3.81	218	-0.5	100	-0.5	85	0	983.9	NA	0.0000	UP BR	9000	2890	0	0	0
2019/12/04 23:17:00	BASE	3.02	229	3.81	218	-0.5	100	-0.5	85	0	983.9	NA	0.0000	UP BR	9000	2070	0	0	0
2019/12/04 23:18:00	BASE	2.74	220	3.81	218	-0.5	100	-0.5	85	0	983.9	NA	0.0000	UP BR	9000	1570	0	0	0
2019/12/04 23:19:00	BASE	2.39	219	3.81	218	-0.6	100	-0.6	84	0	983.9	NA	0.0000	UP BR	8000	2950	0	0	0
2019/12/04 23:20:00	BASE	2.25	236	3.81	218	-0.6	100	-0.6	82	0	983.9	NA	0.0000	UP BR	9000	2720	0	0	0
2019/12/04 23:21:00	BASE	2.46	242	3.81	218	-0.6	100	-0.6	78	0	984.0	NA	0.0000	UP BR	6000	1640	2790	0	0
2019/12/04 23:22:00	BASE	2.77	236	3.81	218	-0.6	100	-0.6	75	0	984.0	NA	0.0000	UP BR	8000	2560	0	0	0
2019/12/04 23:23:00	BASE	3.35	232	4.63	225	-0.6	100	-0.6	74	0	983.9	NA	0.0000	UP BR	5000	2260	2790	0	0
2019/12/04 23:24:00	BASE	3.87	229	4.63	225	-0.6	100	-0.6	74	0	983.9	NA	0.0000	UP BR	5000	2100	2850	0	0
2019/12/04 23:25:00	BASE	3.69	223	4.63	225	-0.6	100	-0.6	74	0	984.0	NA	0.0000	UP BR	5000	1770	3020	0	0
2019/12/04 23:26:00	BASE	3.30	222	4.63	225	-0.6	100	-0.6	73	0	984.0	NA	0.0000	UP BR	6000	3050	0	0	0
2019/12/04 23:27:00	BASE	3.83	214	4.94	203	-0.5	100	-0.5	72	0	983.9	NA	0.0000	UP BR	8000	1410	3080	0	0
2019/12/04 23:28:00	BASE	4.29	202	4.94	203	-0.5	100	-0.5	71	0	983.9	NA	0.0000	UP BR	8000	2560	3080	0	0
2019/12/04 23:29:00	BASE	4.06	209	4.94	203	-0.5	100	-0.5	71	0	984.0	NA	0.0000	UP BR	6000	2530	0	0	0
2019/12/04 23:30:00	BASE	4.23	215	4.99	223	-0.5	100	-0.5	70	0	983.9	NA	0.0000	UP BR	5000	2990	0	0	0
2019/12/04 23:31:00	BASE	4.67	219	5.40	227	-0.5	100	-0.5	69	0	983.9	NA	0.0000	UP BR	3900	3840	0	0	0
2019/12/04 23:32:00	BASE	4.61	228	5.40	227	-0.5	100	-0.5	67	0	983.9	NA	0.0000	UP BR	4700	3180	0	0	0
2019/12/04 23:33:00	BASE	4.36	232	5.40	227	-0.6	100	-0.6	66	0	983.9	NA	0.0000	UP BR	4800	0	0	0	6170
2019/12/04 23:34:00	BASE	4.10	232	5.40	227	-0.6	100	-0.6	65	0	983.9	NA	0.0000	UP BR	3700	3450	0	0	0
2019/12/04 23:35:00	BASE	4.21	236	6.38	244	-0.6	100	-0.6	63	0	983.8	NA	0.0000	UP BR	3300	4170	0	0	0
2019/12/04 23:36:00	BASE	4.96	241	6.38	244	-0.6	100	-0.6	62	0	983.8	NA	0.0000	UP BR	3600	4040	0	0	0
2019/12/04 23:37:00	BASE	5.13	241	6.38	244	-0.6	100	-0.6	61	0	983.8	NA	0.0000	UP BR	4200	0	0	0	4200
2019/12/04 23:38:00	BASE	4.98	240	6.38	244	-0.6	100	-0.6	59	0	983.8	NA	0.0000	UP BR	4800	3870	0	0	0
2019/12/04 23:39:00	BASE	4.75	234	6.38	244	-0.6	100	-0.6	57	0	983.9	NA	0.0000	UP BR	5000	6860	0	0	0
2019/12/04 23:40:00	BASE	4.97	235	6.38	244	-0.6	100	-0.6	55	0	983.7	NA	0.0000	UP BR	4900	4430	0	0	0
2019/12/04 23:41:00	BASE	5.15	239	6.38	244	-0.6	100	-0.6	53	0	983.7	NA	0.0000	UP BR	4900	4300	0	0	0
2019/12/04 23:42:00	BASE	4.90	219	6.38	244	-0.6	100	-0.6	53	0	983.8	NA	0.0000	UP BR	4900	4300	0	0	0
2019/12/04 23:43:00	BASE	4.24	218	6.38	244	-0.6	100	-0.6	52	0	983.9	NA	0.0000	UP BR	4800	2490	0	0	0
2019/12/04 23:44:00	BASE	3.85	233	6.38	244	-0.6	100	-0.6	52	0	983.9	NA	0.0000	UP BR	4100	4230	0	0	0
2019/12/04 23:45:00	BASE	4.08	228	5.81	221	-0.6	100	-0.6	51	0	983.9	NA	0.0000	UP BR	5000	4430	0	0	0
2019/12/04 23:46:00	BASE	3.63	220	5.81	221	-0.7	100	-0.7	50	0	983.9	NA	0.0000	UP BR	5000	4400	0	0	0
2019/12/04 23:47:00	BASE	3.47	223	5.81	221	-0.6	100	-0.6	49	0	983.9	NA	0.0000	UP BR	5000	4400	0	0	0
2019/12/04 23:48:00	BASE	3.54	233	5.81	221	-0.7	100	-0.7	48	0	983.9	NA	0.0000	UP BR	6000	4490	0	0	0
2019/12/04 23:49:00	BASE	3.03	238	5.81	221	-0.7	100	-0.7	48	0	983.9	NA	0.0000	UP BR	6000	4400	0	0	0
2019/12/04 23:50:00	BASE	2.86	241	5.81	221	-0.6	100	-0.6	47	0	983.9	NA	0.0000	UP BR	6000	3050	4400	0	0
2019/12/04 23:51:00	BASE	2.91	237	5.81	221	-0.6	100	-0.6	46	0	983.9	NA	0.0000	UP BR	5000	4300	0	0	0
2019/12/04 23:52:00	BASE	2.68	236	4.58	236	-0.6	100	-0.6	45	0	983.9	NA	0.0000	UP BR	6000	3220	0	0	0
2019/12/04 23:53:00	BASE	2.49	242	4.58	236	-0.6	100	-0.6	45	0	983.9	NA	0.0000	UP BR	6000	3220	0	0	0
2019/12/04 23:54:00	BASE	2.50	246	4.42	236	-0.6	100	-0.6	44	0	983.9	NA	0.0000	UP BR	6000	3280	0	0	0
2019/12/04 23:55:00	BASE	2.42	253	4.06	237	-0.6	100	-0.6	45	0	983.9	NA	0.0000	UP BR	6000	3350	0	0	0
2019/12/04 23:56:00	BASE	2.16	251	4.06	237	-0.6	100	-0.6	45	0	983.9	NA	0.0000	UP BR	6000	3450	0	0	0
2019/12/04 23:57:00	BASE	2.27	241	3.76	245	-0.6	100	-0.6	44	0	983.9	NA	0.0000	UP BR	6000	4170	0	0	0
2019/12/04 23:58:00	BASE	2.58	235	3.65	240	-0.6	100	-0.6	44	0	983.9	NA	0.0000	UP BR	6000	3610	0	0	0
2019/12/04 23:59:00	BASE	2.76	236	3.76	242	-0.6	100	-0.6	45	0	983.9	NA	0.0000	UP BR	6000	2430	3580	0	0